<?xml version="1.0" encoding="UTF-8" standalone="no" ?>
<gpx xmlns="http://www.topografix.com/GPX/1/1" xmlns:xsi="http://www.w3.org/2001/XMLSchema-instance" xsi:schemaLocation="http://www.topografix.com/GPX/1/1 http://www.topografix.com/GPX/1/1/gpx.xsd" version="1.1" creator="VisuGPX - https://www.visugpx.com">
  <metadata>
    <name>Balma 38 km/423d </name>
    <desc><![CDATA[Balma 38 km/4232 d ]]></desc>
  </metadata>
  <trk>
    <name><![CDATA[2015-11-11 08:51]]></name>
    <desc><![CDATA[Total: 38.1km]]></desc>
    <trkseg>
      <trkpt lat="43.60571" lon="1.50056">
        <ele>157.03</ele>
        <time>2015-11-11T07:51:44Z</time>
      </trkpt>
      <trkpt lat="43.60555" lon="1.50044">
        <ele>164.37</ele>
        <time>2015-11-11T07:52:43Z</time>
      </trkpt>
      <trkpt lat="43.60569" lon="1.50061">
        <ele>171.34</ele>
        <time>2015-11-11T07:56:49Z</time>
      </trkpt>
      <trkpt lat="43.60552" lon="1.50048">
        <ele>170.88</ele>
        <time>2015-11-11T07:57:33Z</time>
      </trkpt>
      <trkpt lat="43.60561" lon="1.50071">
        <ele>172.69</ele>
        <time>2015-11-11T08:02:15Z</time>
      </trkpt>
      <trkpt lat="43.60551" lon="1.50098">
        <ele>173.63</ele>
        <time>2015-11-11T08:02:25Z</time>
      </trkpt>
      <trkpt lat="43.60559" lon="1.50122">
        <ele>174.32</ele>
        <time>2015-11-11T08:02:31Z</time>
      </trkpt>
      <trkpt lat="43.60556" lon="1.50149">
        <ele>174.63</ele>
        <time>2015-11-11T08:02:39Z</time>
      </trkpt>
      <trkpt lat="43.60543" lon="1.50168">
        <ele>174.77</ele>
        <time>2015-11-11T08:02:45Z</time>
      </trkpt>
      <trkpt lat="43.60529" lon="1.50186">
        <ele>174.96</ele>
        <time>2015-11-11T08:02:51Z</time>
      </trkpt>
      <trkpt lat="43.60516" lon="1.50205">
        <ele>174.89</ele>
        <time>2015-11-11T08:02:57Z</time>
      </trkpt>
      <trkpt lat="43.60499" lon="1.50227">
        <ele>174.74</ele>
        <time>2015-11-11T08:03:05Z</time>
      </trkpt>
      <trkpt lat="43.60484" lon="1.50244">
        <ele>174.73</ele>
        <time>2015-11-11T08:03:11Z</time>
      </trkpt>
      <trkpt lat="43.60468" lon="1.50266">
        <ele>174.81</ele>
        <time>2015-11-11T08:03:17Z</time>
      </trkpt>
      <trkpt lat="43.60452" lon="1.50286">
        <ele>174.74</ele>
        <time>2015-11-11T08:03:23Z</time>
      </trkpt>
      <trkpt lat="43.60436" lon="1.50307">
        <ele>174.95</ele>
        <time>2015-11-11T08:03:29Z</time>
      </trkpt>
      <trkpt lat="43.60416" lon="1.50332">
        <ele>175.11</ele>
        <time>2015-11-11T08:03:35Z</time>
      </trkpt>
      <trkpt lat="43.60402" lon="1.50352">
        <ele>174.95</ele>
        <time>2015-11-11T08:03:39Z</time>
      </trkpt>
      <trkpt lat="43.60383" lon="1.50377">
        <ele>174.24</ele>
        <time>2015-11-11T08:03:43Z</time>
      </trkpt>
      <trkpt lat="43.60364" lon="1.50403">
        <ele>173.78</ele>
        <time>2015-11-11T08:03:47Z</time>
      </trkpt>
      <trkpt lat="43.60349" lon="1.50423">
        <ele>173.8</ele>
        <time>2015-11-11T08:03:51Z</time>
      </trkpt>
      <trkpt lat="43.60335" lon="1.50444">
        <ele>174.05</ele>
        <time>2015-11-11T08:03:57Z</time>
      </trkpt>
      <trkpt lat="43.60328" lon="1.50467">
        <ele>174.29</ele>
        <time>2015-11-11T08:04:03Z</time>
      </trkpt>
      <trkpt lat="43.60313" lon="1.50489">
        <ele>174.59</ele>
        <time>2015-11-11T08:04:09Z</time>
      </trkpt>
      <trkpt lat="43.60297" lon="1.50513">
        <ele>174.89</ele>
        <time>2015-11-11T08:04:15Z</time>
      </trkpt>
      <trkpt lat="43.60283" lon="1.50537">
        <ele>175.15</ele>
        <time>2015-11-11T08:04:21Z</time>
      </trkpt>
      <trkpt lat="43.60271" lon="1.5056">
        <ele>175.54</ele>
        <time>2015-11-11T08:04:27Z</time>
      </trkpt>
      <trkpt lat="43.60258" lon="1.50585">
        <ele>175.92</ele>
        <time>2015-11-11T08:04:33Z</time>
      </trkpt>
      <trkpt lat="43.60246" lon="1.50612">
        <ele>176.22</ele>
        <time>2015-11-11T08:04:39Z</time>
      </trkpt>
      <trkpt lat="43.60232" lon="1.50642">
        <ele>176.42</ele>
        <time>2015-11-11T08:04:45Z</time>
      </trkpt>
      <trkpt lat="43.60223" lon="1.50663">
        <ele>176.55</ele>
        <time>2015-11-11T08:04:49Z</time>
      </trkpt>
      <trkpt lat="43.60212" lon="1.50685">
        <ele>176.66</ele>
        <time>2015-11-11T08:04:53Z</time>
      </trkpt>
      <trkpt lat="43.602" lon="1.50712">
        <ele>176.64</ele>
        <time>2015-11-11T08:04:57Z</time>
      </trkpt>
      <trkpt lat="43.60188" lon="1.50738">
        <ele>176.43</ele>
        <time>2015-11-11T08:05:01Z</time>
      </trkpt>
      <trkpt lat="43.60171" lon="1.50753">
        <ele>176.28</ele>
        <time>2015-11-11T08:05:05Z</time>
      </trkpt>
      <trkpt lat="43.60149" lon="1.50757">
        <ele>176.25</ele>
        <time>2015-11-11T08:05:11Z</time>
      </trkpt>
      <trkpt lat="43.60127" lon="1.5075">
        <ele>176.3</ele>
        <time>2015-11-11T08:05:17Z</time>
      </trkpt>
      <trkpt lat="43.60102" lon="1.50744">
        <ele>176.63</ele>
        <time>2015-11-11T08:05:23Z</time>
      </trkpt>
      <trkpt lat="43.60078" lon="1.50737">
        <ele>176.88</ele>
        <time>2015-11-11T08:05:29Z</time>
      </trkpt>
      <trkpt lat="43.60063" lon="1.50751">
        <ele>177.21</ele>
        <time>2015-11-11T08:05:39Z</time>
      </trkpt>
      <trkpt lat="43.60057" lon="1.50778">
        <ele>176.54</ele>
        <time>2015-11-11T08:05:45Z</time>
      </trkpt>
      <trkpt lat="43.60044" lon="1.50801">
        <ele>175.12</ele>
        <time>2015-11-11T08:05:55Z</time>
      </trkpt>
      <trkpt lat="43.60026" lon="1.50803">
        <ele>175.07</ele>
        <time>2015-11-11T08:06:05Z</time>
      </trkpt>
      <trkpt lat="43.60009" lon="1.50791">
        <ele>175.12</ele>
        <time>2015-11-11T08:06:11Z</time>
      </trkpt>
      <trkpt lat="43.59985" lon="1.50791">
        <ele>175.26</ele>
        <time>2015-11-11T08:06:17Z</time>
      </trkpt>
      <trkpt lat="43.59964" lon="1.50792">
        <ele>175.64</ele>
        <time>2015-11-11T08:06:23Z</time>
      </trkpt>
      <trkpt lat="43.59942" lon="1.50794">
        <ele>174.85</ele>
        <time>2015-11-11T08:06:31Z</time>
      </trkpt>
      <trkpt lat="43.5994" lon="1.50799">
        <ele>173.41</ele>
        <time>2015-11-11T08:07:25Z</time>
      </trkpt>
      <trkpt lat="43.59952" lon="1.50818">
        <ele>172.89</ele>
        <time>2015-11-11T08:07:33Z</time>
      </trkpt>
      <trkpt lat="43.59967" lon="1.5084">
        <ele>172.87</ele>
        <time>2015-11-11T08:07:41Z</time>
      </trkpt>
      <trkpt lat="43.59979" lon="1.50863">
        <ele>172.76</ele>
        <time>2015-11-11T08:07:47Z</time>
      </trkpt>
      <trkpt lat="43.59994" lon="1.50878">
        <ele>172.25</ele>
        <time>2015-11-11T08:07:53Z</time>
      </trkpt>
      <trkpt lat="43.60016" lon="1.50891">
        <ele>171.56</ele>
        <time>2015-11-11T08:08:01Z</time>
      </trkpt>
      <trkpt lat="43.60042" lon="1.50896">
        <ele>171.21</ele>
        <time>2015-11-11T08:08:07Z</time>
      </trkpt>
      <trkpt lat="43.60065" lon="1.50899">
        <ele>171.11</ele>
        <time>2015-11-11T08:08:13Z</time>
      </trkpt>
      <trkpt lat="43.60086" lon="1.50905">
        <ele>171.08</ele>
        <time>2015-11-11T08:08:19Z</time>
      </trkpt>
      <trkpt lat="43.60103" lon="1.50918">
        <ele>171.55</ele>
        <time>2015-11-11T08:08:25Z</time>
      </trkpt>
      <trkpt lat="43.60119" lon="1.50933">
        <ele>172.32</ele>
        <time>2015-11-11T08:08:33Z</time>
      </trkpt>
      <trkpt lat="43.60124" lon="1.50958">
        <ele>171.19</ele>
        <time>2015-11-11T08:09:35Z</time>
      </trkpt>
      <trkpt lat="43.60139" lon="1.50975">
        <ele>170.73</ele>
        <time>2015-11-11T08:09:43Z</time>
      </trkpt>
      <trkpt lat="43.60154" lon="1.50996">
        <ele>170.47</ele>
        <time>2015-11-11T08:09:51Z</time>
      </trkpt>
      <trkpt lat="43.60158" lon="1.51022">
        <ele>169.54</ele>
        <time>2015-11-11T08:09:59Z</time>
      </trkpt>
      <trkpt lat="43.60162" lon="1.51053">
        <ele>168.64</ele>
        <time>2015-11-11T08:10:07Z</time>
      </trkpt>
      <trkpt lat="43.60165" lon="1.51083">
        <ele>168.16</ele>
        <time>2015-11-11T08:10:13Z</time>
      </trkpt>
      <trkpt lat="43.60169" lon="1.51116">
        <ele>167.75</ele>
        <time>2015-11-11T08:10:19Z</time>
      </trkpt>
      <trkpt lat="43.60169" lon="1.51149">
        <ele>167.65</ele>
        <time>2015-11-11T08:10:25Z</time>
      </trkpt>
      <trkpt lat="43.60168" lon="1.51184">
        <ele>167.77</ele>
        <time>2015-11-11T08:10:31Z</time>
      </trkpt>
      <trkpt lat="43.6018" lon="1.51206">
        <ele>167.59</ele>
        <time>2015-11-11T08:10:37Z</time>
      </trkpt>
      <trkpt lat="43.60187" lon="1.51232">
        <ele>167.41</ele>
        <time>2015-11-11T08:10:45Z</time>
      </trkpt>
      <trkpt lat="43.60185" lon="1.51263">
        <ele>167.09</ele>
        <time>2015-11-11T08:10:51Z</time>
      </trkpt>
      <trkpt lat="43.60186" lon="1.51296">
        <ele>166.82</ele>
        <time>2015-11-11T08:10:57Z</time>
      </trkpt>
      <trkpt lat="43.60186" lon="1.51324">
        <ele>166.51</ele>
        <time>2015-11-11T08:11:03Z</time>
      </trkpt>
      <trkpt lat="43.60185" lon="1.51352">
        <ele>166.17</ele>
        <time>2015-11-11T08:11:09Z</time>
      </trkpt>
      <trkpt lat="43.60187" lon="1.51377">
        <ele>165.74</ele>
        <time>2015-11-11T08:11:15Z</time>
      </trkpt>
      <trkpt lat="43.60199" lon="1.51398">
        <ele>165.35</ele>
        <time>2015-11-11T08:11:21Z</time>
      </trkpt>
      <trkpt lat="43.60196" lon="1.51424">
        <ele>164.93</ele>
        <time>2015-11-11T08:11:29Z</time>
      </trkpt>
      <trkpt lat="43.60196" lon="1.51456">
        <ele>165.28</ele>
        <time>2015-11-11T08:11:37Z</time>
      </trkpt>
      <trkpt lat="43.60197" lon="1.51483">
        <ele>165.59</ele>
        <time>2015-11-11T08:11:43Z</time>
      </trkpt>
      <trkpt lat="43.602" lon="1.5151">
        <ele>166.47</ele>
        <time>2015-11-11T08:11:51Z</time>
      </trkpt>
      <trkpt lat="43.60204" lon="1.51536">
        <ele>167.6</ele>
        <time>2015-11-11T08:11:59Z</time>
      </trkpt>
      <trkpt lat="43.60217" lon="1.51556">
        <ele>167.67</ele>
        <time>2015-11-11T08:12:03Z</time>
      </trkpt>
      <trkpt lat="43.60236" lon="1.51576">
        <ele>167.14</ele>
        <time>2015-11-11T08:12:09Z</time>
      </trkpt>
      <trkpt lat="43.60255" lon="1.51589">
        <ele>166.91</ele>
        <time>2015-11-11T08:12:15Z</time>
      </trkpt>
      <trkpt lat="43.60269" lon="1.51616">
        <ele>166.8</ele>
        <time>2015-11-11T08:12:21Z</time>
      </trkpt>
      <trkpt lat="43.60278" lon="1.51646">
        <ele>167.02</ele>
        <time>2015-11-11T08:12:27Z</time>
      </trkpt>
      <trkpt lat="43.60289" lon="1.51667">
        <ele>167.98</ele>
        <time>2015-11-11T08:12:39Z</time>
      </trkpt>
      <trkpt lat="43.60301" lon="1.51688">
        <ele>168.91</ele>
        <time>2015-11-11T08:12:49Z</time>
      </trkpt>
      <trkpt lat="43.60313" lon="1.51708">
        <ele>169.18</ele>
        <time>2015-11-11T08:12:55Z</time>
      </trkpt>
      <trkpt lat="43.60326" lon="1.51733">
        <ele>169.34</ele>
        <time>2015-11-11T08:13:01Z</time>
      </trkpt>
      <trkpt lat="43.60337" lon="1.51756">
        <ele>169</ele>
        <time>2015-11-11T08:13:07Z</time>
      </trkpt>
      <trkpt lat="43.60346" lon="1.51781">
        <ele>168.81</ele>
        <time>2015-11-11T08:13:15Z</time>
      </trkpt>
      <trkpt lat="43.60358" lon="1.51809">
        <ele>168.41</ele>
        <time>2015-11-11T08:13:23Z</time>
      </trkpt>
      <trkpt lat="43.60367" lon="1.51836">
        <ele>168.76</ele>
        <time>2015-11-11T08:13:31Z</time>
      </trkpt>
      <trkpt lat="43.60376" lon="1.51859">
        <ele>169</ele>
        <time>2015-11-11T08:13:39Z</time>
      </trkpt>
      <trkpt lat="43.60384" lon="1.51882">
        <ele>169.53</ele>
        <time>2015-11-11T08:13:45Z</time>
      </trkpt>
      <trkpt lat="43.60389" lon="1.51911">
        <ele>170.36</ele>
        <time>2015-11-11T08:13:53Z</time>
      </trkpt>
      <trkpt lat="43.60394" lon="1.51938">
        <ele>171.03</ele>
        <time>2015-11-11T08:14:01Z</time>
      </trkpt>
      <trkpt lat="43.6041" lon="1.5195">
        <ele>169.72</ele>
        <time>2015-11-11T08:14:11Z</time>
      </trkpt>
      <trkpt lat="43.60429" lon="1.51945">
        <ele>169.91</ele>
        <time>2015-11-11T08:14:25Z</time>
      </trkpt>
      <trkpt lat="43.60445" lon="1.51933">
        <ele>172.86</ele>
        <time>2015-11-11T08:14:59Z</time>
      </trkpt>
      <trkpt lat="43.60463" lon="1.51925">
        <ele>178.33</ele>
        <time>2015-11-11T08:15:23Z</time>
      </trkpt>
      <trkpt lat="43.60481" lon="1.51912">
        <ele>181.85</ele>
        <time>2015-11-11T08:15:45Z</time>
      </trkpt>
      <trkpt lat="43.605" lon="1.51915">
        <ele>186.35</ele>
        <time>2015-11-11T08:16:11Z</time>
      </trkpt>
      <trkpt lat="43.60503" lon="1.51944">
        <ele>187.81</ele>
        <time>2015-11-11T08:16:21Z</time>
      </trkpt>
      <trkpt lat="43.6051" lon="1.51968">
        <ele>189.45</ele>
        <time>2015-11-11T08:16:31Z</time>
      </trkpt>
      <trkpt lat="43.60527" lon="1.51978">
        <ele>190.75</ele>
        <time>2015-11-11T08:17:19Z</time>
      </trkpt>
      <trkpt lat="43.60546" lon="1.5198">
        <ele>191.93</ele>
        <time>2015-11-11T08:18:13Z</time>
      </trkpt>
      <trkpt lat="43.60552" lon="1.51954">
        <ele>192.17</ele>
        <time>2015-11-11T08:19:01Z</time>
      </trkpt>
      <trkpt lat="43.60556" lon="1.51923">
        <ele>192.1</ele>
        <time>2015-11-11T08:19:09Z</time>
      </trkpt>
      <trkpt lat="43.60567" lon="1.519">
        <ele>192.23</ele>
        <time>2015-11-11T08:19:17Z</time>
      </trkpt>
      <trkpt lat="43.60583" lon="1.51885">
        <ele>192.6</ele>
        <time>2015-11-11T08:19:25Z</time>
      </trkpt>
      <trkpt lat="43.606" lon="1.51867">
        <ele>193.42</ele>
        <time>2015-11-11T08:19:33Z</time>
      </trkpt>
      <trkpt lat="43.60614" lon="1.51844">
        <ele>192.9</ele>
        <time>2015-11-11T08:19:41Z</time>
      </trkpt>
      <trkpt lat="43.60629" lon="1.51823">
        <ele>194.69</ele>
        <time>2015-11-11T08:19:49Z</time>
      </trkpt>
      <trkpt lat="43.60645" lon="1.51801">
        <ele>196.2</ele>
        <time>2015-11-11T08:19:57Z</time>
      </trkpt>
      <trkpt lat="43.60664" lon="1.518">
        <ele>196.69</ele>
        <time>2015-11-11T08:20:07Z</time>
      </trkpt>
      <trkpt lat="43.6068" lon="1.51815">
        <ele>196.37</ele>
        <time>2015-11-11T08:20:15Z</time>
      </trkpt>
      <trkpt lat="43.607" lon="1.51809">
        <ele>196.97</ele>
        <time>2015-11-11T08:20:23Z</time>
      </trkpt>
      <trkpt lat="43.60713" lon="1.51791">
        <ele>197.89</ele>
        <time>2015-11-11T08:20:31Z</time>
      </trkpt>
      <trkpt lat="43.60727" lon="1.51774">
        <ele>197.65</ele>
        <time>2015-11-11T08:20:37Z</time>
      </trkpt>
      <trkpt lat="43.60742" lon="1.51754">
        <ele>198.45</ele>
        <time>2015-11-11T08:20:45Z</time>
      </trkpt>
      <trkpt lat="43.60758" lon="1.51734">
        <ele>199.36</ele>
        <time>2015-11-11T08:20:53Z</time>
      </trkpt>
      <trkpt lat="43.60775" lon="1.51714">
        <ele>200.24</ele>
        <time>2015-11-11T08:21:01Z</time>
      </trkpt>
      <trkpt lat="43.60791" lon="1.51691">
        <ele>199.16</ele>
        <time>2015-11-11T08:21:07Z</time>
      </trkpt>
      <trkpt lat="43.60808" lon="1.51665">
        <ele>197.39</ele>
        <time>2015-11-11T08:21:13Z</time>
      </trkpt>
      <trkpt lat="43.60823" lon="1.51635">
        <ele>196.78</ele>
        <time>2015-11-11T08:21:19Z</time>
      </trkpt>
      <trkpt lat="43.60839" lon="1.51605">
        <ele>196.09</ele>
        <time>2015-11-11T08:21:25Z</time>
      </trkpt>
      <trkpt lat="43.60853" lon="1.51588">
        <ele>194.57</ele>
        <time>2015-11-11T08:21:35Z</time>
      </trkpt>
      <trkpt lat="43.60869" lon="1.51576">
        <ele>194.16</ele>
        <time>2015-11-11T08:21:45Z</time>
      </trkpt>
      <trkpt lat="43.60888" lon="1.51571">
        <ele>193.7</ele>
        <time>2015-11-11T08:21:51Z</time>
      </trkpt>
      <trkpt lat="43.60907" lon="1.5156">
        <ele>194.36</ele>
        <time>2015-11-11T08:21:59Z</time>
      </trkpt>
      <trkpt lat="43.60924" lon="1.51536">
        <ele>195.43</ele>
        <time>2015-11-11T08:22:07Z</time>
      </trkpt>
      <trkpt lat="43.60937" lon="1.51518">
        <ele>195.74</ele>
        <time>2015-11-11T08:22:13Z</time>
      </trkpt>
      <trkpt lat="43.60953" lon="1.51494">
        <ele>196.05</ele>
        <time>2015-11-11T08:22:21Z</time>
      </trkpt>
      <trkpt lat="43.60972" lon="1.51503">
        <ele>196.69</ele>
        <time>2015-11-11T08:22:27Z</time>
      </trkpt>
      <trkpt lat="43.60994" lon="1.51511">
        <ele>197.08</ele>
        <time>2015-11-11T08:22:33Z</time>
      </trkpt>
      <trkpt lat="43.61017" lon="1.51518">
        <ele>197.5</ele>
        <time>2015-11-11T08:22:39Z</time>
      </trkpt>
      <trkpt lat="43.61042" lon="1.51526">
        <ele>197.69</ele>
        <time>2015-11-11T08:22:45Z</time>
      </trkpt>
      <trkpt lat="43.6106" lon="1.51532">
        <ele>197.6</ele>
        <time>2015-11-11T08:22:49Z</time>
      </trkpt>
      <trkpt lat="43.61078" lon="1.51538">
        <ele>197.77</ele>
        <time>2015-11-11T08:22:53Z</time>
      </trkpt>
      <trkpt lat="43.61104" lon="1.51546">
        <ele>198.51</ele>
        <time>2015-11-11T08:22:59Z</time>
      </trkpt>
      <trkpt lat="43.61129" lon="1.51554">
        <ele>199.07</ele>
        <time>2015-11-11T08:23:05Z</time>
      </trkpt>
      <trkpt lat="43.61155" lon="1.51562">
        <ele>199.42</ele>
        <time>2015-11-11T08:23:11Z</time>
      </trkpt>
      <trkpt lat="43.61172" lon="1.51569">
        <ele>199.96</ele>
        <time>2015-11-11T08:23:15Z</time>
      </trkpt>
      <trkpt lat="43.61197" lon="1.51576">
        <ele>200.56</ele>
        <time>2015-11-11T08:23:21Z</time>
      </trkpt>
      <trkpt lat="43.61218" lon="1.51583">
        <ele>200.75</ele>
        <time>2015-11-11T08:23:27Z</time>
      </trkpt>
      <trkpt lat="43.61237" lon="1.51589">
        <ele>200.82</ele>
        <time>2015-11-11T08:23:33Z</time>
      </trkpt>
      <trkpt lat="43.61255" lon="1.51596">
        <ele>198.84</ele>
        <time>2015-11-11T08:24:13Z</time>
      </trkpt>
      <trkpt lat="43.61276" lon="1.51601">
        <ele>198.43</ele>
        <time>2015-11-11T08:24:19Z</time>
      </trkpt>
      <trkpt lat="43.61295" lon="1.51598">
        <ele>198.42</ele>
        <time>2015-11-11T08:24:25Z</time>
      </trkpt>
      <trkpt lat="43.61303" lon="1.5157">
        <ele>199.03</ele>
        <time>2015-11-11T08:24:31Z</time>
      </trkpt>
      <trkpt lat="43.61308" lon="1.51544">
        <ele>199.18</ele>
        <time>2015-11-11T08:24:37Z</time>
      </trkpt>
      <trkpt lat="43.61326" lon="1.51537">
        <ele>199.36</ele>
        <time>2015-11-11T08:24:53Z</time>
      </trkpt>
      <trkpt lat="43.61342" lon="1.51551">
        <ele>198.35</ele>
        <time>2015-11-11T08:24:59Z</time>
      </trkpt>
      <trkpt lat="43.61337" lon="1.51576">
        <ele>197.78</ele>
        <time>2015-11-11T08:25:07Z</time>
      </trkpt>
      <trkpt lat="43.61323" lon="1.51602">
        <ele>197.41</ele>
        <time>2015-11-11T08:25:13Z</time>
      </trkpt>
      <trkpt lat="43.61308" lon="1.51626">
        <ele>197.12</ele>
        <time>2015-11-11T08:25:19Z</time>
      </trkpt>
      <trkpt lat="43.61297" lon="1.51648">
        <ele>196.71</ele>
        <time>2015-11-11T08:25:25Z</time>
      </trkpt>
      <trkpt lat="43.61284" lon="1.51674">
        <ele>195.96</ele>
        <time>2015-11-11T08:25:33Z</time>
      </trkpt>
      <trkpt lat="43.61272" lon="1.51693">
        <ele>195.35</ele>
        <time>2015-11-11T08:25:41Z</time>
      </trkpt>
      <trkpt lat="43.61261" lon="1.51715">
        <ele>194.89</ele>
        <time>2015-11-11T08:25:49Z</time>
      </trkpt>
      <trkpt lat="43.61249" lon="1.5174">
        <ele>195.13</ele>
        <time>2015-11-11T08:25:59Z</time>
      </trkpt>
      <trkpt lat="43.61237" lon="1.51763">
        <ele>195.56</ele>
        <time>2015-11-11T08:26:09Z</time>
      </trkpt>
      <trkpt lat="43.61219" lon="1.51781">
        <ele>196.41</ele>
        <time>2015-11-11T08:26:19Z</time>
      </trkpt>
      <trkpt lat="43.61206" lon="1.51801">
        <ele>197.56</ele>
        <time>2015-11-11T08:26:27Z</time>
      </trkpt>
      <trkpt lat="43.61188" lon="1.51819">
        <ele>199.2</ele>
        <time>2015-11-11T08:26:39Z</time>
      </trkpt>
      <trkpt lat="43.6118" lon="1.51845">
        <ele>200.89</ele>
        <time>2015-11-11T08:26:49Z</time>
      </trkpt>
      <trkpt lat="43.61175" lon="1.51869">
        <ele>202.69</ele>
        <time>2015-11-11T08:27:01Z</time>
      </trkpt>
      <trkpt lat="43.61163" lon="1.51895">
        <ele>203.9</ele>
        <time>2015-11-11T08:27:11Z</time>
      </trkpt>
      <trkpt lat="43.61148" lon="1.51911">
        <ele>204.76</ele>
        <time>2015-11-11T08:27:21Z</time>
      </trkpt>
      <trkpt lat="43.61157" lon="1.51934">
        <ele>205.57</ele>
        <time>2015-11-11T08:27:31Z</time>
      </trkpt>
      <trkpt lat="43.61174" lon="1.51953">
        <ele>205.38</ele>
        <time>2015-11-11T08:27:39Z</time>
      </trkpt>
      <trkpt lat="43.61191" lon="1.51966">
        <ele>205.59</ele>
        <time>2015-11-11T08:27:45Z</time>
      </trkpt>
      <trkpt lat="43.61207" lon="1.51978">
        <ele>206.08</ele>
        <time>2015-11-11T08:27:51Z</time>
      </trkpt>
      <trkpt lat="43.61222" lon="1.51993">
        <ele>206.6</ele>
        <time>2015-11-11T08:27:57Z</time>
      </trkpt>
      <trkpt lat="43.61239" lon="1.52007">
        <ele>207.07</ele>
        <time>2015-11-11T08:28:03Z</time>
      </trkpt>
      <trkpt lat="43.61256" lon="1.52022">
        <ele>207.57</ele>
        <time>2015-11-11T08:28:09Z</time>
      </trkpt>
      <trkpt lat="43.61273" lon="1.52034">
        <ele>207.8</ele>
        <time>2015-11-11T08:28:15Z</time>
      </trkpt>
      <trkpt lat="43.61289" lon="1.52047">
        <ele>208.55</ele>
        <time>2015-11-11T08:28:21Z</time>
      </trkpt>
      <trkpt lat="43.61308" lon="1.52061">
        <ele>209.26</ele>
        <time>2015-11-11T08:28:29Z</time>
      </trkpt>
      <trkpt lat="43.61325" lon="1.52074">
        <ele>210.25</ele>
        <time>2015-11-11T08:28:37Z</time>
      </trkpt>
      <trkpt lat="43.61331" lon="1.52098">
        <ele>210.99</ele>
        <time>2015-11-11T08:28:45Z</time>
      </trkpt>
      <trkpt lat="43.6132" lon="1.52124">
        <ele>211.18</ele>
        <time>2015-11-11T08:28:51Z</time>
      </trkpt>
      <trkpt lat="43.61313" lon="1.5215">
        <ele>211.81</ele>
        <time>2015-11-11T08:28:57Z</time>
      </trkpt>
      <trkpt lat="43.61329" lon="1.52169">
        <ele>212.42</ele>
        <time>2015-11-11T08:29:03Z</time>
      </trkpt>
      <trkpt lat="43.61345" lon="1.52185">
        <ele>212.62</ele>
        <time>2015-11-11T08:29:09Z</time>
      </trkpt>
      <trkpt lat="43.6137" lon="1.52195">
        <ele>212.62</ele>
        <time>2015-11-11T08:29:15Z</time>
      </trkpt>
      <trkpt lat="43.61393" lon="1.52204">
        <ele>212.46</ele>
        <time>2015-11-11T08:29:21Z</time>
      </trkpt>
      <trkpt lat="43.61412" lon="1.52212">
        <ele>212.4</ele>
        <time>2015-11-11T08:29:27Z</time>
      </trkpt>
      <trkpt lat="43.61435" lon="1.52219">
        <ele>212.64</ele>
        <time>2015-11-11T08:29:33Z</time>
      </trkpt>
      <trkpt lat="43.61456" lon="1.52226">
        <ele>213.02</ele>
        <time>2015-11-11T08:29:39Z</time>
      </trkpt>
      <trkpt lat="43.61477" lon="1.52227">
        <ele>213.39</ele>
        <time>2015-11-11T08:29:45Z</time>
      </trkpt>
      <trkpt lat="43.61496" lon="1.52232">
        <ele>213.8</ele>
        <time>2015-11-11T08:29:51Z</time>
      </trkpt>
      <trkpt lat="43.61516" lon="1.52243">
        <ele>214.99</ele>
        <time>2015-11-11T08:29:59Z</time>
      </trkpt>
      <trkpt lat="43.61535" lon="1.52253">
        <ele>215.8</ele>
        <time>2015-11-11T08:30:07Z</time>
      </trkpt>
      <trkpt lat="43.61552" lon="1.52266">
        <ele>216.88</ele>
        <time>2015-11-11T08:30:15Z</time>
      </trkpt>
      <trkpt lat="43.61571" lon="1.5228">
        <ele>217.87</ele>
        <time>2015-11-11T08:30:23Z</time>
      </trkpt>
      <trkpt lat="43.6159" lon="1.52294">
        <ele>218.86</ele>
        <time>2015-11-11T08:30:31Z</time>
      </trkpt>
      <trkpt lat="43.6161" lon="1.52303">
        <ele>219.13</ele>
        <time>2015-11-11T08:30:41Z</time>
      </trkpt>
      <trkpt lat="43.61623" lon="1.52282">
        <ele>220.62</ele>
        <time>2015-11-11T08:30:53Z</time>
      </trkpt>
      <trkpt lat="43.61613" lon="1.52304">
        <ele>221.68</ele>
        <time>2015-11-11T08:31:09Z</time>
      </trkpt>
      <trkpt lat="43.61632" lon="1.52318">
        <ele>221.76</ele>
        <time>2015-11-11T08:32:45Z</time>
      </trkpt>
      <trkpt lat="43.61655" lon="1.52328">
        <ele>221.25</ele>
        <time>2015-11-11T08:32:51Z</time>
      </trkpt>
      <trkpt lat="43.61674" lon="1.52336">
        <ele>220.84</ele>
        <time>2015-11-11T08:32:55Z</time>
      </trkpt>
      <trkpt lat="43.61694" lon="1.52344">
        <ele>220.18</ele>
        <time>2015-11-11T08:32:59Z</time>
      </trkpt>
      <trkpt lat="43.61717" lon="1.52352">
        <ele>219.37</ele>
        <time>2015-11-11T08:33:03Z</time>
      </trkpt>
      <trkpt lat="43.61741" lon="1.5236">
        <ele>218.37</ele>
        <time>2015-11-11T08:33:07Z</time>
      </trkpt>
      <trkpt lat="43.61764" lon="1.52367">
        <ele>217.19</ele>
        <time>2015-11-11T08:33:11Z</time>
      </trkpt>
      <trkpt lat="43.6179" lon="1.52375">
        <ele>215.75</ele>
        <time>2015-11-11T08:33:15Z</time>
      </trkpt>
      <trkpt lat="43.61819" lon="1.52385">
        <ele>214.24</ele>
        <time>2015-11-11T08:33:19Z</time>
      </trkpt>
      <trkpt lat="43.6184" lon="1.52391">
        <ele>212.81</ele>
        <time>2015-11-11T08:33:23Z</time>
      </trkpt>
      <trkpt lat="43.61855" lon="1.52409">
        <ele>210.35</ele>
        <time>2015-11-11T08:33:33Z</time>
      </trkpt>
      <trkpt lat="43.61855" lon="1.52438">
        <ele>209.16</ele>
        <time>2015-11-11T08:33:39Z</time>
      </trkpt>
      <trkpt lat="43.61851" lon="1.52463">
        <ele>208.14</ele>
        <time>2015-11-11T08:33:43Z</time>
      </trkpt>
      <trkpt lat="43.61846" lon="1.525">
        <ele>205.38</ele>
        <time>2015-11-11T08:33:49Z</time>
      </trkpt>
      <trkpt lat="43.61842" lon="1.52525">
        <ele>204.1</ele>
        <time>2015-11-11T08:33:53Z</time>
      </trkpt>
      <trkpt lat="43.61834" lon="1.52558">
        <ele>202.72</ele>
        <time>2015-11-11T08:33:59Z</time>
      </trkpt>
      <trkpt lat="43.61823" lon="1.52591">
        <ele>201.43</ele>
        <time>2015-11-11T08:34:05Z</time>
      </trkpt>
      <trkpt lat="43.61813" lon="1.52615">
        <ele>200.21</ele>
        <time>2015-11-11T08:34:09Z</time>
      </trkpt>
      <trkpt lat="43.61802" lon="1.52645">
        <ele>199.3</ele>
        <time>2015-11-11T08:34:13Z</time>
      </trkpt>
      <trkpt lat="43.61797" lon="1.5267">
        <ele>198.6</ele>
        <time>2015-11-11T08:34:17Z</time>
      </trkpt>
      <trkpt lat="43.61791" lon="1.52707">
        <ele>197.88</ele>
        <time>2015-11-11T08:34:23Z</time>
      </trkpt>
      <trkpt lat="43.61783" lon="1.52733">
        <ele>196.97</ele>
        <time>2015-11-11T08:34:27Z</time>
      </trkpt>
      <trkpt lat="43.61776" lon="1.5276">
        <ele>195.57</ele>
        <time>2015-11-11T08:34:31Z</time>
      </trkpt>
      <trkpt lat="43.61768" lon="1.52785">
        <ele>194.59</ele>
        <time>2015-11-11T08:34:35Z</time>
      </trkpt>
      <trkpt lat="43.6176" lon="1.5281">
        <ele>193.87</ele>
        <time>2015-11-11T08:34:39Z</time>
      </trkpt>
      <trkpt lat="43.61752" lon="1.52834">
        <ele>193.37</ele>
        <time>2015-11-11T08:34:43Z</time>
      </trkpt>
      <trkpt lat="43.61743" lon="1.52868">
        <ele>192.51</ele>
        <time>2015-11-11T08:34:49Z</time>
      </trkpt>
      <trkpt lat="43.61738" lon="1.529">
        <ele>191.08</ele>
        <time>2015-11-11T08:34:55Z</time>
      </trkpt>
      <trkpt lat="43.61734" lon="1.52931">
        <ele>189.11</ele>
        <time>2015-11-11T08:35:01Z</time>
      </trkpt>
      <trkpt lat="43.61729" lon="1.52962">
        <ele>187.63</ele>
        <time>2015-11-11T08:35:07Z</time>
      </trkpt>
      <trkpt lat="43.61726" lon="1.52995">
        <ele>186.46</ele>
        <time>2015-11-11T08:35:13Z</time>
      </trkpt>
      <trkpt lat="43.61722" lon="1.53023">
        <ele>184.62</ele>
        <time>2015-11-11T08:35:19Z</time>
      </trkpt>
      <trkpt lat="43.61718" lon="1.53056">
        <ele>183.18</ele>
        <time>2015-11-11T08:35:25Z</time>
      </trkpt>
      <trkpt lat="43.61713" lon="1.53086">
        <ele>181.68</ele>
        <time>2015-11-11T08:35:31Z</time>
      </trkpt>
      <trkpt lat="43.61708" lon="1.53118">
        <ele>180.3</ele>
        <time>2015-11-11T08:35:37Z</time>
      </trkpt>
      <trkpt lat="43.61704" lon="1.53146">
        <ele>179.3</ele>
        <time>2015-11-11T08:35:43Z</time>
      </trkpt>
      <trkpt lat="43.61704" lon="1.53175">
        <ele>178.3</ele>
        <time>2015-11-11T08:35:49Z</time>
      </trkpt>
      <trkpt lat="43.61711" lon="1.53202">
        <ele>178.19</ele>
        <time>2015-11-11T08:35:55Z</time>
      </trkpt>
      <trkpt lat="43.61721" lon="1.53224">
        <ele>178.73</ele>
        <time>2015-11-11T08:36:05Z</time>
      </trkpt>
      <trkpt lat="43.6172" lon="1.53253">
        <ele>176.5</ele>
        <time>2015-11-11T08:37:11Z</time>
      </trkpt>
      <trkpt lat="43.61736" lon="1.53272">
        <ele>176.06</ele>
        <time>2015-11-11T08:37:19Z</time>
      </trkpt>
      <trkpt lat="43.61751" lon="1.53296">
        <ele>175.98</ele>
        <time>2015-11-11T08:37:27Z</time>
      </trkpt>
      <trkpt lat="43.61767" lon="1.53311">
        <ele>175.79</ele>
        <time>2015-11-11T08:37:33Z</time>
      </trkpt>
      <trkpt lat="43.61781" lon="1.53329">
        <ele>175.94</ele>
        <time>2015-11-11T08:37:39Z</time>
      </trkpt>
      <trkpt lat="43.61803" lon="1.53344">
        <ele>175.53</ele>
        <time>2015-11-11T08:37:45Z</time>
      </trkpt>
      <trkpt lat="43.61824" lon="1.53356">
        <ele>174.91</ele>
        <time>2015-11-11T08:37:51Z</time>
      </trkpt>
      <trkpt lat="43.61842" lon="1.53367">
        <ele>174.87</ele>
        <time>2015-11-11T08:37:57Z</time>
      </trkpt>
      <trkpt lat="43.61859" lon="1.53382">
        <ele>175.17</ele>
        <time>2015-11-11T08:38:05Z</time>
      </trkpt>
      <trkpt lat="43.61879" lon="1.53398">
        <ele>175.54</ele>
        <time>2015-11-11T08:38:13Z</time>
      </trkpt>
      <trkpt lat="43.61896" lon="1.53413">
        <ele>175.63</ele>
        <time>2015-11-11T08:38:21Z</time>
      </trkpt>
      <trkpt lat="43.61911" lon="1.53435">
        <ele>175.22</ele>
        <time>2015-11-11T08:38:27Z</time>
      </trkpt>
      <trkpt lat="43.61926" lon="1.53457">
        <ele>174.48</ele>
        <time>2015-11-11T08:38:33Z</time>
      </trkpt>
      <trkpt lat="43.61937" lon="1.53482">
        <ele>173.11</ele>
        <time>2015-11-11T08:38:39Z</time>
      </trkpt>
      <trkpt lat="43.6195" lon="1.53503">
        <ele>170.23</ele>
        <time>2015-11-11T08:38:51Z</time>
      </trkpt>
      <trkpt lat="43.61956" lon="1.53531">
        <ele>169.08</ele>
        <time>2015-11-11T08:38:57Z</time>
      </trkpt>
      <trkpt lat="43.61956" lon="1.53559">
        <ele>168.31</ele>
        <time>2015-11-11T08:39:03Z</time>
      </trkpt>
      <trkpt lat="43.61948" lon="1.53583">
        <ele>166.99</ele>
        <time>2015-11-11T08:39:09Z</time>
      </trkpt>
      <trkpt lat="43.61954" lon="1.5361">
        <ele>164.19</ele>
        <time>2015-11-11T08:39:33Z</time>
      </trkpt>
      <trkpt lat="43.61948" lon="1.5364">
        <ele>163.23</ele>
        <time>2015-11-11T08:39:39Z</time>
      </trkpt>
      <trkpt lat="43.61952" lon="1.53667">
        <ele>162.61</ele>
        <time>2015-11-11T08:39:47Z</time>
      </trkpt>
      <trkpt lat="43.61946" lon="1.53691">
        <ele>162.17</ele>
        <time>2015-11-11T08:39:57Z</time>
      </trkpt>
      <trkpt lat="43.61958" lon="1.53718">
        <ele>162.88</ele>
        <time>2015-11-11T08:40:05Z</time>
      </trkpt>
      <trkpt lat="43.6197" lon="1.53741">
        <ele>163.13</ele>
        <time>2015-11-11T08:40:11Z</time>
      </trkpt>
      <trkpt lat="43.61985" lon="1.53762">
        <ele>163.43</ele>
        <time>2015-11-11T08:40:17Z</time>
      </trkpt>
      <trkpt lat="43.62" lon="1.53777">
        <ele>163.23</ele>
        <time>2015-11-11T08:40:21Z</time>
      </trkpt>
      <trkpt lat="43.62021" lon="1.53793">
        <ele>163.25</ele>
        <time>2015-11-11T08:40:27Z</time>
      </trkpt>
      <trkpt lat="43.6203" lon="1.53816">
        <ele>163.47</ele>
        <time>2015-11-11T08:40:39Z</time>
      </trkpt>
      <trkpt lat="43.62043" lon="1.53796">
        <ele>164.22</ele>
        <time>2015-11-11T08:41:03Z</time>
      </trkpt>
      <trkpt lat="43.62051" lon="1.53769">
        <ele>165.7</ele>
        <time>2015-11-11T08:41:13Z</time>
      </trkpt>
      <trkpt lat="43.62058" lon="1.53738">
        <ele>166.47</ele>
        <time>2015-11-11T08:41:21Z</time>
      </trkpt>
      <trkpt lat="43.6207" lon="1.53716">
        <ele>167.04</ele>
        <time>2015-11-11T08:41:29Z</time>
      </trkpt>
      <trkpt lat="43.62079" lon="1.53694">
        <ele>168.48</ele>
        <time>2015-11-11T08:41:35Z</time>
      </trkpt>
      <trkpt lat="43.62089" lon="1.5367">
        <ele>169.19</ele>
        <time>2015-11-11T08:41:43Z</time>
      </trkpt>
      <trkpt lat="43.62103" lon="1.5365">
        <ele>169.06</ele>
        <time>2015-11-11T08:41:51Z</time>
      </trkpt>
      <trkpt lat="43.62119" lon="1.53633">
        <ele>169.54</ele>
        <time>2015-11-11T08:41:57Z</time>
      </trkpt>
      <trkpt lat="43.6213" lon="1.53605">
        <ele>170.52</ele>
        <time>2015-11-11T08:42:05Z</time>
      </trkpt>
      <trkpt lat="43.6214" lon="1.53577">
        <ele>171.23</ele>
        <time>2015-11-11T08:42:11Z</time>
      </trkpt>
      <trkpt lat="43.62144" lon="1.53548">
        <ele>171.42</ele>
        <time>2015-11-11T08:42:17Z</time>
      </trkpt>
      <trkpt lat="43.62156" lon="1.53523">
        <ele>171.41</ele>
        <time>2015-11-11T08:42:27Z</time>
      </trkpt>
      <trkpt lat="43.62171" lon="1.53505">
        <ele>170.59</ele>
        <time>2015-11-11T08:42:35Z</time>
      </trkpt>
      <trkpt lat="43.62184" lon="1.53486">
        <ele>170.33</ele>
        <time>2015-11-11T08:42:41Z</time>
      </trkpt>
      <trkpt lat="43.62193" lon="1.53463">
        <ele>170.71</ele>
        <time>2015-11-11T08:42:47Z</time>
      </trkpt>
      <trkpt lat="43.62207" lon="1.53444">
        <ele>171.25</ele>
        <time>2015-11-11T08:42:53Z</time>
      </trkpt>
      <trkpt lat="43.62218" lon="1.53423">
        <ele>172.5</ele>
        <time>2015-11-11T08:42:59Z</time>
      </trkpt>
      <trkpt lat="43.62219" lon="1.53395">
        <ele>173.47</ele>
        <time>2015-11-11T08:43:05Z</time>
      </trkpt>
      <trkpt lat="43.62234" lon="1.53379">
        <ele>173.66</ele>
        <time>2015-11-11T08:43:15Z</time>
      </trkpt>
      <trkpt lat="43.62254" lon="1.53382">
        <ele>172.17</ele>
        <time>2015-11-11T08:43:23Z</time>
      </trkpt>
      <trkpt lat="43.62272" lon="1.53379">
        <ele>171.33</ele>
        <time>2015-11-11T08:43:31Z</time>
      </trkpt>
      <trkpt lat="43.62288" lon="1.53365">
        <ele>170.03</ele>
        <time>2015-11-11T08:45:29Z</time>
      </trkpt>
      <trkpt lat="43.62285" lon="1.53337">
        <ele>169.2</ele>
        <time>2015-11-11T08:45:37Z</time>
      </trkpt>
      <trkpt lat="43.62282" lon="1.53309">
        <ele>168.53</ele>
        <time>2015-11-11T08:45:43Z</time>
      </trkpt>
      <trkpt lat="43.62275" lon="1.53284">
        <ele>167.96</ele>
        <time>2015-11-11T08:45:49Z</time>
      </trkpt>
      <trkpt lat="43.62271" lon="1.53259">
        <ele>167.27</ele>
        <time>2015-11-11T08:45:55Z</time>
      </trkpt>
      <trkpt lat="43.62267" lon="1.53234">
        <ele>166.44</ele>
        <time>2015-11-11T08:46:01Z</time>
      </trkpt>
      <trkpt lat="43.62279" lon="1.53209">
        <ele>165.9</ele>
        <time>2015-11-11T08:46:09Z</time>
      </trkpt>
      <trkpt lat="43.62283" lon="1.53174">
        <ele>165.69</ele>
        <time>2015-11-11T08:46:15Z</time>
      </trkpt>
      <trkpt lat="43.62281" lon="1.53146">
        <ele>165.88</ele>
        <time>2015-11-11T08:46:21Z</time>
      </trkpt>
      <trkpt lat="43.6229" lon="1.53122">
        <ele>166.19</ele>
        <time>2015-11-11T08:46:27Z</time>
      </trkpt>
      <trkpt lat="43.62306" lon="1.53097">
        <ele>167.16</ele>
        <time>2015-11-11T08:46:33Z</time>
      </trkpt>
      <trkpt lat="43.6232" lon="1.53077">
        <ele>167.85</ele>
        <time>2015-11-11T08:46:39Z</time>
      </trkpt>
      <trkpt lat="43.62332" lon="1.53047">
        <ele>168</ele>
        <time>2015-11-11T08:46:45Z</time>
      </trkpt>
      <trkpt lat="43.62337" lon="1.53016">
        <ele>167.44</ele>
        <time>2015-11-11T08:46:53Z</time>
      </trkpt>
      <trkpt lat="43.62342" lon="1.52986">
        <ele>167.77</ele>
        <time>2015-11-11T08:47:01Z</time>
      </trkpt>
      <trkpt lat="43.6235" lon="1.52961">
        <ele>169.57</ele>
        <time>2015-11-11T08:47:09Z</time>
      </trkpt>
      <trkpt lat="43.62365" lon="1.52948">
        <ele>170.56</ele>
        <time>2015-11-11T08:47:15Z</time>
      </trkpt>
      <trkpt lat="43.62384" lon="1.52931">
        <ele>171.89</ele>
        <time>2015-11-11T08:47:25Z</time>
      </trkpt>
      <trkpt lat="43.62397" lon="1.52904">
        <ele>172.31</ele>
        <time>2015-11-11T08:47:33Z</time>
      </trkpt>
      <trkpt lat="43.62414" lon="1.52882">
        <ele>171.44</ele>
        <time>2015-11-11T08:47:41Z</time>
      </trkpt>
      <trkpt lat="43.62426" lon="1.5286">
        <ele>171.07</ele>
        <time>2015-11-11T08:47:47Z</time>
      </trkpt>
      <trkpt lat="43.62441" lon="1.52838">
        <ele>170.71</ele>
        <time>2015-11-11T08:47:53Z</time>
      </trkpt>
      <trkpt lat="43.62461" lon="1.52833">
        <ele>170.48</ele>
        <time>2015-11-11T08:48:01Z</time>
      </trkpt>
      <trkpt lat="43.62479" lon="1.52837">
        <ele>170.27</ele>
        <time>2015-11-11T08:48:09Z</time>
      </trkpt>
      <trkpt lat="43.62496" lon="1.52831">
        <ele>168.43</ele>
        <time>2015-11-11T08:49:05Z</time>
      </trkpt>
      <trkpt lat="43.62515" lon="1.52851">
        <ele>167.61</ele>
        <time>2015-11-11T08:51:29Z</time>
      </trkpt>
      <trkpt lat="43.62531" lon="1.52869">
        <ele>167.72</ele>
        <time>2015-11-11T08:51:35Z</time>
      </trkpt>
      <trkpt lat="43.62549" lon="1.52895">
        <ele>167.93</ele>
        <time>2015-11-11T08:51:41Z</time>
      </trkpt>
      <trkpt lat="43.6256" lon="1.52915">
        <ele>167.38</ele>
        <time>2015-11-11T08:51:45Z</time>
      </trkpt>
      <trkpt lat="43.62575" lon="1.52946">
        <ele>166.01</ele>
        <time>2015-11-11T08:51:51Z</time>
      </trkpt>
      <trkpt lat="43.62588" lon="1.52965">
        <ele>164.98</ele>
        <time>2015-11-11T08:51:55Z</time>
      </trkpt>
      <trkpt lat="43.62609" lon="1.52984">
        <ele>165.16</ele>
        <time>2015-11-11T08:52:01Z</time>
      </trkpt>
      <trkpt lat="43.6263" lon="1.52999">
        <ele>165.32</ele>
        <time>2015-11-11T08:52:07Z</time>
      </trkpt>
      <trkpt lat="43.6265" lon="1.53013">
        <ele>165.04</ele>
        <time>2015-11-11T08:52:13Z</time>
      </trkpt>
      <trkpt lat="43.62667" lon="1.53026">
        <ele>164.63</ele>
        <time>2015-11-11T08:52:19Z</time>
      </trkpt>
      <trkpt lat="43.62687" lon="1.53043">
        <ele>164.71</ele>
        <time>2015-11-11T08:52:27Z</time>
      </trkpt>
      <trkpt lat="43.62701" lon="1.53062">
        <ele>165.68</ele>
        <time>2015-11-11T08:52:33Z</time>
      </trkpt>
      <trkpt lat="43.62697" lon="1.53095">
        <ele>165.87</ele>
        <time>2015-11-11T08:52:41Z</time>
      </trkpt>
      <trkpt lat="43.62686" lon="1.53125">
        <ele>165.4</ele>
        <time>2015-11-11T08:52:47Z</time>
      </trkpt>
      <trkpt lat="43.62674" lon="1.53152">
        <ele>164.65</ele>
        <time>2015-11-11T08:52:53Z</time>
      </trkpt>
      <trkpt lat="43.62664" lon="1.53177">
        <ele>163.7</ele>
        <time>2015-11-11T08:52:59Z</time>
      </trkpt>
      <trkpt lat="43.62654" lon="1.53205">
        <ele>162.99</ele>
        <time>2015-11-11T08:53:05Z</time>
      </trkpt>
      <trkpt lat="43.62652" lon="1.53236">
        <ele>163.15</ele>
        <time>2015-11-11T08:53:11Z</time>
      </trkpt>
      <trkpt lat="43.62657" lon="1.53264">
        <ele>163.99</ele>
        <time>2015-11-11T08:53:17Z</time>
      </trkpt>
      <trkpt lat="43.62671" lon="1.5329">
        <ele>164.89</ele>
        <time>2015-11-11T08:53:23Z</time>
      </trkpt>
      <trkpt lat="43.62686" lon="1.53312">
        <ele>164.67</ele>
        <time>2015-11-11T08:53:29Z</time>
      </trkpt>
      <trkpt lat="43.62698" lon="1.53334">
        <ele>164.34</ele>
        <time>2015-11-11T08:53:35Z</time>
      </trkpt>
      <trkpt lat="43.62711" lon="1.53358">
        <ele>164.41</ele>
        <time>2015-11-11T08:53:41Z</time>
      </trkpt>
      <trkpt lat="43.62723" lon="1.53381">
        <ele>164.35</ele>
        <time>2015-11-11T08:53:47Z</time>
      </trkpt>
      <trkpt lat="43.62736" lon="1.53407">
        <ele>164.9</ele>
        <time>2015-11-11T08:53:55Z</time>
      </trkpt>
      <trkpt lat="43.62746" lon="1.5343">
        <ele>165.87</ele>
        <time>2015-11-11T08:54:03Z</time>
      </trkpt>
      <trkpt lat="43.62758" lon="1.53459">
        <ele>166.93</ele>
        <time>2015-11-11T08:54:11Z</time>
      </trkpt>
      <trkpt lat="43.62766" lon="1.53481">
        <ele>167.75</ele>
        <time>2015-11-11T08:54:17Z</time>
      </trkpt>
      <trkpt lat="43.62777" lon="1.53507">
        <ele>168.97</ele>
        <time>2015-11-11T08:54:25Z</time>
      </trkpt>
      <trkpt lat="43.62796" lon="1.53517">
        <ele>169.66</ele>
        <time>2015-11-11T08:54:31Z</time>
      </trkpt>
      <trkpt lat="43.62813" lon="1.53533">
        <ele>170.5</ele>
        <time>2015-11-11T08:54:39Z</time>
      </trkpt>
      <trkpt lat="43.62829" lon="1.53553">
        <ele>171.31</ele>
        <time>2015-11-11T08:54:47Z</time>
      </trkpt>
      <trkpt lat="43.62842" lon="1.53575">
        <ele>172.19</ele>
        <time>2015-11-11T08:54:57Z</time>
      </trkpt>
      <trkpt lat="43.62855" lon="1.53594">
        <ele>172.71</ele>
        <time>2015-11-11T08:55:05Z</time>
      </trkpt>
      <trkpt lat="43.62866" lon="1.53614">
        <ele>174.04</ele>
        <time>2015-11-11T08:55:13Z</time>
      </trkpt>
      <trkpt lat="43.62872" lon="1.53645">
        <ele>175.65</ele>
        <time>2015-11-11T08:55:21Z</time>
      </trkpt>
      <trkpt lat="43.62874" lon="1.53672">
        <ele>176.6</ele>
        <time>2015-11-11T08:55:27Z</time>
      </trkpt>
      <trkpt lat="43.62876" lon="1.53699">
        <ele>177.04</ele>
        <time>2015-11-11T08:55:33Z</time>
      </trkpt>
      <trkpt lat="43.62877" lon="1.53725">
        <ele>177.21</ele>
        <time>2015-11-11T08:55:39Z</time>
      </trkpt>
      <trkpt lat="43.62879" lon="1.53756">
        <ele>177.37</ele>
        <time>2015-11-11T08:55:47Z</time>
      </trkpt>
      <trkpt lat="43.62875" lon="1.53787">
        <ele>176.76</ele>
        <time>2015-11-11T08:55:55Z</time>
      </trkpt>
      <trkpt lat="43.62869" lon="1.53817">
        <ele>177.36</ele>
        <time>2015-11-11T08:56:03Z</time>
      </trkpt>
      <trkpt lat="43.62862" lon="1.53846">
        <ele>178.55</ele>
        <time>2015-11-11T08:56:11Z</time>
      </trkpt>
      <trkpt lat="43.62854" lon="1.53875">
        <ele>179.75</ele>
        <time>2015-11-11T08:56:19Z</time>
      </trkpt>
      <trkpt lat="43.6285" lon="1.53904">
        <ele>180.58</ele>
        <time>2015-11-11T08:56:27Z</time>
      </trkpt>
      <trkpt lat="43.62844" lon="1.53928">
        <ele>181.78</ele>
        <time>2015-11-11T08:56:33Z</time>
      </trkpt>
      <trkpt lat="43.62842" lon="1.53954">
        <ele>182.7</ele>
        <time>2015-11-11T08:56:39Z</time>
      </trkpt>
      <trkpt lat="43.62834" lon="1.53978">
        <ele>183.38</ele>
        <time>2015-11-11T08:56:45Z</time>
      </trkpt>
      <trkpt lat="43.62824" lon="1.54007">
        <ele>184.11</ele>
        <time>2015-11-11T08:56:53Z</time>
      </trkpt>
      <trkpt lat="43.6281" lon="1.54033">
        <ele>186.11</ele>
        <time>2015-11-11T08:57:01Z</time>
      </trkpt>
      <trkpt lat="43.62801" lon="1.54061">
        <ele>187.64</ele>
        <time>2015-11-11T08:57:09Z</time>
      </trkpt>
      <trkpt lat="43.62788" lon="1.54087">
        <ele>188.56</ele>
        <time>2015-11-11T08:57:17Z</time>
      </trkpt>
      <trkpt lat="43.62776" lon="1.54109">
        <ele>189.72</ele>
        <time>2015-11-11T08:57:23Z</time>
      </trkpt>
      <trkpt lat="43.62781" lon="1.54133">
        <ele>190.73</ele>
        <time>2015-11-11T08:57:33Z</time>
      </trkpt>
      <trkpt lat="43.62798" lon="1.54144">
        <ele>191.56</ele>
        <time>2015-11-11T08:57:41Z</time>
      </trkpt>
      <trkpt lat="43.62815" lon="1.54158">
        <ele>192.09</ele>
        <time>2015-11-11T08:57:51Z</time>
      </trkpt>
      <trkpt lat="43.62833" lon="1.5415">
        <ele>192.14</ele>
        <time>2015-11-11T08:59:05Z</time>
      </trkpt>
      <trkpt lat="43.62851" lon="1.54143">
        <ele>192.65</ele>
        <time>2015-11-11T08:59:13Z</time>
      </trkpt>
      <trkpt lat="43.62868" lon="1.54125">
        <ele>194.75</ele>
        <time>2015-11-11T08:59:23Z</time>
      </trkpt>
      <trkpt lat="43.62886" lon="1.54113">
        <ele>196.72</ele>
        <time>2015-11-11T08:59:35Z</time>
      </trkpt>
      <trkpt lat="43.62898" lon="1.54131">
        <ele>198.24</ele>
        <time>2015-11-11T08:59:47Z</time>
      </trkpt>
      <trkpt lat="43.62917" lon="1.54142">
        <ele>201.24</ele>
        <time>2015-11-11T09:00:01Z</time>
      </trkpt>
      <trkpt lat="43.62931" lon="1.54118">
        <ele>202.86</ele>
        <time>2015-11-11T09:00:13Z</time>
      </trkpt>
      <trkpt lat="43.62936" lon="1.54093">
        <ele>203.62</ele>
        <time>2015-11-11T09:00:21Z</time>
      </trkpt>
      <trkpt lat="43.62942" lon="1.54066">
        <ele>204.04</ele>
        <time>2015-11-11T09:00:29Z</time>
      </trkpt>
      <trkpt lat="43.62944" lon="1.54042">
        <ele>204.22</ele>
        <time>2015-11-11T09:00:35Z</time>
      </trkpt>
      <trkpt lat="43.62965" lon="1.54048">
        <ele>203.87</ele>
        <time>2015-11-11T09:00:45Z</time>
      </trkpt>
      <trkpt lat="43.62983" lon="1.54061">
        <ele>203.94</ele>
        <time>2015-11-11T09:00:53Z</time>
      </trkpt>
      <trkpt lat="43.62999" lon="1.54071">
        <ele>204.57</ele>
        <time>2015-11-11T09:00:59Z</time>
      </trkpt>
      <trkpt lat="43.63025" lon="1.5409">
        <ele>203.1</ele>
        <time>2015-11-11T09:01:05Z</time>
      </trkpt>
      <trkpt lat="43.63043" lon="1.54102">
        <ele>201.65</ele>
        <time>2015-11-11T09:01:09Z</time>
      </trkpt>
      <trkpt lat="43.63061" lon="1.54113">
        <ele>200.69</ele>
        <time>2015-11-11T09:01:13Z</time>
      </trkpt>
      <trkpt lat="43.63078" lon="1.54125">
        <ele>200.05</ele>
        <time>2015-11-11T09:01:17Z</time>
      </trkpt>
      <trkpt lat="43.63105" lon="1.54139">
        <ele>199.15</ele>
        <time>2015-11-11T09:01:23Z</time>
      </trkpt>
      <trkpt lat="43.63126" lon="1.54147">
        <ele>198.09</ele>
        <time>2015-11-11T09:01:27Z</time>
      </trkpt>
      <trkpt lat="43.63148" lon="1.54156">
        <ele>196.97</ele>
        <time>2015-11-11T09:01:31Z</time>
      </trkpt>
      <trkpt lat="43.6317" lon="1.54164">
        <ele>195.47</ele>
        <time>2015-11-11T09:01:35Z</time>
      </trkpt>
      <trkpt lat="43.6319" lon="1.54172">
        <ele>193.62</ele>
        <time>2015-11-11T09:01:39Z</time>
      </trkpt>
      <trkpt lat="43.63213" lon="1.5418">
        <ele>191.83</ele>
        <time>2015-11-11T09:01:43Z</time>
      </trkpt>
      <trkpt lat="43.63235" lon="1.54188">
        <ele>190.16</ele>
        <time>2015-11-11T09:01:47Z</time>
      </trkpt>
      <trkpt lat="43.63256" lon="1.54196">
        <ele>188.49</ele>
        <time>2015-11-11T09:01:51Z</time>
      </trkpt>
      <trkpt lat="43.63277" lon="1.54202">
        <ele>187</ele>
        <time>2015-11-11T09:01:55Z</time>
      </trkpt>
      <trkpt lat="43.63296" lon="1.54204">
        <ele>186.22</ele>
        <time>2015-11-11T09:01:59Z</time>
      </trkpt>
      <trkpt lat="43.63319" lon="1.54204">
        <ele>186.01</ele>
        <time>2015-11-11T09:02:03Z</time>
      </trkpt>
      <trkpt lat="43.63339" lon="1.54202">
        <ele>186.03</ele>
        <time>2015-11-11T09:02:07Z</time>
      </trkpt>
      <trkpt lat="43.63357" lon="1.54208">
        <ele>185.08</ele>
        <time>2015-11-11T09:02:11Z</time>
      </trkpt>
      <trkpt lat="43.63375" lon="1.5423">
        <ele>183.24</ele>
        <time>2015-11-11T09:02:17Z</time>
      </trkpt>
      <trkpt lat="43.63387" lon="1.54253">
        <ele>181.81</ele>
        <time>2015-11-11T09:02:23Z</time>
      </trkpt>
      <trkpt lat="43.63406" lon="1.54265">
        <ele>179.23</ele>
        <time>2015-11-11T09:02:29Z</time>
      </trkpt>
      <trkpt lat="43.63425" lon="1.54276">
        <ele>177.85</ele>
        <time>2015-11-11T09:02:37Z</time>
      </trkpt>
      <trkpt lat="43.6344" lon="1.54288">
        <ele>177.49</ele>
        <time>2015-11-11T09:02:47Z</time>
      </trkpt>
      <trkpt lat="43.63458" lon="1.543">
        <ele>178.75</ele>
        <time>2015-11-11T09:02:57Z</time>
      </trkpt>
      <trkpt lat="43.63477" lon="1.54312">
        <ele>180.4</ele>
        <time>2015-11-11T09:03:09Z</time>
      </trkpt>
      <trkpt lat="43.63493" lon="1.54325">
        <ele>182.1</ele>
        <time>2015-11-11T09:03:19Z</time>
      </trkpt>
      <trkpt lat="43.63511" lon="1.5434">
        <ele>183.68</ele>
        <time>2015-11-11T09:03:35Z</time>
      </trkpt>
      <trkpt lat="43.63528" lon="1.54354">
        <ele>184.01</ele>
        <time>2015-11-11T09:03:49Z</time>
      </trkpt>
      <trkpt lat="43.63541" lon="1.54373">
        <ele>186.65</ele>
        <time>2015-11-11T09:04:01Z</time>
      </trkpt>
      <trkpt lat="43.6354" lon="1.54398">
        <ele>188.8</ele>
        <time>2015-11-11T09:04:15Z</time>
      </trkpt>
      <trkpt lat="43.63535" lon="1.54422">
        <ele>190.96</ele>
        <time>2015-11-11T09:04:29Z</time>
      </trkpt>
      <trkpt lat="43.63525" lon="1.54447">
        <ele>193.55</ele>
        <time>2015-11-11T09:04:43Z</time>
      </trkpt>
      <trkpt lat="43.63516" lon="1.54474">
        <ele>195.08</ele>
        <time>2015-11-11T09:04:55Z</time>
      </trkpt>
      <trkpt lat="43.63509" lon="1.54501">
        <ele>196.29</ele>
        <time>2015-11-11T09:05:07Z</time>
      </trkpt>
      <trkpt lat="43.63502" lon="1.54527">
        <ele>197.41</ele>
        <time>2015-11-11T09:05:19Z</time>
      </trkpt>
      <trkpt lat="43.63494" lon="1.54552">
        <ele>197.74</ele>
        <time>2015-11-11T09:05:29Z</time>
      </trkpt>
      <trkpt lat="43.63488" lon="1.54578">
        <ele>198.85</ele>
        <time>2015-11-11T09:05:39Z</time>
      </trkpt>
      <trkpt lat="43.63484" lon="1.54602">
        <ele>199.75</ele>
        <time>2015-11-11T09:05:47Z</time>
      </trkpt>
      <trkpt lat="43.63484" lon="1.54633">
        <ele>201</ele>
        <time>2015-11-11T09:05:55Z</time>
      </trkpt>
      <trkpt lat="43.63489" lon="1.54662">
        <ele>201.95</ele>
        <time>2015-11-11T09:06:03Z</time>
      </trkpt>
      <trkpt lat="43.63494" lon="1.54686">
        <ele>202.59</ele>
        <time>2015-11-11T09:06:09Z</time>
      </trkpt>
      <trkpt lat="43.63502" lon="1.54711">
        <ele>203.46</ele>
        <time>2015-11-11T09:06:15Z</time>
      </trkpt>
      <trkpt lat="43.63511" lon="1.54735">
        <ele>204.46</ele>
        <time>2015-11-11T09:06:21Z</time>
      </trkpt>
      <trkpt lat="43.63518" lon="1.54766">
        <ele>205.07</ele>
        <time>2015-11-11T09:06:29Z</time>
      </trkpt>
      <trkpt lat="43.63519" lon="1.54794">
        <ele>204.95</ele>
        <time>2015-11-11T09:06:35Z</time>
      </trkpt>
      <trkpt lat="43.63517" lon="1.5482">
        <ele>205.19</ele>
        <time>2015-11-11T09:06:41Z</time>
      </trkpt>
      <trkpt lat="43.63514" lon="1.54846">
        <ele>205.1</ele>
        <time>2015-11-11T09:06:47Z</time>
      </trkpt>
      <trkpt lat="43.6351" lon="1.54875">
        <ele>205.62</ele>
        <time>2015-11-11T09:06:55Z</time>
      </trkpt>
      <trkpt lat="43.63506" lon="1.54908">
        <ele>206.06</ele>
        <time>2015-11-11T09:07:03Z</time>
      </trkpt>
      <trkpt lat="43.63503" lon="1.54935">
        <ele>206.2</ele>
        <time>2015-11-11T09:07:09Z</time>
      </trkpt>
      <trkpt lat="43.63498" lon="1.5496">
        <ele>205.9</ele>
        <time>2015-11-11T09:07:15Z</time>
      </trkpt>
      <trkpt lat="43.63495" lon="1.54986">
        <ele>206.82</ele>
        <time>2015-11-11T09:07:21Z</time>
      </trkpt>
      <trkpt lat="43.63492" lon="1.55013">
        <ele>207.69</ele>
        <time>2015-11-11T09:07:27Z</time>
      </trkpt>
      <trkpt lat="43.63489" lon="1.55045">
        <ele>208.43</ele>
        <time>2015-11-11T09:07:35Z</time>
      </trkpt>
      <trkpt lat="43.63486" lon="1.55071">
        <ele>209.17</ele>
        <time>2015-11-11T09:07:41Z</time>
      </trkpt>
      <trkpt lat="43.63483" lon="1.55096">
        <ele>209.71</ele>
        <time>2015-11-11T09:07:47Z</time>
      </trkpt>
      <trkpt lat="43.63478" lon="1.55121">
        <ele>210.19</ele>
        <time>2015-11-11T09:07:53Z</time>
      </trkpt>
      <trkpt lat="43.63472" lon="1.55148">
        <ele>210.23</ele>
        <time>2015-11-11T09:07:59Z</time>
      </trkpt>
      <trkpt lat="43.63467" lon="1.55174">
        <ele>210.14</ele>
        <time>2015-11-11T09:08:05Z</time>
      </trkpt>
      <trkpt lat="43.63461" lon="1.552">
        <ele>210.38</ele>
        <time>2015-11-11T09:08:11Z</time>
      </trkpt>
      <trkpt lat="43.63455" lon="1.55229">
        <ele>210.4</ele>
        <time>2015-11-11T09:08:17Z</time>
      </trkpt>
      <trkpt lat="43.63449" lon="1.55257">
        <ele>210.83</ele>
        <time>2015-11-11T09:08:23Z</time>
      </trkpt>
      <trkpt lat="43.63444" lon="1.55284">
        <ele>211.01</ele>
        <time>2015-11-11T09:08:29Z</time>
      </trkpt>
      <trkpt lat="43.63438" lon="1.55311">
        <ele>211.07</ele>
        <time>2015-11-11T09:08:35Z</time>
      </trkpt>
      <trkpt lat="43.6343" lon="1.55339">
        <ele>211.74</ele>
        <time>2015-11-11T09:08:41Z</time>
      </trkpt>
      <trkpt lat="43.63421" lon="1.55367">
        <ele>212.53</ele>
        <time>2015-11-11T09:08:47Z</time>
      </trkpt>
      <trkpt lat="43.63412" lon="1.55394">
        <ele>212.83</ele>
        <time>2015-11-11T09:08:53Z</time>
      </trkpt>
      <trkpt lat="43.63402" lon="1.55422">
        <ele>213.82</ele>
        <time>2015-11-11T09:08:59Z</time>
      </trkpt>
      <trkpt lat="43.63391" lon="1.55451">
        <ele>214.13</ele>
        <time>2015-11-11T09:09:05Z</time>
      </trkpt>
      <trkpt lat="43.63382" lon="1.55481">
        <ele>213.87</ele>
        <time>2015-11-11T09:09:11Z</time>
      </trkpt>
      <trkpt lat="43.63374" lon="1.55507">
        <ele>213.51</ele>
        <time>2015-11-11T09:09:17Z</time>
      </trkpt>
      <trkpt lat="43.63365" lon="1.55535">
        <ele>213.66</ele>
        <time>2015-11-11T09:09:23Z</time>
      </trkpt>
      <trkpt lat="43.63356" lon="1.55566">
        <ele>213.57</ele>
        <time>2015-11-11T09:09:29Z</time>
      </trkpt>
      <trkpt lat="43.63348" lon="1.55595">
        <ele>213.09</ele>
        <time>2015-11-11T09:09:35Z</time>
      </trkpt>
      <trkpt lat="43.63344" lon="1.5562">
        <ele>212.8</ele>
        <time>2015-11-11T09:09:41Z</time>
      </trkpt>
      <trkpt lat="43.63366" lon="1.55631">
        <ele>212.78</ele>
        <time>2015-11-11T09:09:49Z</time>
      </trkpt>
      <trkpt lat="43.63384" lon="1.55643">
        <ele>213.13</ele>
        <time>2015-11-11T09:09:55Z</time>
      </trkpt>
      <trkpt lat="43.63393" lon="1.55667">
        <ele>213.78</ele>
        <time>2015-11-11T09:10:01Z</time>
      </trkpt>
      <trkpt lat="43.63387" lon="1.55697">
        <ele>213.95</ele>
        <time>2015-11-11T09:10:07Z</time>
      </trkpt>
      <trkpt lat="43.63399" lon="1.55723">
        <ele>213.72</ele>
        <time>2015-11-11T09:10:15Z</time>
      </trkpt>
      <trkpt lat="43.63423" lon="1.55736">
        <ele>213.64</ele>
        <time>2015-11-11T09:10:21Z</time>
      </trkpt>
      <trkpt lat="43.63445" lon="1.55749">
        <ele>212.82</ele>
        <time>2015-11-11T09:10:27Z</time>
      </trkpt>
      <trkpt lat="43.63459" lon="1.55765">
        <ele>211.86</ele>
        <time>2015-11-11T09:10:53Z</time>
      </trkpt>
      <trkpt lat="43.63471" lon="1.55786">
        <ele>211.88</ele>
        <time>2015-11-11T09:11:07Z</time>
      </trkpt>
      <trkpt lat="43.6349" lon="1.55789">
        <ele>211.53</ele>
        <time>2015-11-11T09:11:13Z</time>
      </trkpt>
      <trkpt lat="43.63509" lon="1.55793">
        <ele>211.71</ele>
        <time>2015-11-11T09:11:21Z</time>
      </trkpt>
      <trkpt lat="43.6353" lon="1.55801">
        <ele>210.85</ele>
        <time>2015-11-11T09:11:53Z</time>
      </trkpt>
      <trkpt lat="43.63551" lon="1.55807">
        <ele>209.97</ele>
        <time>2015-11-11T09:12:01Z</time>
      </trkpt>
      <trkpt lat="43.63578" lon="1.55816">
        <ele>208.38</ele>
        <time>2015-11-11T09:12:07Z</time>
      </trkpt>
      <trkpt lat="43.63597" lon="1.55821">
        <ele>207.02</ele>
        <time>2015-11-11T09:12:11Z</time>
      </trkpt>
      <trkpt lat="43.63618" lon="1.55827">
        <ele>205.35</ele>
        <time>2015-11-11T09:12:15Z</time>
      </trkpt>
      <trkpt lat="43.63641" lon="1.55831">
        <ele>203.71</ele>
        <time>2015-11-11T09:12:19Z</time>
      </trkpt>
      <trkpt lat="43.63666" lon="1.55838">
        <ele>201.95</ele>
        <time>2015-11-11T09:12:23Z</time>
      </trkpt>
      <trkpt lat="43.63694" lon="1.55844">
        <ele>199.96</ele>
        <time>2015-11-11T09:12:27Z</time>
      </trkpt>
      <trkpt lat="43.63718" lon="1.5585">
        <ele>198.44</ele>
        <time>2015-11-11T09:12:31Z</time>
      </trkpt>
      <trkpt lat="43.63739" lon="1.55854">
        <ele>196.81</ele>
        <time>2015-11-11T09:12:35Z</time>
      </trkpt>
      <trkpt lat="43.63762" lon="1.55855">
        <ele>194.88</ele>
        <time>2015-11-11T09:12:39Z</time>
      </trkpt>
      <trkpt lat="43.63788" lon="1.55856">
        <ele>191.97</ele>
        <time>2015-11-11T09:12:43Z</time>
      </trkpt>
      <trkpt lat="43.63809" lon="1.5586">
        <ele>189.27</ele>
        <time>2015-11-11T09:12:47Z</time>
      </trkpt>
      <trkpt lat="43.6383" lon="1.55869">
        <ele>186.49</ele>
        <time>2015-11-11T09:12:51Z</time>
      </trkpt>
      <trkpt lat="43.63849" lon="1.55882">
        <ele>184.6</ele>
        <time>2015-11-11T09:12:55Z</time>
      </trkpt>
      <trkpt lat="43.63867" lon="1.55898">
        <ele>183.4</ele>
        <time>2015-11-11T09:12:59Z</time>
      </trkpt>
      <trkpt lat="43.63886" lon="1.55916">
        <ele>182.12</ele>
        <time>2015-11-11T09:13:03Z</time>
      </trkpt>
      <trkpt lat="43.63905" lon="1.55933">
        <ele>180.56</ele>
        <time>2015-11-11T09:13:07Z</time>
      </trkpt>
      <trkpt lat="43.63922" lon="1.55947">
        <ele>178.61</ele>
        <time>2015-11-11T09:13:11Z</time>
      </trkpt>
      <trkpt lat="43.63948" lon="1.55958">
        <ele>176.57</ele>
        <time>2015-11-11T09:13:17Z</time>
      </trkpt>
      <trkpt lat="43.63966" lon="1.5597">
        <ele>176.04</ele>
        <time>2015-11-11T09:13:21Z</time>
      </trkpt>
      <trkpt lat="43.63984" lon="1.55986">
        <ele>175.31</ele>
        <time>2015-11-11T09:13:25Z</time>
      </trkpt>
      <trkpt lat="43.64004" lon="1.56001">
        <ele>174.23</ele>
        <time>2015-11-11T09:13:29Z</time>
      </trkpt>
      <trkpt lat="43.64025" lon="1.56015">
        <ele>173.28</ele>
        <time>2015-11-11T09:13:33Z</time>
      </trkpt>
      <trkpt lat="43.64042" lon="1.56027">
        <ele>172.32</ele>
        <time>2015-11-11T09:13:37Z</time>
      </trkpt>
      <trkpt lat="43.64062" lon="1.5604">
        <ele>171.53</ele>
        <time>2015-11-11T09:13:41Z</time>
      </trkpt>
      <trkpt lat="43.64082" lon="1.56051">
        <ele>170.73</ele>
        <time>2015-11-11T09:13:45Z</time>
      </trkpt>
      <trkpt lat="43.64102" lon="1.56063">
        <ele>169.38</ele>
        <time>2015-11-11T09:13:53Z</time>
      </trkpt>
      <trkpt lat="43.64122" lon="1.56077">
        <ele>169.09</ele>
        <time>2015-11-11T09:14:01Z</time>
      </trkpt>
      <trkpt lat="43.64137" lon="1.56097">
        <ele>169.14</ele>
        <time>2015-11-11T09:14:09Z</time>
      </trkpt>
      <trkpt lat="43.6415" lon="1.5612">
        <ele>169.33</ele>
        <time>2015-11-11T09:14:15Z</time>
      </trkpt>
      <trkpt lat="43.64163" lon="1.56147">
        <ele>169.25</ele>
        <time>2015-11-11T09:14:21Z</time>
      </trkpt>
      <trkpt lat="43.64176" lon="1.56171">
        <ele>169.45</ele>
        <time>2015-11-11T09:14:27Z</time>
      </trkpt>
      <trkpt lat="43.64191" lon="1.56193">
        <ele>169.11</ele>
        <time>2015-11-11T09:14:39Z</time>
      </trkpt>
      <trkpt lat="43.64207" lon="1.56217">
        <ele>167.86</ele>
        <time>2015-11-11T09:14:47Z</time>
      </trkpt>
      <trkpt lat="43.64221" lon="1.56234">
        <ele>167.19</ele>
        <time>2015-11-11T09:14:53Z</time>
      </trkpt>
      <trkpt lat="43.64238" lon="1.56249">
        <ele>166.6</ele>
        <time>2015-11-11T09:14:59Z</time>
      </trkpt>
      <trkpt lat="43.64256" lon="1.56265">
        <ele>166.01</ele>
        <time>2015-11-11T09:15:07Z</time>
      </trkpt>
      <trkpt lat="43.6427" lon="1.56282">
        <ele>165.52</ele>
        <time>2015-11-11T09:15:17Z</time>
      </trkpt>
      <trkpt lat="43.64266" lon="1.56314">
        <ele>165.06</ele>
        <time>2015-11-11T09:15:25Z</time>
      </trkpt>
      <trkpt lat="43.64262" lon="1.56342">
        <ele>164.44</ele>
        <time>2015-11-11T09:15:31Z</time>
      </trkpt>
      <trkpt lat="43.64255" lon="1.5637">
        <ele>164.96</ele>
        <time>2015-11-11T09:15:37Z</time>
      </trkpt>
      <trkpt lat="43.64246" lon="1.56397">
        <ele>165.56</ele>
        <time>2015-11-11T09:15:43Z</time>
      </trkpt>
      <trkpt lat="43.64234" lon="1.56423">
        <ele>165.52</ele>
        <time>2015-11-11T09:15:49Z</time>
      </trkpt>
      <trkpt lat="43.64222" lon="1.56446">
        <ele>165.29</ele>
        <time>2015-11-11T09:15:55Z</time>
      </trkpt>
      <trkpt lat="43.64209" lon="1.56469">
        <ele>165.13</ele>
        <time>2015-11-11T09:16:01Z</time>
      </trkpt>
      <trkpt lat="43.64199" lon="1.56493">
        <ele>165.12</ele>
        <time>2015-11-11T09:16:07Z</time>
      </trkpt>
      <trkpt lat="43.64192" lon="1.5652">
        <ele>165.48</ele>
        <time>2015-11-11T09:16:13Z</time>
      </trkpt>
      <trkpt lat="43.64184" lon="1.56549">
        <ele>165.78</ele>
        <time>2015-11-11T09:16:19Z</time>
      </trkpt>
      <trkpt lat="43.64174" lon="1.56577">
        <ele>166.2</ele>
        <time>2015-11-11T09:16:25Z</time>
      </trkpt>
      <trkpt lat="43.64163" lon="1.56605">
        <ele>166.55</ele>
        <time>2015-11-11T09:16:31Z</time>
      </trkpt>
      <trkpt lat="43.64151" lon="1.56632">
        <ele>166.59</ele>
        <time>2015-11-11T09:16:37Z</time>
      </trkpt>
      <trkpt lat="43.64139" lon="1.5666">
        <ele>166.61</ele>
        <time>2015-11-11T09:16:43Z</time>
      </trkpt>
      <trkpt lat="43.64125" lon="1.56693">
        <ele>167.31</ele>
        <time>2015-11-11T09:16:49Z</time>
      </trkpt>
      <trkpt lat="43.64117" lon="1.56716">
        <ele>168</ele>
        <time>2015-11-11T09:16:53Z</time>
      </trkpt>
      <trkpt lat="43.64108" lon="1.56739">
        <ele>168.7</ele>
        <time>2015-11-11T09:16:57Z</time>
      </trkpt>
      <trkpt lat="43.641" lon="1.56762">
        <ele>169.07</ele>
        <time>2015-11-11T09:17:01Z</time>
      </trkpt>
      <trkpt lat="43.64091" lon="1.56791">
        <ele>169.38</ele>
        <time>2015-11-11T09:17:07Z</time>
      </trkpt>
      <trkpt lat="43.64081" lon="1.5682">
        <ele>169.65</ele>
        <time>2015-11-11T09:17:15Z</time>
      </trkpt>
      <trkpt lat="43.64075" lon="1.56848">
        <ele>169.98</ele>
        <time>2015-11-11T09:17:21Z</time>
      </trkpt>
      <trkpt lat="43.64065" lon="1.5688">
        <ele>170.03</ele>
        <time>2015-11-11T09:17:27Z</time>
      </trkpt>
      <trkpt lat="43.64054" lon="1.56913">
        <ele>169.91</ele>
        <time>2015-11-11T09:17:33Z</time>
      </trkpt>
      <trkpt lat="43.64044" lon="1.56945">
        <ele>169.55</ele>
        <time>2015-11-11T09:17:39Z</time>
      </trkpt>
      <trkpt lat="43.64036" lon="1.56974">
        <ele>169.46</ele>
        <time>2015-11-11T09:17:45Z</time>
      </trkpt>
      <trkpt lat="43.64027" lon="1.57007">
        <ele>169.77</ele>
        <time>2015-11-11T09:17:51Z</time>
      </trkpt>
      <trkpt lat="43.6402" lon="1.57038">
        <ele>169.84</ele>
        <time>2015-11-11T09:17:57Z</time>
      </trkpt>
      <trkpt lat="43.64012" lon="1.57067">
        <ele>170.16</ele>
        <time>2015-11-11T09:18:03Z</time>
      </trkpt>
      <trkpt lat="43.64006" lon="1.57098">
        <ele>170.85</ele>
        <time>2015-11-11T09:18:09Z</time>
      </trkpt>
      <trkpt lat="43.64002" lon="1.5713">
        <ele>171.77</ele>
        <time>2015-11-11T09:18:15Z</time>
      </trkpt>
      <trkpt lat="43.63997" lon="1.57162">
        <ele>172.36</ele>
        <time>2015-11-11T09:18:21Z</time>
      </trkpt>
      <trkpt lat="43.63993" lon="1.5719">
        <ele>172.96</ele>
        <time>2015-11-11T09:18:27Z</time>
      </trkpt>
      <trkpt lat="43.63984" lon="1.57218">
        <ele>174.09</ele>
        <time>2015-11-11T09:18:35Z</time>
      </trkpt>
      <trkpt lat="43.63971" lon="1.57238">
        <ele>173.72</ele>
        <time>2015-11-11T09:18:41Z</time>
      </trkpt>
      <trkpt lat="43.63956" lon="1.57258">
        <ele>173.83</ele>
        <time>2015-11-11T09:18:47Z</time>
      </trkpt>
      <trkpt lat="43.63941" lon="1.57279">
        <ele>173.01</ele>
        <time>2015-11-11T09:18:53Z</time>
      </trkpt>
      <trkpt lat="43.63923" lon="1.57301">
        <ele>172.37</ele>
        <time>2015-11-11T09:18:59Z</time>
      </trkpt>
      <trkpt lat="43.63904" lon="1.57324">
        <ele>171.17</ele>
        <time>2015-11-11T09:19:05Z</time>
      </trkpt>
      <trkpt lat="43.63886" lon="1.5735">
        <ele>169.68</ele>
        <time>2015-11-11T09:19:11Z</time>
      </trkpt>
      <trkpt lat="43.63877" lon="1.57371">
        <ele>169.56</ele>
        <time>2015-11-11T09:19:17Z</time>
      </trkpt>
      <trkpt lat="43.63883" lon="1.57396">
        <ele>171.1</ele>
        <time>2015-11-11T09:19:29Z</time>
      </trkpt>
      <trkpt lat="43.63897" lon="1.57417">
        <ele>173.05</ele>
        <time>2015-11-11T09:19:39Z</time>
      </trkpt>
      <trkpt lat="43.63898" lon="1.57444">
        <ele>173.5</ele>
        <time>2015-11-11T09:19:47Z</time>
      </trkpt>
      <trkpt lat="43.63889" lon="1.57473">
        <ele>173.87</ele>
        <time>2015-11-11T09:19:53Z</time>
      </trkpt>
      <trkpt lat="43.63878" lon="1.57506">
        <ele>173.29</ele>
        <time>2015-11-11T09:19:59Z</time>
      </trkpt>
      <trkpt lat="43.63868" lon="1.57538">
        <ele>172.93</ele>
        <time>2015-11-11T09:20:05Z</time>
      </trkpt>
      <trkpt lat="43.63859" lon="1.5757">
        <ele>172.46</ele>
        <time>2015-11-11T09:20:11Z</time>
      </trkpt>
      <trkpt lat="43.63849" lon="1.57598">
        <ele>171.59</ele>
        <time>2015-11-11T09:20:17Z</time>
      </trkpt>
      <trkpt lat="43.6384" lon="1.57626">
        <ele>170.49</ele>
        <time>2015-11-11T09:20:23Z</time>
      </trkpt>
      <trkpt lat="43.63832" lon="1.57652">
        <ele>170.49</ele>
        <time>2015-11-11T09:20:29Z</time>
      </trkpt>
      <trkpt lat="43.63823" lon="1.57679">
        <ele>170.92</ele>
        <time>2015-11-11T09:20:35Z</time>
      </trkpt>
      <trkpt lat="43.63809" lon="1.57709">
        <ele>171.36</ele>
        <time>2015-11-11T09:20:41Z</time>
      </trkpt>
      <trkpt lat="43.63796" lon="1.57741">
        <ele>171.65</ele>
        <time>2015-11-11T09:20:47Z</time>
      </trkpt>
      <trkpt lat="43.63787" lon="1.57765">
        <ele>171.91</ele>
        <time>2015-11-11T09:20:51Z</time>
      </trkpt>
      <trkpt lat="43.63774" lon="1.57792">
        <ele>172.22</ele>
        <time>2015-11-11T09:20:57Z</time>
      </trkpt>
      <trkpt lat="43.63765" lon="1.57824">
        <ele>172.46</ele>
        <time>2015-11-11T09:21:03Z</time>
      </trkpt>
      <trkpt lat="43.6376" lon="1.57858">
        <ele>172.71</ele>
        <time>2015-11-11T09:21:09Z</time>
      </trkpt>
      <trkpt lat="43.63755" lon="1.57893">
        <ele>172.26</ele>
        <time>2015-11-11T09:21:15Z</time>
      </trkpt>
      <trkpt lat="43.63753" lon="1.57927">
        <ele>171.44</ele>
        <time>2015-11-11T09:21:21Z</time>
      </trkpt>
      <trkpt lat="43.63748" lon="1.57961">
        <ele>171.21</ele>
        <time>2015-11-11T09:21:27Z</time>
      </trkpt>
      <trkpt lat="43.63743" lon="1.57994">
        <ele>171.12</ele>
        <time>2015-11-11T09:21:33Z</time>
      </trkpt>
      <trkpt lat="43.63741" lon="1.5803">
        <ele>171.12</ele>
        <time>2015-11-11T09:21:39Z</time>
      </trkpt>
      <trkpt lat="43.63735" lon="1.58059">
        <ele>171.11</ele>
        <time>2015-11-11T09:21:45Z</time>
      </trkpt>
      <trkpt lat="43.63728" lon="1.58084">
        <ele>171.1</ele>
        <time>2015-11-11T09:21:51Z</time>
      </trkpt>
      <trkpt lat="43.63721" lon="1.58113">
        <ele>170.92</ele>
        <time>2015-11-11T09:21:57Z</time>
      </trkpt>
      <trkpt lat="43.63713" lon="1.58142">
        <ele>170.79</ele>
        <time>2015-11-11T09:22:03Z</time>
      </trkpt>
      <trkpt lat="43.63707" lon="1.58172">
        <ele>171.24</ele>
        <time>2015-11-11T09:22:09Z</time>
      </trkpt>
      <trkpt lat="43.63702" lon="1.58198">
        <ele>171.42</ele>
        <time>2015-11-11T09:22:15Z</time>
      </trkpt>
      <trkpt lat="43.63697" lon="1.58224">
        <ele>170.74</ele>
        <time>2015-11-11T09:22:21Z</time>
      </trkpt>
      <trkpt lat="43.63691" lon="1.58252">
        <ele>170.26</ele>
        <time>2015-11-11T09:22:27Z</time>
      </trkpt>
      <trkpt lat="43.63684" lon="1.5828">
        <ele>169.91</ele>
        <time>2015-11-11T09:22:33Z</time>
      </trkpt>
      <trkpt lat="43.63678" lon="1.58307">
        <ele>169.87</ele>
        <time>2015-11-11T09:22:39Z</time>
      </trkpt>
      <trkpt lat="43.63671" lon="1.58334">
        <ele>170</ele>
        <time>2015-11-11T09:22:45Z</time>
      </trkpt>
      <trkpt lat="43.63666" lon="1.58362">
        <ele>169.52</ele>
        <time>2015-11-11T09:22:51Z</time>
      </trkpt>
      <trkpt lat="43.63661" lon="1.58386">
        <ele>168.69</ele>
        <time>2015-11-11T09:22:59Z</time>
      </trkpt>
      <trkpt lat="43.63679" lon="1.58397">
        <ele>167.5</ele>
        <time>2015-11-11T09:23:27Z</time>
      </trkpt>
      <trkpt lat="43.63697" lon="1.58399">
        <ele>169.19</ele>
        <time>2015-11-11T09:23:43Z</time>
      </trkpt>
      <trkpt lat="43.63693" lon="1.58429">
        <ele>169.98</ele>
        <time>2015-11-11T09:24:29Z</time>
      </trkpt>
      <trkpt lat="43.63688" lon="1.58455">
        <ele>170.82</ele>
        <time>2015-11-11T09:24:37Z</time>
      </trkpt>
      <trkpt lat="43.63687" lon="1.58483">
        <ele>171.11</ele>
        <time>2015-11-11T09:24:45Z</time>
      </trkpt>
      <trkpt lat="43.63683" lon="1.58511">
        <ele>171.11</ele>
        <time>2015-11-11T09:24:55Z</time>
      </trkpt>
      <trkpt lat="43.63661" lon="1.58503">
        <ele>171.73</ele>
        <time>2015-11-11T09:25:07Z</time>
      </trkpt>
      <trkpt lat="43.6364" lon="1.58507">
        <ele>171.51</ele>
        <time>2015-11-11T09:25:13Z</time>
      </trkpt>
      <trkpt lat="43.63632" lon="1.58533">
        <ele>171.79</ele>
        <time>2015-11-11T09:25:19Z</time>
      </trkpt>
      <trkpt lat="43.63627" lon="1.5856">
        <ele>171.78</ele>
        <time>2015-11-11T09:25:25Z</time>
      </trkpt>
      <trkpt lat="43.63623" lon="1.58588">
        <ele>171.45</ele>
        <time>2015-11-11T09:25:31Z</time>
      </trkpt>
      <trkpt lat="43.63618" lon="1.58621">
        <ele>171.25</ele>
        <time>2015-11-11T09:25:37Z</time>
      </trkpt>
      <trkpt lat="43.63614" lon="1.58654">
        <ele>171.27</ele>
        <time>2015-11-11T09:25:43Z</time>
      </trkpt>
      <trkpt lat="43.6361" lon="1.58685">
        <ele>171.46</ele>
        <time>2015-11-11T09:25:49Z</time>
      </trkpt>
      <trkpt lat="43.63606" lon="1.58717">
        <ele>171.2</ele>
        <time>2015-11-11T09:25:55Z</time>
      </trkpt>
      <trkpt lat="43.63602" lon="1.5875">
        <ele>170.77</ele>
        <time>2015-11-11T09:26:01Z</time>
      </trkpt>
      <trkpt lat="43.63598" lon="1.58782">
        <ele>170.31</ele>
        <time>2015-11-11T09:26:07Z</time>
      </trkpt>
      <trkpt lat="43.63594" lon="1.58811">
        <ele>169.94</ele>
        <time>2015-11-11T09:26:13Z</time>
      </trkpt>
      <trkpt lat="43.6359" lon="1.58841">
        <ele>169.86</ele>
        <time>2015-11-11T09:26:19Z</time>
      </trkpt>
      <trkpt lat="43.63585" lon="1.58872">
        <ele>169.64</ele>
        <time>2015-11-11T09:26:25Z</time>
      </trkpt>
      <trkpt lat="43.63581" lon="1.58902">
        <ele>169.82</ele>
        <time>2015-11-11T09:26:31Z</time>
      </trkpt>
      <trkpt lat="43.63578" lon="1.58932">
        <ele>170.17</ele>
        <time>2015-11-11T09:26:37Z</time>
      </trkpt>
      <trkpt lat="43.63573" lon="1.58962">
        <ele>170.55</ele>
        <time>2015-11-11T09:26:43Z</time>
      </trkpt>
      <trkpt lat="43.63569" lon="1.58991">
        <ele>171.1</ele>
        <time>2015-11-11T09:26:49Z</time>
      </trkpt>
      <trkpt lat="43.63566" lon="1.59017">
        <ele>171.1</ele>
        <time>2015-11-11T09:26:55Z</time>
      </trkpt>
      <trkpt lat="43.63573" lon="1.59043">
        <ele>172.18</ele>
        <time>2015-11-11T09:27:07Z</time>
      </trkpt>
      <trkpt lat="43.6359" lon="1.59053">
        <ele>173.15</ele>
        <time>2015-11-11T09:27:15Z</time>
      </trkpt>
      <trkpt lat="43.63609" lon="1.59065">
        <ele>173.53</ele>
        <time>2015-11-11T09:27:23Z</time>
      </trkpt>
      <trkpt lat="43.63629" lon="1.59076">
        <ele>173.86</ele>
        <time>2015-11-11T09:27:31Z</time>
      </trkpt>
      <trkpt lat="43.63646" lon="1.59085">
        <ele>174.58</ele>
        <time>2015-11-11T09:27:39Z</time>
      </trkpt>
      <trkpt lat="43.63666" lon="1.59095">
        <ele>175.56</ele>
        <time>2015-11-11T09:27:49Z</time>
      </trkpt>
      <trkpt lat="43.63685" lon="1.59107">
        <ele>175.97</ele>
        <time>2015-11-11T09:27:59Z</time>
      </trkpt>
      <trkpt lat="43.63703" lon="1.59118">
        <ele>177.15</ele>
        <time>2015-11-11T09:28:11Z</time>
      </trkpt>
      <trkpt lat="43.63719" lon="1.59132">
        <ele>178.57</ele>
        <time>2015-11-11T09:28:25Z</time>
      </trkpt>
      <trkpt lat="43.63737" lon="1.59146">
        <ele>182.67</ele>
        <time>2015-11-11T09:28:41Z</time>
      </trkpt>
      <trkpt lat="43.63751" lon="1.59161">
        <ele>187.67</ele>
        <time>2015-11-11T09:29:07Z</time>
      </trkpt>
      <trkpt lat="43.63758" lon="1.59186">
        <ele>195.13</ele>
        <time>2015-11-11T09:29:35Z</time>
      </trkpt>
      <trkpt lat="43.63767" lon="1.5921">
        <ele>199.62</ele>
        <time>2015-11-11T09:30:01Z</time>
      </trkpt>
      <trkpt lat="43.63773" lon="1.59234">
        <ele>204.81</ele>
        <time>2015-11-11T09:30:25Z</time>
      </trkpt>
      <trkpt lat="43.63772" lon="1.5926">
        <ele>206.94</ele>
        <time>2015-11-11T09:30:51Z</time>
      </trkpt>
      <trkpt lat="43.63777" lon="1.59285">
        <ele>211.16</ele>
        <time>2015-11-11T09:31:11Z</time>
      </trkpt>
      <trkpt lat="43.63786" lon="1.5931">
        <ele>217.29</ele>
        <time>2015-11-11T09:31:31Z</time>
      </trkpt>
      <trkpt lat="43.63796" lon="1.59331">
        <ele>220.59</ele>
        <time>2015-11-11T09:31:49Z</time>
      </trkpt>
      <trkpt lat="43.6381" lon="1.59348">
        <ele>221.88</ele>
        <time>2015-11-11T09:32:07Z</time>
      </trkpt>
      <trkpt lat="43.63826" lon="1.59366">
        <ele>222.83</ele>
        <time>2015-11-11T09:32:19Z</time>
      </trkpt>
      <trkpt lat="43.63844" lon="1.59374">
        <ele>224.57</ele>
        <time>2015-11-11T09:32:33Z</time>
      </trkpt>
      <trkpt lat="43.63838" lon="1.59402">
        <ele>226.31</ele>
        <time>2015-11-11T09:36:17Z</time>
      </trkpt>
      <trkpt lat="43.63834" lon="1.59429">
        <ele>227.89</ele>
        <time>2015-11-11T09:36:27Z</time>
      </trkpt>
      <trkpt lat="43.63825" lon="1.59457">
        <ele>229.12</ele>
        <time>2015-11-11T09:36:37Z</time>
      </trkpt>
      <trkpt lat="43.63818" lon="1.59486">
        <ele>230.7</ele>
        <time>2015-11-11T09:36:47Z</time>
      </trkpt>
      <trkpt lat="43.63804" lon="1.59504">
        <ele>231.32</ele>
        <time>2015-11-11T09:36:55Z</time>
      </trkpt>
      <trkpt lat="43.63788" lon="1.5952">
        <ele>231.53</ele>
        <time>2015-11-11T09:37:01Z</time>
      </trkpt>
      <trkpt lat="43.63774" lon="1.59545">
        <ele>232.3</ele>
        <time>2015-11-11T09:37:07Z</time>
      </trkpt>
      <trkpt lat="43.63767" lon="1.59572">
        <ele>232.98</ele>
        <time>2015-11-11T09:37:13Z</time>
      </trkpt>
      <trkpt lat="43.63763" lon="1.59601">
        <ele>234.08</ele>
        <time>2015-11-11T09:37:19Z</time>
      </trkpt>
      <trkpt lat="43.63762" lon="1.59631">
        <ele>234.73</ele>
        <time>2015-11-11T09:37:25Z</time>
      </trkpt>
      <trkpt lat="43.63758" lon="1.5966">
        <ele>235.29</ele>
        <time>2015-11-11T09:37:33Z</time>
      </trkpt>
      <trkpt lat="43.63755" lon="1.59691">
        <ele>236.28</ele>
        <time>2015-11-11T09:37:41Z</time>
      </trkpt>
      <trkpt lat="43.63749" lon="1.59723">
        <ele>236.34</ele>
        <time>2015-11-11T09:37:49Z</time>
      </trkpt>
      <trkpt lat="43.63736" lon="1.59742">
        <ele>236.5</ele>
        <time>2015-11-11T09:37:55Z</time>
      </trkpt>
      <trkpt lat="43.63719" lon="1.59764">
        <ele>236.15</ele>
        <time>2015-11-11T09:38:01Z</time>
      </trkpt>
      <trkpt lat="43.63701" lon="1.59791">
        <ele>234.94</ele>
        <time>2015-11-11T09:38:07Z</time>
      </trkpt>
      <trkpt lat="43.63681" lon="1.59812">
        <ele>233.13</ele>
        <time>2015-11-11T09:38:11Z</time>
      </trkpt>
      <trkpt lat="43.63661" lon="1.59835">
        <ele>230.86</ele>
        <time>2015-11-11T09:38:15Z</time>
      </trkpt>
      <trkpt lat="43.6364" lon="1.59856">
        <ele>228.04</ele>
        <time>2015-11-11T09:38:19Z</time>
      </trkpt>
      <trkpt lat="43.63621" lon="1.59876">
        <ele>225.26</ele>
        <time>2015-11-11T09:38:23Z</time>
      </trkpt>
      <trkpt lat="43.63603" lon="1.59896">
        <ele>221.79</ele>
        <time>2015-11-11T09:38:27Z</time>
      </trkpt>
      <trkpt lat="43.63585" lon="1.59914">
        <ele>218.87</ele>
        <time>2015-11-11T09:38:31Z</time>
      </trkpt>
      <trkpt lat="43.63565" lon="1.5993">
        <ele>216.19</ele>
        <time>2015-11-11T09:38:35Z</time>
      </trkpt>
      <trkpt lat="43.63548" lon="1.59942">
        <ele>212.6</ele>
        <time>2015-11-11T09:38:39Z</time>
      </trkpt>
      <trkpt lat="43.63531" lon="1.59955">
        <ele>208.7</ele>
        <time>2015-11-11T09:38:43Z</time>
      </trkpt>
      <trkpt lat="43.63514" lon="1.59969">
        <ele>204.32</ele>
        <time>2015-11-11T09:38:47Z</time>
      </trkpt>
      <trkpt lat="43.63497" lon="1.59982">
        <ele>199.93</ele>
        <time>2015-11-11T09:38:51Z</time>
      </trkpt>
      <trkpt lat="43.63477" lon="1.59994">
        <ele>196.48</ele>
        <time>2015-11-11T09:38:55Z</time>
      </trkpt>
      <trkpt lat="43.63455" lon="1.60011">
        <ele>192.92</ele>
        <time>2015-11-11T09:38:59Z</time>
      </trkpt>
      <trkpt lat="43.63433" lon="1.60031">
        <ele>188.95</ele>
        <time>2015-11-11T09:39:03Z</time>
      </trkpt>
      <trkpt lat="43.63411" lon="1.60048">
        <ele>186.14</ele>
        <time>2015-11-11T09:39:07Z</time>
      </trkpt>
      <trkpt lat="43.63392" lon="1.60062">
        <ele>184.26</ele>
        <time>2015-11-11T09:39:11Z</time>
      </trkpt>
      <trkpt lat="43.63375" lon="1.60075">
        <ele>183.14</ele>
        <time>2015-11-11T09:39:15Z</time>
      </trkpt>
      <trkpt lat="43.63358" lon="1.60089">
        <ele>182.11</ele>
        <time>2015-11-11T09:39:19Z</time>
      </trkpt>
      <trkpt lat="43.63342" lon="1.60101">
        <ele>181.43</ele>
        <time>2015-11-11T09:39:23Z</time>
      </trkpt>
      <trkpt lat="43.63319" lon="1.60119">
        <ele>180.56</ele>
        <time>2015-11-11T09:39:29Z</time>
      </trkpt>
      <trkpt lat="43.633" lon="1.60135">
        <ele>179.26</ele>
        <time>2015-11-11T09:39:35Z</time>
      </trkpt>
      <trkpt lat="43.63281" lon="1.60124">
        <ele>176.17</ele>
        <time>2015-11-11T09:39:45Z</time>
      </trkpt>
      <trkpt lat="43.63265" lon="1.60107">
        <ele>174.39</ele>
        <time>2015-11-11T09:40:13Z</time>
      </trkpt>
      <trkpt lat="43.6325" lon="1.60091">
        <ele>174.19</ele>
        <time>2015-11-11T09:40:19Z</time>
      </trkpt>
      <trkpt lat="43.63235" lon="1.60071">
        <ele>174.35</ele>
        <time>2015-11-11T09:40:25Z</time>
      </trkpt>
      <trkpt lat="43.63219" lon="1.60052">
        <ele>174.09</ele>
        <time>2015-11-11T09:40:31Z</time>
      </trkpt>
      <trkpt lat="43.63206" lon="1.60033">
        <ele>174.25</ele>
        <time>2015-11-11T09:40:37Z</time>
      </trkpt>
      <trkpt lat="43.63192" lon="1.60016">
        <ele>174.11</ele>
        <time>2015-11-11T09:40:43Z</time>
      </trkpt>
      <trkpt lat="43.63179" lon="1.59999">
        <ele>173.74</ele>
        <time>2015-11-11T09:40:49Z</time>
      </trkpt>
      <trkpt lat="43.63172" lon="1.59975">
        <ele>173.36</ele>
        <time>2015-11-11T09:40:55Z</time>
      </trkpt>
      <trkpt lat="43.63181" lon="1.59946">
        <ele>173.09</ele>
        <time>2015-11-11T09:41:01Z</time>
      </trkpt>
      <trkpt lat="43.6319" lon="1.59916">
        <ele>172.88</ele>
        <time>2015-11-11T09:41:07Z</time>
      </trkpt>
      <trkpt lat="43.632" lon="1.59886">
        <ele>172.84</ele>
        <time>2015-11-11T09:41:13Z</time>
      </trkpt>
      <trkpt lat="43.6321" lon="1.59854">
        <ele>172.7</ele>
        <time>2015-11-11T09:41:19Z</time>
      </trkpt>
      <trkpt lat="43.6322" lon="1.59821">
        <ele>172.67</ele>
        <time>2015-11-11T09:41:25Z</time>
      </trkpt>
      <trkpt lat="43.6323" lon="1.59787">
        <ele>172.22</ele>
        <time>2015-11-11T09:41:31Z</time>
      </trkpt>
      <trkpt lat="43.63241" lon="1.59753">
        <ele>171.82</ele>
        <time>2015-11-11T09:41:37Z</time>
      </trkpt>
      <trkpt lat="43.6325" lon="1.59722">
        <ele>172.17</ele>
        <time>2015-11-11T09:41:43Z</time>
      </trkpt>
      <trkpt lat="43.6326" lon="1.59691">
        <ele>172.17</ele>
        <time>2015-11-11T09:41:49Z</time>
      </trkpt>
      <trkpt lat="43.63271" lon="1.59658">
        <ele>171.76</ele>
        <time>2015-11-11T09:41:55Z</time>
      </trkpt>
      <trkpt lat="43.63282" lon="1.59625">
        <ele>171.49</ele>
        <time>2015-11-11T09:42:01Z</time>
      </trkpt>
      <trkpt lat="43.63292" lon="1.59592">
        <ele>171.15</ele>
        <time>2015-11-11T09:42:07Z</time>
      </trkpt>
      <trkpt lat="43.63302" lon="1.59559">
        <ele>170.6</ele>
        <time>2015-11-11T09:42:13Z</time>
      </trkpt>
      <trkpt lat="43.63295" lon="1.59536">
        <ele>171.05</ele>
        <time>2015-11-11T09:42:19Z</time>
      </trkpt>
      <trkpt lat="43.63272" lon="1.59523">
        <ele>171.51</ele>
        <time>2015-11-11T09:42:25Z</time>
      </trkpt>
      <trkpt lat="43.63251" lon="1.59514">
        <ele>171.53</ele>
        <time>2015-11-11T09:42:31Z</time>
      </trkpt>
      <trkpt lat="43.63232" lon="1.59507">
        <ele>171.9</ele>
        <time>2015-11-11T09:42:37Z</time>
      </trkpt>
      <trkpt lat="43.63211" lon="1.59499">
        <ele>172.68</ele>
        <time>2015-11-11T09:42:43Z</time>
      </trkpt>
      <trkpt lat="43.63191" lon="1.59492">
        <ele>173.49</ele>
        <time>2015-11-11T09:42:49Z</time>
      </trkpt>
      <trkpt lat="43.63171" lon="1.59483">
        <ele>174.3</ele>
        <time>2015-11-11T09:42:55Z</time>
      </trkpt>
      <trkpt lat="43.63149" lon="1.59475">
        <ele>174.55</ele>
        <time>2015-11-11T09:43:01Z</time>
      </trkpt>
      <trkpt lat="43.63128" lon="1.59466">
        <ele>174.91</ele>
        <time>2015-11-11T09:43:07Z</time>
      </trkpt>
      <trkpt lat="43.63107" lon="1.59458">
        <ele>175.09</ele>
        <time>2015-11-11T09:43:13Z</time>
      </trkpt>
      <trkpt lat="43.63086" lon="1.5945">
        <ele>175.22</ele>
        <time>2015-11-11T09:43:19Z</time>
      </trkpt>
      <trkpt lat="43.63066" lon="1.59442">
        <ele>175.42</ele>
        <time>2015-11-11T09:43:25Z</time>
      </trkpt>
      <trkpt lat="43.63045" lon="1.59434">
        <ele>175.64</ele>
        <time>2015-11-11T09:43:31Z</time>
      </trkpt>
      <trkpt lat="43.63024" lon="1.59425">
        <ele>176.02</ele>
        <time>2015-11-11T09:43:37Z</time>
      </trkpt>
      <trkpt lat="43.63003" lon="1.59418">
        <ele>176.37</ele>
        <time>2015-11-11T09:43:43Z</time>
      </trkpt>
      <trkpt lat="43.62982" lon="1.59411">
        <ele>176.48</ele>
        <time>2015-11-11T09:43:49Z</time>
      </trkpt>
      <trkpt lat="43.62961" lon="1.59403">
        <ele>176.7</ele>
        <time>2015-11-11T09:43:55Z</time>
      </trkpt>
      <trkpt lat="43.6294" lon="1.59396">
        <ele>176.94</ele>
        <time>2015-11-11T09:44:01Z</time>
      </trkpt>
      <trkpt lat="43.6292" lon="1.59388">
        <ele>177.37</ele>
        <time>2015-11-11T09:44:07Z</time>
      </trkpt>
      <trkpt lat="43.62899" lon="1.5938">
        <ele>177.95</ele>
        <time>2015-11-11T09:44:13Z</time>
      </trkpt>
      <trkpt lat="43.6288" lon="1.59373">
        <ele>178.64</ele>
        <time>2015-11-11T09:44:19Z</time>
      </trkpt>
      <trkpt lat="43.6286" lon="1.59363">
        <ele>179.1</ele>
        <time>2015-11-11T09:44:25Z</time>
      </trkpt>
      <trkpt lat="43.62844" lon="1.59346">
        <ele>179.5</ele>
        <time>2015-11-11T09:44:31Z</time>
      </trkpt>
      <trkpt lat="43.62826" lon="1.59328">
        <ele>180.38</ele>
        <time>2015-11-11T09:44:37Z</time>
      </trkpt>
      <trkpt lat="43.6281" lon="1.59309">
        <ele>180.89</ele>
        <time>2015-11-11T09:44:43Z</time>
      </trkpt>
      <trkpt lat="43.62794" lon="1.59291">
        <ele>181.23</ele>
        <time>2015-11-11T09:44:49Z</time>
      </trkpt>
      <trkpt lat="43.62777" lon="1.59276">
        <ele>181.72</ele>
        <time>2015-11-11T09:44:55Z</time>
      </trkpt>
      <trkpt lat="43.62759" lon="1.59262">
        <ele>182.37</ele>
        <time>2015-11-11T09:45:01Z</time>
      </trkpt>
      <trkpt lat="43.62741" lon="1.59248">
        <ele>182.85</ele>
        <time>2015-11-11T09:45:07Z</time>
      </trkpt>
      <trkpt lat="43.62724" lon="1.59234">
        <ele>183.6</ele>
        <time>2015-11-11T09:45:13Z</time>
      </trkpt>
      <trkpt lat="43.62706" lon="1.5922">
        <ele>184.05</ele>
        <time>2015-11-11T09:45:19Z</time>
      </trkpt>
      <trkpt lat="43.6269" lon="1.59207">
        <ele>184.7</ele>
        <time>2015-11-11T09:45:25Z</time>
      </trkpt>
      <trkpt lat="43.6267" lon="1.59191">
        <ele>185.91</ele>
        <time>2015-11-11T09:45:33Z</time>
      </trkpt>
      <trkpt lat="43.6265" lon="1.59176">
        <ele>187.06</ele>
        <time>2015-11-11T09:45:41Z</time>
      </trkpt>
      <trkpt lat="43.62631" lon="1.5916">
        <ele>188.26</ele>
        <time>2015-11-11T09:45:49Z</time>
      </trkpt>
      <trkpt lat="43.62616" lon="1.59143">
        <ele>189.48</ele>
        <time>2015-11-11T09:45:57Z</time>
      </trkpt>
      <trkpt lat="43.62604" lon="1.59123">
        <ele>190.47</ele>
        <time>2015-11-11T09:46:05Z</time>
      </trkpt>
      <trkpt lat="43.62593" lon="1.59099">
        <ele>192.12</ele>
        <time>2015-11-11T09:46:13Z</time>
      </trkpt>
      <trkpt lat="43.62582" lon="1.59075">
        <ele>194.2</ele>
        <time>2015-11-11T09:46:21Z</time>
      </trkpt>
      <trkpt lat="43.62572" lon="1.59051">
        <ele>195.87</ele>
        <time>2015-11-11T09:46:29Z</time>
      </trkpt>
      <trkpt lat="43.62561" lon="1.59027">
        <ele>197.41</ele>
        <time>2015-11-11T09:46:37Z</time>
      </trkpt>
      <trkpt lat="43.6255" lon="1.59005">
        <ele>198.72</ele>
        <time>2015-11-11T09:46:45Z</time>
      </trkpt>
      <trkpt lat="43.62539" lon="1.58979">
        <ele>200.65</ele>
        <time>2015-11-11T09:46:55Z</time>
      </trkpt>
      <trkpt lat="43.62525" lon="1.58954">
        <ele>202.49</ele>
        <time>2015-11-11T09:47:05Z</time>
      </trkpt>
      <trkpt lat="43.62515" lon="1.58928">
        <ele>203.98</ele>
        <time>2015-11-11T09:47:15Z</time>
      </trkpt>
      <trkpt lat="43.62505" lon="1.58905">
        <ele>205.14</ele>
        <time>2015-11-11T09:47:23Z</time>
      </trkpt>
      <trkpt lat="43.62486" lon="1.58906">
        <ele>206.24</ele>
        <time>2015-11-11T09:47:31Z</time>
      </trkpt>
      <trkpt lat="43.62468" lon="1.58918">
        <ele>206.98</ele>
        <time>2015-11-11T09:47:39Z</time>
      </trkpt>
      <trkpt lat="43.6245" lon="1.5893">
        <ele>207.39</ele>
        <time>2015-11-11T09:47:47Z</time>
      </trkpt>
      <trkpt lat="43.6243" lon="1.58941">
        <ele>208.29</ele>
        <time>2015-11-11T09:47:55Z</time>
      </trkpt>
      <trkpt lat="43.62408" lon="1.58954">
        <ele>209.11</ele>
        <time>2015-11-11T09:48:03Z</time>
      </trkpt>
      <trkpt lat="43.62391" lon="1.58964">
        <ele>209.42</ele>
        <time>2015-11-11T09:48:09Z</time>
      </trkpt>
      <trkpt lat="43.62374" lon="1.58974">
        <ele>209.59</ele>
        <time>2015-11-11T09:48:15Z</time>
      </trkpt>
      <trkpt lat="43.62355" lon="1.58984">
        <ele>209.7</ele>
        <time>2015-11-11T09:48:21Z</time>
      </trkpt>
      <trkpt lat="43.62336" lon="1.58995">
        <ele>209.99</ele>
        <time>2015-11-11T09:48:27Z</time>
      </trkpt>
      <trkpt lat="43.62318" lon="1.59005">
        <ele>210.45</ele>
        <time>2015-11-11T09:48:33Z</time>
      </trkpt>
      <trkpt lat="43.62299" lon="1.59017">
        <ele>211.01</ele>
        <time>2015-11-11T09:48:39Z</time>
      </trkpt>
      <trkpt lat="43.6228" lon="1.5903">
        <ele>211.29</ele>
        <time>2015-11-11T09:48:45Z</time>
      </trkpt>
      <trkpt lat="43.62262" lon="1.59042">
        <ele>211.68</ele>
        <time>2015-11-11T09:48:51Z</time>
      </trkpt>
      <trkpt lat="43.62246" lon="1.59059">
        <ele>211.95</ele>
        <time>2015-11-11T09:48:57Z</time>
      </trkpt>
      <trkpt lat="43.62229" lon="1.59075">
        <ele>212.24</ele>
        <time>2015-11-11T09:49:03Z</time>
      </trkpt>
      <trkpt lat="43.62212" lon="1.59092">
        <ele>212.73</ele>
        <time>2015-11-11T09:49:09Z</time>
      </trkpt>
      <trkpt lat="43.62195" lon="1.59108">
        <ele>213.11</ele>
        <time>2015-11-11T09:49:15Z</time>
      </trkpt>
      <trkpt lat="43.62177" lon="1.59125">
        <ele>213.38</ele>
        <time>2015-11-11T09:49:21Z</time>
      </trkpt>
      <trkpt lat="43.62158" lon="1.59143">
        <ele>213.78</ele>
        <time>2015-11-11T09:49:27Z</time>
      </trkpt>
      <trkpt lat="43.6214" lon="1.5916">
        <ele>214.05</ele>
        <time>2015-11-11T09:49:33Z</time>
      </trkpt>
      <trkpt lat="43.62122" lon="1.59178">
        <ele>214.39</ele>
        <time>2015-11-11T09:49:39Z</time>
      </trkpt>
      <trkpt lat="43.62103" lon="1.59196">
        <ele>214.56</ele>
        <time>2015-11-11T09:49:45Z</time>
      </trkpt>
      <trkpt lat="43.62084" lon="1.59214">
        <ele>214.75</ele>
        <time>2015-11-11T09:49:51Z</time>
      </trkpt>
      <trkpt lat="43.62065" lon="1.59232">
        <ele>214.95</ele>
        <time>2015-11-11T09:49:57Z</time>
      </trkpt>
      <trkpt lat="43.62047" lon="1.5925">
        <ele>215.27</ele>
        <time>2015-11-11T09:50:03Z</time>
      </trkpt>
      <trkpt lat="43.6203" lon="1.59266">
        <ele>215.36</ele>
        <time>2015-11-11T09:50:09Z</time>
      </trkpt>
      <trkpt lat="43.62012" lon="1.59284">
        <ele>215.65</ele>
        <time>2015-11-11T09:50:17Z</time>
      </trkpt>
      <trkpt lat="43.61997" lon="1.59267">
        <ele>216.7</ele>
        <time>2015-11-11T09:52:21Z</time>
      </trkpt>
      <trkpt lat="43.61977" lon="1.59245">
        <ele>217.05</ele>
        <time>2015-11-11T09:52:27Z</time>
      </trkpt>
      <trkpt lat="43.61961" lon="1.59226">
        <ele>216.99</ele>
        <time>2015-11-11T09:52:31Z</time>
      </trkpt>
      <trkpt lat="43.61942" lon="1.59206">
        <ele>216.6</ele>
        <time>2015-11-11T09:52:35Z</time>
      </trkpt>
      <trkpt lat="43.61921" lon="1.59184">
        <ele>215.75</ele>
        <time>2015-11-11T09:52:39Z</time>
      </trkpt>
      <trkpt lat="43.61898" lon="1.59159">
        <ele>214.24</ele>
        <time>2015-11-11T09:52:43Z</time>
      </trkpt>
      <trkpt lat="43.61874" lon="1.59135">
        <ele>213.48</ele>
        <time>2015-11-11T09:52:47Z</time>
      </trkpt>
      <trkpt lat="43.61854" lon="1.59115">
        <ele>213.37</ele>
        <time>2015-11-11T09:52:51Z</time>
      </trkpt>
      <trkpt lat="43.61839" lon="1.59092">
        <ele>213.73</ele>
        <time>2015-11-11T09:52:57Z</time>
      </trkpt>
      <trkpt lat="43.61842" lon="1.5906">
        <ele>213.8</ele>
        <time>2015-11-11T09:53:05Z</time>
      </trkpt>
      <trkpt lat="43.61851" lon="1.59038">
        <ele>214.94</ele>
        <time>2015-11-11T09:53:11Z</time>
      </trkpt>
      <trkpt lat="43.61862" lon="1.59015">
        <ele>216.08</ele>
        <time>2015-11-11T09:53:17Z</time>
      </trkpt>
      <trkpt lat="43.61868" lon="1.58988">
        <ele>216.76</ele>
        <time>2015-11-11T09:53:23Z</time>
      </trkpt>
      <trkpt lat="43.6186" lon="1.58963">
        <ele>217.05</ele>
        <time>2015-11-11T09:53:29Z</time>
      </trkpt>
      <trkpt lat="43.61848" lon="1.58944">
        <ele>217.32</ele>
        <time>2015-11-11T09:53:35Z</time>
      </trkpt>
      <trkpt lat="43.61832" lon="1.58922">
        <ele>218.2</ele>
        <time>2015-11-11T09:53:43Z</time>
      </trkpt>
      <trkpt lat="43.61816" lon="1.58901">
        <ele>219.06</ele>
        <time>2015-11-11T09:53:51Z</time>
      </trkpt>
      <trkpt lat="43.61802" lon="1.5888">
        <ele>219.87</ele>
        <time>2015-11-11T09:53:59Z</time>
      </trkpt>
      <trkpt lat="43.61787" lon="1.5886">
        <ele>220.74</ele>
        <time>2015-11-11T09:54:07Z</time>
      </trkpt>
      <trkpt lat="43.61773" lon="1.5884">
        <ele>221.81</ele>
        <time>2015-11-11T09:54:15Z</time>
      </trkpt>
      <trkpt lat="43.61757" lon="1.58818">
        <ele>222.84</ele>
        <time>2015-11-11T09:54:23Z</time>
      </trkpt>
      <trkpt lat="43.61741" lon="1.58798">
        <ele>224.33</ele>
        <time>2015-11-11T09:54:31Z</time>
      </trkpt>
      <trkpt lat="43.61727" lon="1.58777">
        <ele>225.5</ele>
        <time>2015-11-11T09:54:39Z</time>
      </trkpt>
      <trkpt lat="43.61713" lon="1.58756">
        <ele>227.04</ele>
        <time>2015-11-11T09:54:47Z</time>
      </trkpt>
      <trkpt lat="43.617" lon="1.58737">
        <ele>227.97</ele>
        <time>2015-11-11T09:54:55Z</time>
      </trkpt>
      <trkpt lat="43.61681" lon="1.58747">
        <ele>228.67</ele>
        <time>2015-11-11T09:55:07Z</time>
      </trkpt>
      <trkpt lat="43.61669" lon="1.58776">
        <ele>229.14</ele>
        <time>2015-11-11T09:55:15Z</time>
      </trkpt>
      <trkpt lat="43.61659" lon="1.58806">
        <ele>229.27</ele>
        <time>2015-11-11T09:55:21Z</time>
      </trkpt>
      <trkpt lat="43.61647" lon="1.58837">
        <ele>229.39</ele>
        <time>2015-11-11T09:55:27Z</time>
      </trkpt>
      <trkpt lat="43.61636" lon="1.58867">
        <ele>229.48</ele>
        <time>2015-11-11T09:55:33Z</time>
      </trkpt>
      <trkpt lat="43.61628" lon="1.58891">
        <ele>229.52</ele>
        <time>2015-11-11T09:55:37Z</time>
      </trkpt>
      <trkpt lat="43.61616" lon="1.58924">
        <ele>229.77</ele>
        <time>2015-11-11T09:55:43Z</time>
      </trkpt>
      <trkpt lat="43.61608" lon="1.58947">
        <ele>229.99</ele>
        <time>2015-11-11T09:55:47Z</time>
      </trkpt>
      <trkpt lat="43.616" lon="1.58969">
        <ele>230.37</ele>
        <time>2015-11-11T09:55:51Z</time>
      </trkpt>
      <trkpt lat="43.61591" lon="1.58995">
        <ele>230.51</ele>
        <time>2015-11-11T09:55:57Z</time>
      </trkpt>
      <trkpt lat="43.61582" lon="1.59017">
        <ele>230.92</ele>
        <time>2015-11-11T09:56:05Z</time>
      </trkpt>
      <trkpt lat="43.6157" lon="1.59039">
        <ele>232.85</ele>
        <time>2015-11-11T09:58:13Z</time>
      </trkpt>
      <trkpt lat="43.61559" lon="1.59067">
        <ele>233.84</ele>
        <time>2015-11-11T09:58:21Z</time>
      </trkpt>
      <trkpt lat="43.61549" lon="1.59093">
        <ele>234.37</ele>
        <time>2015-11-11T09:58:27Z</time>
      </trkpt>
      <trkpt lat="43.61538" lon="1.59114">
        <ele>235.01</ele>
        <time>2015-11-11T09:58:33Z</time>
      </trkpt>
      <trkpt lat="43.61526" lon="1.59139">
        <ele>235.21</ele>
        <time>2015-11-11T09:58:41Z</time>
      </trkpt>
      <trkpt lat="43.61514" lon="1.59161">
        <ele>235.64</ele>
        <time>2015-11-11T09:58:47Z</time>
      </trkpt>
      <trkpt lat="43.61501" lon="1.59185">
        <ele>236.02</ele>
        <time>2015-11-11T09:58:53Z</time>
      </trkpt>
      <trkpt lat="43.61488" lon="1.59208">
        <ele>236.07</ele>
        <time>2015-11-11T09:58:59Z</time>
      </trkpt>
      <trkpt lat="43.61471" lon="1.59239">
        <ele>235.64</ele>
        <time>2015-11-11T09:59:05Z</time>
      </trkpt>
      <trkpt lat="43.61457" lon="1.59262">
        <ele>235.38</ele>
        <time>2015-11-11T09:59:09Z</time>
      </trkpt>
      <trkpt lat="43.61446" lon="1.59283">
        <ele>235.27</ele>
        <time>2015-11-11T09:59:13Z</time>
      </trkpt>
      <trkpt lat="43.61431" lon="1.5931">
        <ele>235.31</ele>
        <time>2015-11-11T09:59:19Z</time>
      </trkpt>
      <trkpt lat="43.61416" lon="1.59337">
        <ele>235.22</ele>
        <time>2015-11-11T09:59:25Z</time>
      </trkpt>
      <trkpt lat="43.61403" lon="1.59363">
        <ele>235.24</ele>
        <time>2015-11-11T09:59:31Z</time>
      </trkpt>
      <trkpt lat="43.61381" lon="1.59363">
        <ele>235.73</ele>
        <time>2015-11-11T09:59:39Z</time>
      </trkpt>
      <trkpt lat="43.6136" lon="1.5935">
        <ele>236.76</ele>
        <time>2015-11-11T09:59:47Z</time>
      </trkpt>
      <trkpt lat="43.6134" lon="1.59337">
        <ele>238.37</ele>
        <time>2015-11-11T09:59:55Z</time>
      </trkpt>
      <trkpt lat="43.61322" lon="1.59323">
        <ele>240.15</ele>
        <time>2015-11-11T10:00:03Z</time>
      </trkpt>
      <trkpt lat="43.61302" lon="1.59309">
        <ele>240.51</ele>
        <time>2015-11-11T10:00:09Z</time>
      </trkpt>
      <trkpt lat="43.61287" lon="1.59297">
        <ele>240.03</ele>
        <time>2015-11-11T10:00:13Z</time>
      </trkpt>
      <trkpt lat="43.61267" lon="1.59281">
        <ele>238.66</ele>
        <time>2015-11-11T10:00:17Z</time>
      </trkpt>
      <trkpt lat="43.61246" lon="1.5926">
        <ele>236.49</ele>
        <time>2015-11-11T10:00:21Z</time>
      </trkpt>
      <trkpt lat="43.61227" lon="1.59236">
        <ele>233.67</ele>
        <time>2015-11-11T10:00:25Z</time>
      </trkpt>
      <trkpt lat="43.61212" lon="1.59216">
        <ele>230.99</ele>
        <time>2015-11-11T10:00:29Z</time>
      </trkpt>
      <trkpt lat="43.61198" lon="1.59198">
        <ele>228.77</ele>
        <time>2015-11-11T10:00:33Z</time>
      </trkpt>
      <trkpt lat="43.61183" lon="1.59179">
        <ele>227.17</ele>
        <time>2015-11-11T10:00:37Z</time>
      </trkpt>
      <trkpt lat="43.61165" lon="1.59152">
        <ele>224.67</ele>
        <time>2015-11-11T10:00:41Z</time>
      </trkpt>
      <trkpt lat="43.61151" lon="1.59124">
        <ele>220.74</ele>
        <time>2015-11-11T10:00:45Z</time>
      </trkpt>
      <trkpt lat="43.61136" lon="1.59095">
        <ele>216.71</ele>
        <time>2015-11-11T10:00:49Z</time>
      </trkpt>
      <trkpt lat="43.61119" lon="1.59066">
        <ele>212.58</ele>
        <time>2015-11-11T10:00:53Z</time>
      </trkpt>
      <trkpt lat="43.61102" lon="1.59032">
        <ele>208.07</ele>
        <time>2015-11-11T10:00:57Z</time>
      </trkpt>
      <trkpt lat="43.61085" lon="1.58995">
        <ele>203.02</ele>
        <time>2015-11-11T10:01:01Z</time>
      </trkpt>
      <trkpt lat="43.61068" lon="1.5896">
        <ele>198.68</ele>
        <time>2015-11-11T10:01:05Z</time>
      </trkpt>
      <trkpt lat="43.61051" lon="1.58926">
        <ele>195.39</ele>
        <time>2015-11-11T10:01:09Z</time>
      </trkpt>
      <trkpt lat="43.6103" lon="1.58898">
        <ele>193.2</ele>
        <time>2015-11-11T10:01:13Z</time>
      </trkpt>
      <trkpt lat="43.61006" lon="1.58881">
        <ele>191.82</ele>
        <time>2015-11-11T10:01:17Z</time>
      </trkpt>
      <trkpt lat="43.60988" lon="1.58867">
        <ele>191.13</ele>
        <time>2015-11-11T10:01:21Z</time>
      </trkpt>
      <trkpt lat="43.60967" lon="1.58849">
        <ele>190.56</ele>
        <time>2015-11-11T10:01:27Z</time>
      </trkpt>
      <trkpt lat="43.60948" lon="1.5883">
        <ele>190.36</ele>
        <time>2015-11-11T10:01:33Z</time>
      </trkpt>
      <trkpt lat="43.6093" lon="1.58811">
        <ele>190.66</ele>
        <time>2015-11-11T10:01:39Z</time>
      </trkpt>
      <trkpt lat="43.60916" lon="1.58795">
        <ele>191.22</ele>
        <time>2015-11-11T10:01:45Z</time>
      </trkpt>
      <trkpt lat="43.60901" lon="1.58777">
        <ele>191.79</ele>
        <time>2015-11-11T10:01:51Z</time>
      </trkpt>
      <trkpt lat="43.60886" lon="1.58758">
        <ele>192.69</ele>
        <time>2015-11-11T10:01:57Z</time>
      </trkpt>
      <trkpt lat="43.60868" lon="1.58738">
        <ele>193.38</ele>
        <time>2015-11-11T10:02:03Z</time>
      </trkpt>
      <trkpt lat="43.60852" lon="1.5872">
        <ele>193.69</ele>
        <time>2015-11-11T10:02:09Z</time>
      </trkpt>
      <trkpt lat="43.60836" lon="1.58703">
        <ele>194.28</ele>
        <time>2015-11-11T10:02:15Z</time>
      </trkpt>
      <trkpt lat="43.60818" lon="1.58685">
        <ele>195.27</ele>
        <time>2015-11-11T10:02:23Z</time>
      </trkpt>
      <trkpt lat="43.60798" lon="1.58668">
        <ele>196.07</ele>
        <time>2015-11-11T10:02:31Z</time>
      </trkpt>
      <trkpt lat="43.60779" lon="1.5865">
        <ele>196.65</ele>
        <time>2015-11-11T10:02:39Z</time>
      </trkpt>
      <trkpt lat="43.60763" lon="1.58633">
        <ele>198.18</ele>
        <time>2015-11-11T10:03:01Z</time>
      </trkpt>
      <trkpt lat="43.60744" lon="1.58616">
        <ele>200.04</ele>
        <time>2015-11-11T10:03:11Z</time>
      </trkpt>
      <trkpt lat="43.6073" lon="1.58601">
        <ele>200.76</ele>
        <time>2015-11-11T10:03:19Z</time>
      </trkpt>
      <trkpt lat="43.60714" lon="1.58584">
        <ele>201.06</ele>
        <time>2015-11-11T10:03:27Z</time>
      </trkpt>
      <trkpt lat="43.60695" lon="1.58571">
        <ele>201.48</ele>
        <time>2015-11-11T10:03:49Z</time>
      </trkpt>
      <trkpt lat="43.60678" lon="1.58551">
        <ele>202.25</ele>
        <time>2015-11-11T10:03:57Z</time>
      </trkpt>
      <trkpt lat="43.60664" lon="1.58533">
        <ele>202.28</ele>
        <time>2015-11-11T10:04:03Z</time>
      </trkpt>
      <trkpt lat="43.60649" lon="1.58515">
        <ele>202.08</ele>
        <time>2015-11-11T10:04:09Z</time>
      </trkpt>
      <trkpt lat="43.60634" lon="1.58497">
        <ele>202.03</ele>
        <time>2015-11-11T10:04:15Z</time>
      </trkpt>
      <trkpt lat="43.60618" lon="1.58478">
        <ele>201.86</ele>
        <time>2015-11-11T10:04:21Z</time>
      </trkpt>
      <trkpt lat="43.60599" lon="1.58455">
        <ele>201.19</ele>
        <time>2015-11-11T10:04:27Z</time>
      </trkpt>
      <trkpt lat="43.60582" lon="1.58434">
        <ele>200.2</ele>
        <time>2015-11-11T10:04:31Z</time>
      </trkpt>
      <trkpt lat="43.60561" lon="1.58407">
        <ele>198.87</ele>
        <time>2015-11-11T10:04:35Z</time>
      </trkpt>
      <trkpt lat="43.6054" lon="1.58386">
        <ele>198.07</ele>
        <time>2015-11-11T10:04:39Z</time>
      </trkpt>
      <trkpt lat="43.60521" lon="1.58372">
        <ele>197.69</ele>
        <time>2015-11-11T10:04:45Z</time>
      </trkpt>
      <trkpt lat="43.60506" lon="1.58355">
        <ele>197.83</ele>
        <time>2015-11-11T10:04:53Z</time>
      </trkpt>
      <trkpt lat="43.60517" lon="1.58325">
        <ele>198.25</ele>
        <time>2015-11-11T10:05:01Z</time>
      </trkpt>
      <trkpt lat="43.60529" lon="1.58303">
        <ele>198.24</ele>
        <time>2015-11-11T10:05:05Z</time>
      </trkpt>
      <trkpt lat="43.6054" lon="1.58283">
        <ele>198.23</ele>
        <time>2015-11-11T10:05:09Z</time>
      </trkpt>
      <trkpt lat="43.60556" lon="1.58254">
        <ele>197.98</ele>
        <time>2015-11-11T10:05:15Z</time>
      </trkpt>
      <trkpt lat="43.60567" lon="1.58233">
        <ele>197.87</ele>
        <time>2015-11-11T10:05:19Z</time>
      </trkpt>
      <trkpt lat="43.60581" lon="1.58209">
        <ele>198.03</ele>
        <time>2015-11-11T10:05:25Z</time>
      </trkpt>
      <trkpt lat="43.60587" lon="1.58182">
        <ele>198.18</ele>
        <time>2015-11-11T10:05:33Z</time>
      </trkpt>
      <trkpt lat="43.6057" lon="1.58157">
        <ele>198.32</ele>
        <time>2015-11-11T10:05:41Z</time>
      </trkpt>
      <trkpt lat="43.60556" lon="1.5814">
        <ele>198.66</ele>
        <time>2015-11-11T10:05:47Z</time>
      </trkpt>
      <trkpt lat="43.60542" lon="1.58124">
        <ele>198.94</ele>
        <time>2015-11-11T10:05:53Z</time>
      </trkpt>
      <trkpt lat="43.60526" lon="1.58105">
        <ele>198.98</ele>
        <time>2015-11-11T10:05:59Z</time>
      </trkpt>
      <trkpt lat="43.60508" lon="1.58084">
        <ele>199.33</ele>
        <time>2015-11-11T10:06:05Z</time>
      </trkpt>
      <trkpt lat="43.60491" lon="1.58063">
        <ele>199.63</ele>
        <time>2015-11-11T10:06:11Z</time>
      </trkpt>
      <trkpt lat="43.60474" lon="1.58044">
        <ele>199.93</ele>
        <time>2015-11-11T10:06:17Z</time>
      </trkpt>
      <trkpt lat="43.60459" lon="1.58025">
        <ele>200.16</ele>
        <time>2015-11-11T10:06:23Z</time>
      </trkpt>
      <trkpt lat="43.60443" lon="1.58012">
        <ele>200.47</ele>
        <time>2015-11-11T10:06:29Z</time>
      </trkpt>
      <trkpt lat="43.60423" lon="1.58019">
        <ele>200.43</ele>
        <time>2015-11-11T10:06:35Z</time>
      </trkpt>
      <trkpt lat="43.60413" lon="1.57988">
        <ele>199.38</ele>
        <time>2015-11-11T10:06:45Z</time>
      </trkpt>
      <trkpt lat="43.60404" lon="1.57966">
        <ele>198.39</ele>
        <time>2015-11-11T10:06:49Z</time>
      </trkpt>
      <trkpt lat="43.60394" lon="1.57942">
        <ele>197.07</ele>
        <time>2015-11-11T10:06:53Z</time>
      </trkpt>
      <trkpt lat="43.60383" lon="1.57917">
        <ele>196.04</ele>
        <time>2015-11-11T10:06:57Z</time>
      </trkpt>
      <trkpt lat="43.60362" lon="1.57911">
        <ele>195.51</ele>
        <time>2015-11-11T10:07:01Z</time>
      </trkpt>
      <trkpt lat="43.6034" lon="1.57919">
        <ele>195.5</ele>
        <time>2015-11-11T10:07:05Z</time>
      </trkpt>
      <trkpt lat="43.60321" lon="1.57919">
        <ele>195.38</ele>
        <time>2015-11-11T10:07:09Z</time>
      </trkpt>
      <trkpt lat="43.60302" lon="1.57917">
        <ele>194.89</ele>
        <time>2015-11-11T10:07:13Z</time>
      </trkpt>
      <trkpt lat="43.60276" lon="1.57921">
        <ele>193.92</ele>
        <time>2015-11-11T10:07:19Z</time>
      </trkpt>
      <trkpt lat="43.60254" lon="1.57925">
        <ele>192.92</ele>
        <time>2015-11-11T10:07:25Z</time>
      </trkpt>
      <trkpt lat="43.60228" lon="1.57923">
        <ele>191.58</ele>
        <time>2015-11-11T10:07:31Z</time>
      </trkpt>
      <trkpt lat="43.60203" lon="1.57925">
        <ele>189.92</ele>
        <time>2015-11-11T10:07:35Z</time>
      </trkpt>
      <trkpt lat="43.60179" lon="1.57933">
        <ele>187.83</ele>
        <time>2015-11-11T10:07:39Z</time>
      </trkpt>
      <trkpt lat="43.60158" lon="1.57947">
        <ele>185.98</ele>
        <time>2015-11-11T10:07:43Z</time>
      </trkpt>
      <trkpt lat="43.6014" lon="1.57961">
        <ele>184.47</ele>
        <time>2015-11-11T10:07:47Z</time>
      </trkpt>
      <trkpt lat="43.60117" lon="1.57979">
        <ele>182.73</ele>
        <time>2015-11-11T10:07:53Z</time>
      </trkpt>
      <trkpt lat="43.60101" lon="1.57993">
        <ele>181.51</ele>
        <time>2015-11-11T10:07:57Z</time>
      </trkpt>
      <trkpt lat="43.60083" lon="1.58008">
        <ele>180.2</ele>
        <time>2015-11-11T10:08:01Z</time>
      </trkpt>
      <trkpt lat="43.60064" lon="1.58023">
        <ele>178.48</ele>
        <time>2015-11-11T10:08:05Z</time>
      </trkpt>
      <trkpt lat="43.60048" lon="1.58046">
        <ele>177.07</ele>
        <time>2015-11-11T10:08:09Z</time>
      </trkpt>
      <trkpt lat="43.60046" lon="1.58072">
        <ele>176.2</ele>
        <time>2015-11-11T10:08:15Z</time>
      </trkpt>
      <trkpt lat="43.60046" lon="1.581">
        <ele>176.22</ele>
        <time>2015-11-11T10:08:23Z</time>
      </trkpt>
      <trkpt lat="43.60044" lon="1.58125">
        <ele>176.14</ele>
        <time>2015-11-11T10:08:29Z</time>
      </trkpt>
      <trkpt lat="43.60037" lon="1.58153">
        <ele>175.96</ele>
        <time>2015-11-11T10:08:35Z</time>
      </trkpt>
      <trkpt lat="43.60033" lon="1.5818">
        <ele>175.81</ele>
        <time>2015-11-11T10:08:41Z</time>
      </trkpt>
      <trkpt lat="43.60027" lon="1.58206">
        <ele>175.92</ele>
        <time>2015-11-11T10:08:47Z</time>
      </trkpt>
      <trkpt lat="43.60022" lon="1.58235">
        <ele>176.07</ele>
        <time>2015-11-11T10:08:53Z</time>
      </trkpt>
      <trkpt lat="43.60016" lon="1.58263">
        <ele>176.29</ele>
        <time>2015-11-11T10:08:59Z</time>
      </trkpt>
      <trkpt lat="43.60012" lon="1.58291">
        <ele>176.11</ele>
        <time>2015-11-11T10:09:05Z</time>
      </trkpt>
      <trkpt lat="43.60007" lon="1.58317">
        <ele>175.87</ele>
        <time>2015-11-11T10:09:11Z</time>
      </trkpt>
      <trkpt lat="43.6" lon="1.58345">
        <ele>175.42</ele>
        <time>2015-11-11T10:09:17Z</time>
      </trkpt>
      <trkpt lat="43.59997" lon="1.58375">
        <ele>176.12</ele>
        <time>2015-11-11T10:09:25Z</time>
      </trkpt>
      <trkpt lat="43.59992" lon="1.58399">
        <ele>176.33</ele>
        <time>2015-11-11T10:09:31Z</time>
      </trkpt>
      <trkpt lat="43.59987" lon="1.58424">
        <ele>176.37</ele>
        <time>2015-11-11T10:09:37Z</time>
      </trkpt>
      <trkpt lat="43.59964" lon="1.58432">
        <ele>176.11</ele>
        <time>2015-11-11T10:09:43Z</time>
      </trkpt>
      <trkpt lat="43.59939" lon="1.5843">
        <ele>175.3</ele>
        <time>2015-11-11T10:09:47Z</time>
      </trkpt>
      <trkpt lat="43.59912" lon="1.58425">
        <ele>174.4</ele>
        <time>2015-11-11T10:09:51Z</time>
      </trkpt>
      <trkpt lat="43.59888" lon="1.58418">
        <ele>173.45</ele>
        <time>2015-11-11T10:09:55Z</time>
      </trkpt>
      <trkpt lat="43.59867" lon="1.58416">
        <ele>173.11</ele>
        <time>2015-11-11T10:09:59Z</time>
      </trkpt>
      <trkpt lat="43.59843" lon="1.58415">
        <ele>172.47</ele>
        <time>2015-11-11T10:10:05Z</time>
      </trkpt>
      <trkpt lat="43.5982" lon="1.58411">
        <ele>171.7</ele>
        <time>2015-11-11T10:10:11Z</time>
      </trkpt>
      <trkpt lat="43.59799" lon="1.58406">
        <ele>171.32</ele>
        <time>2015-11-11T10:10:17Z</time>
      </trkpt>
      <trkpt lat="43.59779" lon="1.58401">
        <ele>171.13</ele>
        <time>2015-11-11T10:10:23Z</time>
      </trkpt>
      <trkpt lat="43.59757" lon="1.58395">
        <ele>171.06</ele>
        <time>2015-11-11T10:10:31Z</time>
      </trkpt>
      <trkpt lat="43.59749" lon="1.58367">
        <ele>170.97</ele>
        <time>2015-11-11T10:10:41Z</time>
      </trkpt>
      <trkpt lat="43.59753" lon="1.58339">
        <ele>171.1</ele>
        <time>2015-11-11T10:10:47Z</time>
      </trkpt>
      <trkpt lat="43.59757" lon="1.58307">
        <ele>170.79</ele>
        <time>2015-11-11T10:10:53Z</time>
      </trkpt>
      <trkpt lat="43.5976" lon="1.58274">
        <ele>170.24</ele>
        <time>2015-11-11T10:10:59Z</time>
      </trkpt>
      <trkpt lat="43.59765" lon="1.58242">
        <ele>170.32</ele>
        <time>2015-11-11T10:11:05Z</time>
      </trkpt>
      <trkpt lat="43.59769" lon="1.58207">
        <ele>170.24</ele>
        <time>2015-11-11T10:11:11Z</time>
      </trkpt>
      <trkpt lat="43.59775" lon="1.58172">
        <ele>169.9</ele>
        <time>2015-11-11T10:11:17Z</time>
      </trkpt>
      <trkpt lat="43.5978" lon="1.58136">
        <ele>169.78</ele>
        <time>2015-11-11T10:11:23Z</time>
      </trkpt>
      <trkpt lat="43.59783" lon="1.58102">
        <ele>169.71</ele>
        <time>2015-11-11T10:11:29Z</time>
      </trkpt>
      <trkpt lat="43.59783" lon="1.5807">
        <ele>169.33</ele>
        <time>2015-11-11T10:11:35Z</time>
      </trkpt>
      <trkpt lat="43.59766" lon="1.58052">
        <ele>169.8</ele>
        <time>2015-11-11T10:11:41Z</time>
      </trkpt>
      <trkpt lat="43.59746" lon="1.58042">
        <ele>170.43</ele>
        <time>2015-11-11T10:11:47Z</time>
      </trkpt>
      <trkpt lat="43.59726" lon="1.58033">
        <ele>171.19</ele>
        <time>2015-11-11T10:11:53Z</time>
      </trkpt>
      <trkpt lat="43.59708" lon="1.58024">
        <ele>171.68</ele>
        <time>2015-11-11T10:11:59Z</time>
      </trkpt>
      <trkpt lat="43.5969" lon="1.58016">
        <ele>172.51</ele>
        <time>2015-11-11T10:12:05Z</time>
      </trkpt>
      <trkpt lat="43.59672" lon="1.58008">
        <ele>173.22</ele>
        <time>2015-11-11T10:12:11Z</time>
      </trkpt>
      <trkpt lat="43.59655" lon="1.58">
        <ele>173.91</ele>
        <time>2015-11-11T10:12:17Z</time>
      </trkpt>
      <trkpt lat="43.59632" lon="1.57989">
        <ele>174.81</ele>
        <time>2015-11-11T10:12:25Z</time>
      </trkpt>
      <trkpt lat="43.5961" lon="1.57979">
        <ele>175.69</ele>
        <time>2015-11-11T10:12:33Z</time>
      </trkpt>
      <trkpt lat="43.59592" lon="1.5797">
        <ele>176.59</ele>
        <time>2015-11-11T10:12:39Z</time>
      </trkpt>
      <trkpt lat="43.59571" lon="1.5796">
        <ele>177.96</ele>
        <time>2015-11-11T10:12:47Z</time>
      </trkpt>
      <trkpt lat="43.59551" lon="1.5795">
        <ele>179</ele>
        <time>2015-11-11T10:12:55Z</time>
      </trkpt>
      <trkpt lat="43.59532" lon="1.5794">
        <ele>180.26</ele>
        <time>2015-11-11T10:13:03Z</time>
      </trkpt>
      <trkpt lat="43.59513" lon="1.57931">
        <ele>181.4</ele>
        <time>2015-11-11T10:13:11Z</time>
      </trkpt>
      <trkpt lat="43.59494" lon="1.57922">
        <ele>182.71</ele>
        <time>2015-11-11T10:13:19Z</time>
      </trkpt>
      <trkpt lat="43.59475" lon="1.57912">
        <ele>184.45</ele>
        <time>2015-11-11T10:13:27Z</time>
      </trkpt>
      <trkpt lat="43.59455" lon="1.579">
        <ele>185.6</ele>
        <time>2015-11-11T10:13:37Z</time>
      </trkpt>
      <trkpt lat="43.59439" lon="1.57887">
        <ele>186.82</ele>
        <time>2015-11-11T10:13:45Z</time>
      </trkpt>
      <trkpt lat="43.59422" lon="1.57871">
        <ele>188.66</ele>
        <time>2015-11-11T10:13:55Z</time>
      </trkpt>
      <trkpt lat="43.59405" lon="1.57857">
        <ele>190.27</ele>
        <time>2015-11-11T10:14:05Z</time>
      </trkpt>
      <trkpt lat="43.59387" lon="1.57843">
        <ele>192.19</ele>
        <time>2015-11-11T10:14:17Z</time>
      </trkpt>
      <trkpt lat="43.59371" lon="1.5783">
        <ele>194.1</ele>
        <time>2015-11-11T10:14:29Z</time>
      </trkpt>
      <trkpt lat="43.59346" lon="1.57813">
        <ele>196.53</ele>
        <time>2015-11-11T10:14:49Z</time>
      </trkpt>
      <trkpt lat="43.59322" lon="1.57791">
        <ele>200.08</ele>
        <time>2015-11-11T10:15:11Z</time>
      </trkpt>
      <trkpt lat="43.59297" lon="1.57774">
        <ele>202.93</ele>
        <time>2015-11-11T10:15:31Z</time>
      </trkpt>
      <trkpt lat="43.59273" lon="1.57755">
        <ele>206.58</ele>
        <time>2015-11-11T10:15:51Z</time>
      </trkpt>
      <trkpt lat="43.59257" lon="1.57743">
        <ele>209.82</ele>
        <time>2015-11-11T10:16:03Z</time>
      </trkpt>
      <trkpt lat="43.5924" lon="1.57728">
        <ele>211.73</ele>
        <time>2015-11-11T10:16:15Z</time>
      </trkpt>
      <trkpt lat="43.59222" lon="1.57714">
        <ele>213.4</ele>
        <time>2015-11-11T10:16:25Z</time>
      </trkpt>
      <trkpt lat="43.59206" lon="1.57701">
        <ele>215.12</ele>
        <time>2015-11-11T10:16:33Z</time>
      </trkpt>
      <trkpt lat="43.59186" lon="1.57685">
        <ele>216.63</ele>
        <time>2015-11-11T10:16:41Z</time>
      </trkpt>
      <trkpt lat="43.59171" lon="1.57669">
        <ele>217.58</ele>
        <time>2015-11-11T10:16:49Z</time>
      </trkpt>
      <trkpt lat="43.59177" lon="1.57642">
        <ele>219.41</ele>
        <time>2015-11-11T10:23:25Z</time>
      </trkpt>
      <trkpt lat="43.59188" lon="1.5762">
        <ele>219.52</ele>
        <time>2015-11-11T10:23:31Z</time>
      </trkpt>
      <trkpt lat="43.59201" lon="1.57595">
        <ele>219.56</ele>
        <time>2015-11-11T10:23:37Z</time>
      </trkpt>
      <trkpt lat="43.59221" lon="1.57569">
        <ele>219.66</ele>
        <time>2015-11-11T10:23:43Z</time>
      </trkpt>
      <trkpt lat="43.59238" lon="1.57554">
        <ele>219.54</ele>
        <time>2015-11-11T10:23:47Z</time>
      </trkpt>
      <trkpt lat="43.59252" lon="1.57525">
        <ele>219.53</ele>
        <time>2015-11-11T10:23:53Z</time>
      </trkpt>
      <trkpt lat="43.59254" lon="1.57491">
        <ele>219.87</ele>
        <time>2015-11-11T10:23:59Z</time>
      </trkpt>
      <trkpt lat="43.59256" lon="1.57465">
        <ele>220.36</ele>
        <time>2015-11-11T10:24:05Z</time>
      </trkpt>
      <trkpt lat="43.59261" lon="1.57437">
        <ele>220.32</ele>
        <time>2015-11-11T10:24:15Z</time>
      </trkpt>
      <trkpt lat="43.59271" lon="1.57415">
        <ele>220.33</ele>
        <time>2015-11-11T10:24:21Z</time>
      </trkpt>
      <trkpt lat="43.59268" lon="1.57388">
        <ele>220.81</ele>
        <time>2015-11-11T10:24:33Z</time>
      </trkpt>
      <trkpt lat="43.59244" lon="1.5739">
        <ele>220.48</ele>
        <time>2015-11-11T10:25:05Z</time>
      </trkpt>
      <trkpt lat="43.59236" lon="1.57413">
        <ele>219.9</ele>
        <time>2015-11-11T10:25:13Z</time>
      </trkpt>
      <trkpt lat="43.59219" lon="1.57426">
        <ele>217.78</ele>
        <time>2015-11-11T10:25:21Z</time>
      </trkpt>
      <trkpt lat="43.59205" lon="1.57408">
        <ele>216.42</ele>
        <time>2015-11-11T10:25:33Z</time>
      </trkpt>
      <trkpt lat="43.59183" lon="1.57398">
        <ele>215.59</ele>
        <time>2015-11-11T10:25:43Z</time>
      </trkpt>
      <trkpt lat="43.59167" lon="1.57386">
        <ele>214.45</ele>
        <time>2015-11-11T10:25:47Z</time>
      </trkpt>
      <trkpt lat="43.59159" lon="1.57363">
        <ele>213.05</ele>
        <time>2015-11-11T10:25:53Z</time>
      </trkpt>
      <trkpt lat="43.59165" lon="1.57334">
        <ele>211.61</ele>
        <time>2015-11-11T10:25:59Z</time>
      </trkpt>
      <trkpt lat="43.59173" lon="1.57307">
        <ele>210.43</ele>
        <time>2015-11-11T10:26:05Z</time>
      </trkpt>
      <trkpt lat="43.59182" lon="1.57278">
        <ele>208.83</ele>
        <time>2015-11-11T10:26:11Z</time>
      </trkpt>
      <trkpt lat="43.59186" lon="1.57251">
        <ele>207.76</ele>
        <time>2015-11-11T10:26:17Z</time>
      </trkpt>
      <trkpt lat="43.59194" lon="1.57215">
        <ele>206.89</ele>
        <time>2015-11-11T10:26:23Z</time>
      </trkpt>
      <trkpt lat="43.59201" lon="1.57192">
        <ele>206.17</ele>
        <time>2015-11-11T10:26:27Z</time>
      </trkpt>
      <trkpt lat="43.59211" lon="1.5717">
        <ele>205.19</ele>
        <time>2015-11-11T10:26:35Z</time>
      </trkpt>
      <trkpt lat="43.59209" lon="1.57145">
        <ele>204.2</ele>
        <time>2015-11-11T10:26:53Z</time>
      </trkpt>
      <trkpt lat="43.59213" lon="1.5711">
        <ele>204.06</ele>
        <time>2015-11-11T10:27:01Z</time>
      </trkpt>
      <trkpt lat="43.59222" lon="1.57077">
        <ele>203.91</ele>
        <time>2015-11-11T10:27:07Z</time>
      </trkpt>
      <trkpt lat="43.59229" lon="1.57052">
        <ele>204.11</ele>
        <time>2015-11-11T10:27:15Z</time>
      </trkpt>
      <trkpt lat="43.59234" lon="1.57023">
        <ele>203.93</ele>
        <time>2015-11-11T10:27:19Z</time>
      </trkpt>
      <trkpt lat="43.5923" lon="1.56998">
        <ele>203.17</ele>
        <time>2015-11-11T10:27:27Z</time>
      </trkpt>
      <trkpt lat="43.59217" lon="1.56979">
        <ele>202.83</ele>
        <time>2015-11-11T10:27:39Z</time>
      </trkpt>
      <trkpt lat="43.592" lon="1.56965">
        <ele>203.46</ele>
        <time>2015-11-11T10:27:49Z</time>
      </trkpt>
      <trkpt lat="43.59178" lon="1.56954">
        <ele>205.12</ele>
        <time>2015-11-11T10:28:05Z</time>
      </trkpt>
      <trkpt lat="43.59154" lon="1.56944">
        <ele>207.73</ele>
        <time>2015-11-11T10:28:25Z</time>
      </trkpt>
      <trkpt lat="43.59158" lon="1.56917">
        <ele>211.32</ele>
        <time>2015-11-11T10:28:37Z</time>
      </trkpt>
      <trkpt lat="43.59169" lon="1.56897">
        <ele>212.98</ele>
        <time>2015-11-11T10:28:43Z</time>
      </trkpt>
      <trkpt lat="43.59185" lon="1.56881">
        <ele>212.95</ele>
        <time>2015-11-11T10:28:49Z</time>
      </trkpt>
      <trkpt lat="43.59184" lon="1.56854">
        <ele>213.12</ele>
        <time>2015-11-11T10:28:59Z</time>
      </trkpt>
      <trkpt lat="43.59173" lon="1.5683">
        <ele>212.98</ele>
        <time>2015-11-11T10:29:11Z</time>
      </trkpt>
      <trkpt lat="43.59175" lon="1.56789">
        <ele>210.93</ele>
        <time>2015-11-11T10:29:47Z</time>
      </trkpt>
      <trkpt lat="43.59197" lon="1.56783">
        <ele>207.14</ele>
        <time>2015-11-11T10:29:57Z</time>
      </trkpt>
      <trkpt lat="43.59191" lon="1.56757">
        <ele>203.11</ele>
        <time>2015-11-11T10:30:33Z</time>
      </trkpt>
      <trkpt lat="43.59175" lon="1.56738">
        <ele>202.28</ele>
        <time>2015-11-11T10:30:43Z</time>
      </trkpt>
      <trkpt lat="43.59178" lon="1.56711">
        <ele>199.16</ele>
        <time>2015-11-11T10:31:51Z</time>
      </trkpt>
      <trkpt lat="43.59194" lon="1.56699">
        <ele>198.72</ele>
        <time>2015-11-11T10:31:59Z</time>
      </trkpt>
      <trkpt lat="43.59193" lon="1.56674">
        <ele>198.25</ele>
        <time>2015-11-11T10:32:11Z</time>
      </trkpt>
      <trkpt lat="43.59213" lon="1.56667">
        <ele>197.77</ele>
        <time>2015-11-11T10:32:25Z</time>
      </trkpt>
      <trkpt lat="43.59224" lon="1.56647">
        <ele>198.48</ele>
        <time>2015-11-11T10:32:53Z</time>
      </trkpt>
      <trkpt lat="43.59243" lon="1.56651">
        <ele>199.56</ele>
        <time>2015-11-11T10:34:29Z</time>
      </trkpt>
      <trkpt lat="43.59261" lon="1.5665">
        <ele>199.52</ele>
        <time>2015-11-11T10:34:33Z</time>
      </trkpt>
      <trkpt lat="43.59283" lon="1.56645">
        <ele>199.1</ele>
        <time>2015-11-11T10:34:37Z</time>
      </trkpt>
      <trkpt lat="43.59305" lon="1.56638">
        <ele>198.58</ele>
        <time>2015-11-11T10:34:41Z</time>
      </trkpt>
      <trkpt lat="43.59326" lon="1.5663">
        <ele>198.17</ele>
        <time>2015-11-11T10:34:45Z</time>
      </trkpt>
      <trkpt lat="43.5935" lon="1.56629">
        <ele>197.35</ele>
        <time>2015-11-11T10:34:55Z</time>
      </trkpt>
      <trkpt lat="43.59375" lon="1.56625">
        <ele>196.85</ele>
        <time>2015-11-11T10:35:01Z</time>
      </trkpt>
      <trkpt lat="43.59399" lon="1.56613">
        <ele>196.38</ele>
        <time>2015-11-11T10:35:07Z</time>
      </trkpt>
      <trkpt lat="43.59419" lon="1.56592">
        <ele>196.05</ele>
        <time>2015-11-11T10:35:13Z</time>
      </trkpt>
      <trkpt lat="43.59435" lon="1.56582">
        <ele>195.86</ele>
        <time>2015-11-11T10:35:17Z</time>
      </trkpt>
      <trkpt lat="43.59452" lon="1.56573">
        <ele>195.52</ele>
        <time>2015-11-11T10:35:21Z</time>
      </trkpt>
      <trkpt lat="43.59469" lon="1.5656">
        <ele>195.05</ele>
        <time>2015-11-11T10:35:25Z</time>
      </trkpt>
      <trkpt lat="43.59487" lon="1.56538">
        <ele>194.49</ele>
        <time>2015-11-11T10:35:31Z</time>
      </trkpt>
      <trkpt lat="43.59502" lon="1.5651">
        <ele>194.04</ele>
        <time>2015-11-11T10:35:37Z</time>
      </trkpt>
      <trkpt lat="43.5952" lon="1.56486">
        <ele>193.56</ele>
        <time>2015-11-11T10:35:43Z</time>
      </trkpt>
      <trkpt lat="43.5954" lon="1.56464">
        <ele>193.04</ele>
        <time>2015-11-11T10:35:49Z</time>
      </trkpt>
      <trkpt lat="43.5956" lon="1.56441">
        <ele>192.41</ele>
        <time>2015-11-11T10:35:55Z</time>
      </trkpt>
      <trkpt lat="43.5958" lon="1.5642">
        <ele>192.09</ele>
        <time>2015-11-11T10:36:01Z</time>
      </trkpt>
      <trkpt lat="43.59597" lon="1.56403">
        <ele>191.37</ele>
        <time>2015-11-11T10:36:09Z</time>
      </trkpt>
      <trkpt lat="43.59619" lon="1.56412">
        <ele>190.02</ele>
        <time>2015-11-11T10:36:17Z</time>
      </trkpt>
      <trkpt lat="43.5963" lon="1.56433">
        <ele>189.43</ele>
        <time>2015-11-11T10:36:21Z</time>
      </trkpt>
      <trkpt lat="43.5964" lon="1.56453">
        <ele>189.08</ele>
        <time>2015-11-11T10:36:25Z</time>
      </trkpt>
      <trkpt lat="43.59657" lon="1.56482">
        <ele>189.2</ele>
        <time>2015-11-11T10:36:31Z</time>
      </trkpt>
      <trkpt lat="43.59672" lon="1.56508">
        <ele>188.83</ele>
        <time>2015-11-11T10:36:37Z</time>
      </trkpt>
      <trkpt lat="43.59687" lon="1.56532">
        <ele>188.81</ele>
        <time>2015-11-11T10:36:43Z</time>
      </trkpt>
      <trkpt lat="43.59699" lon="1.56555">
        <ele>188.67</ele>
        <time>2015-11-11T10:36:49Z</time>
      </trkpt>
      <trkpt lat="43.59692" lon="1.56579">
        <ele>188.99</ele>
        <time>2015-11-11T10:36:55Z</time>
      </trkpt>
      <trkpt lat="43.59678" lon="1.56601">
        <ele>189.48</ele>
        <time>2015-11-11T10:37:03Z</time>
      </trkpt>
      <trkpt lat="43.59665" lon="1.56627">
        <ele>190.4</ele>
        <time>2015-11-11T10:37:11Z</time>
      </trkpt>
      <trkpt lat="43.59653" lon="1.5665">
        <ele>191.69</ele>
        <time>2015-11-11T10:37:19Z</time>
      </trkpt>
      <trkpt lat="43.5964" lon="1.56673">
        <ele>193.45</ele>
        <time>2015-11-11T10:37:27Z</time>
      </trkpt>
      <trkpt lat="43.59629" lon="1.56694">
        <ele>194.9</ele>
        <time>2015-11-11T10:37:35Z</time>
      </trkpt>
      <trkpt lat="43.59618" lon="1.56716">
        <ele>196.79</ele>
        <time>2015-11-11T10:37:43Z</time>
      </trkpt>
      <trkpt lat="43.59606" lon="1.56738">
        <ele>199.02</ele>
        <time>2015-11-11T10:37:51Z</time>
      </trkpt>
      <trkpt lat="43.59597" lon="1.56765">
        <ele>200.65</ele>
        <time>2015-11-11T10:37:59Z</time>
      </trkpt>
      <trkpt lat="43.59588" lon="1.5679">
        <ele>202.17</ele>
        <time>2015-11-11T10:38:07Z</time>
      </trkpt>
      <trkpt lat="43.59581" lon="1.56814">
        <ele>203.67</ele>
        <time>2015-11-11T10:38:17Z</time>
      </trkpt>
      <trkpt lat="43.59599" lon="1.56807">
        <ele>205.04</ele>
        <time>2015-11-11T10:38:31Z</time>
      </trkpt>
      <trkpt lat="43.5961" lon="1.56784">
        <ele>204.87</ele>
        <time>2015-11-11T10:38:41Z</time>
      </trkpt>
      <trkpt lat="43.59625" lon="1.56767">
        <ele>205.33</ele>
        <time>2015-11-11T10:38:57Z</time>
      </trkpt>
      <trkpt lat="43.59641" lon="1.56751">
        <ele>206.02</ele>
        <time>2015-11-11T10:39:03Z</time>
      </trkpt>
      <trkpt lat="43.59661" lon="1.56724">
        <ele>206.26</ele>
        <time>2015-11-11T10:39:09Z</time>
      </trkpt>
      <trkpt lat="43.59674" lon="1.56702">
        <ele>206.29</ele>
        <time>2015-11-11T10:39:13Z</time>
      </trkpt>
      <trkpt lat="43.59688" lon="1.56679">
        <ele>206.4</ele>
        <time>2015-11-11T10:39:17Z</time>
      </trkpt>
      <trkpt lat="43.59704" lon="1.56658">
        <ele>206.33</ele>
        <time>2015-11-11T10:39:23Z</time>
      </trkpt>
      <trkpt lat="43.59721" lon="1.56666">
        <ele>204.65</ele>
        <time>2015-11-11T10:39:33Z</time>
      </trkpt>
      <trkpt lat="43.59738" lon="1.56683">
        <ele>201.81</ele>
        <time>2015-11-11T10:41:17Z</time>
      </trkpt>
      <trkpt lat="43.59756" lon="1.56697">
        <ele>199.93</ele>
        <time>2015-11-11T10:41:21Z</time>
      </trkpt>
      <trkpt lat="43.59777" lon="1.56712">
        <ele>197.63</ele>
        <time>2015-11-11T10:41:25Z</time>
      </trkpt>
      <trkpt lat="43.59798" lon="1.56728">
        <ele>195.06</ele>
        <time>2015-11-11T10:41:29Z</time>
      </trkpt>
      <trkpt lat="43.59824" lon="1.56744">
        <ele>192.04</ele>
        <time>2015-11-11T10:41:33Z</time>
      </trkpt>
      <trkpt lat="43.59849" lon="1.56764">
        <ele>188.71</ele>
        <time>2015-11-11T10:41:37Z</time>
      </trkpt>
      <trkpt lat="43.59874" lon="1.56783">
        <ele>185.88</ele>
        <time>2015-11-11T10:41:41Z</time>
      </trkpt>
      <trkpt lat="43.59901" lon="1.56802">
        <ele>183.64</ele>
        <time>2015-11-11T10:41:45Z</time>
      </trkpt>
      <trkpt lat="43.5993" lon="1.56823">
        <ele>181.39</ele>
        <time>2015-11-11T10:41:49Z</time>
      </trkpt>
      <trkpt lat="43.59958" lon="1.56844">
        <ele>179.35</ele>
        <time>2015-11-11T10:41:53Z</time>
      </trkpt>
      <trkpt lat="43.59985" lon="1.56864">
        <ele>177.64</ele>
        <time>2015-11-11T10:41:57Z</time>
      </trkpt>
      <trkpt lat="43.60012" lon="1.56886">
        <ele>176.06</ele>
        <time>2015-11-11T10:42:01Z</time>
      </trkpt>
      <trkpt lat="43.60039" lon="1.56906">
        <ele>174.39</ele>
        <time>2015-11-11T10:42:05Z</time>
      </trkpt>
      <trkpt lat="43.60065" lon="1.56926">
        <ele>173.25</ele>
        <time>2015-11-11T10:42:09Z</time>
      </trkpt>
      <trkpt lat="43.6009" lon="1.56945">
        <ele>172.16</ele>
        <time>2015-11-11T10:42:13Z</time>
      </trkpt>
      <trkpt lat="43.60113" lon="1.56962">
        <ele>171.19</ele>
        <time>2015-11-11T10:42:17Z</time>
      </trkpt>
      <trkpt lat="43.60135" lon="1.56974">
        <ele>170.47</ele>
        <time>2015-11-11T10:42:21Z</time>
      </trkpt>
      <trkpt lat="43.60154" lon="1.56986">
        <ele>169.87</ele>
        <time>2015-11-11T10:42:25Z</time>
      </trkpt>
      <trkpt lat="43.60177" lon="1.57001">
        <ele>169.47</ele>
        <time>2015-11-11T10:42:31Z</time>
      </trkpt>
      <trkpt lat="43.60199" lon="1.57014">
        <ele>169.04</ele>
        <time>2015-11-11T10:42:37Z</time>
      </trkpt>
      <trkpt lat="43.60221" lon="1.57026">
        <ele>168.77</ele>
        <time>2015-11-11T10:42:43Z</time>
      </trkpt>
      <trkpt lat="43.60242" lon="1.57041">
        <ele>168.53</ele>
        <time>2015-11-11T10:42:49Z</time>
      </trkpt>
      <trkpt lat="43.60258" lon="1.57053">
        <ele>168.19</ele>
        <time>2015-11-11T10:42:55Z</time>
      </trkpt>
      <trkpt lat="43.60277" lon="1.57064">
        <ele>167.46</ele>
        <time>2015-11-11T10:43:05Z</time>
      </trkpt>
      <trkpt lat="43.60297" lon="1.57075">
        <ele>166.9</ele>
        <time>2015-11-11T10:43:17Z</time>
      </trkpt>
      <trkpt lat="43.60315" lon="1.57087">
        <ele>166.98</ele>
        <time>2015-11-11T10:43:29Z</time>
      </trkpt>
      <trkpt lat="43.60353" lon="1.57113">
        <ele>168.93</ele>
        <time>2015-11-11T10:44:01Z</time>
      </trkpt>
      <trkpt lat="43.60376" lon="1.57127">
        <ele>171.78</ele>
        <time>2015-11-11T10:44:23Z</time>
      </trkpt>
      <trkpt lat="43.60398" lon="1.57143">
        <ele>175.38</ele>
        <time>2015-11-11T10:44:43Z</time>
      </trkpt>
      <trkpt lat="43.60417" lon="1.57155">
        <ele>179.25</ele>
        <time>2015-11-11T10:44:57Z</time>
      </trkpt>
      <trkpt lat="43.60436" lon="1.57167">
        <ele>181.19</ele>
        <time>2015-11-11T10:45:09Z</time>
      </trkpt>
      <trkpt lat="43.60454" lon="1.57178">
        <ele>182.92</ele>
        <time>2015-11-11T10:45:21Z</time>
      </trkpt>
      <trkpt lat="43.60471" lon="1.5719">
        <ele>184.31</ele>
        <time>2015-11-11T10:45:31Z</time>
      </trkpt>
      <trkpt lat="43.60485" lon="1.57211">
        <ele>185.98</ele>
        <time>2015-11-11T10:46:21Z</time>
      </trkpt>
      <trkpt lat="43.60474" lon="1.57241">
        <ele>187.05</ele>
        <time>2015-11-11T10:46:29Z</time>
      </trkpt>
      <trkpt lat="43.60466" lon="1.57269">
        <ele>187.63</ele>
        <time>2015-11-11T10:46:35Z</time>
      </trkpt>
      <trkpt lat="43.60457" lon="1.57295">
        <ele>188.06</ele>
        <time>2015-11-11T10:46:41Z</time>
      </trkpt>
      <trkpt lat="43.60454" lon="1.57325">
        <ele>188.34</ele>
        <time>2015-11-11T10:46:47Z</time>
      </trkpt>
      <trkpt lat="43.60455" lon="1.57351">
        <ele>188.16</ele>
        <time>2015-11-11T10:46:51Z</time>
      </trkpt>
      <trkpt lat="43.60458" lon="1.57388">
        <ele>187.5</ele>
        <time>2015-11-11T10:46:57Z</time>
      </trkpt>
      <trkpt lat="43.60461" lon="1.57415">
        <ele>186.97</ele>
        <time>2015-11-11T10:47:01Z</time>
      </trkpt>
      <trkpt lat="43.60465" lon="1.57446">
        <ele>186.37</ele>
        <time>2015-11-11T10:47:05Z</time>
      </trkpt>
      <trkpt lat="43.6047" lon="1.57477">
        <ele>185.57</ele>
        <time>2015-11-11T10:47:09Z</time>
      </trkpt>
      <trkpt lat="43.60479" lon="1.57514">
        <ele>183.89</ele>
        <time>2015-11-11T10:47:13Z</time>
      </trkpt>
      <trkpt lat="43.60499" lon="1.57557">
        <ele>181.5</ele>
        <time>2015-11-11T10:47:17Z</time>
      </trkpt>
      <trkpt lat="43.60516" lon="1.57598">
        <ele>179.55</ele>
        <time>2015-11-11T10:47:21Z</time>
      </trkpt>
      <trkpt lat="43.60538" lon="1.57631">
        <ele>178.39</ele>
        <time>2015-11-11T10:47:25Z</time>
      </trkpt>
      <trkpt lat="43.60556" lon="1.57656">
        <ele>177.35</ele>
        <time>2015-11-11T10:47:29Z</time>
      </trkpt>
      <trkpt lat="43.60571" lon="1.57681">
        <ele>176.48</ele>
        <time>2015-11-11T10:47:35Z</time>
      </trkpt>
      <trkpt lat="43.60586" lon="1.57697">
        <ele>175.4</ele>
        <time>2015-11-11T10:47:43Z</time>
      </trkpt>
      <trkpt lat="43.60607" lon="1.57696">
        <ele>174.87</ele>
        <time>2015-11-11T10:47:51Z</time>
      </trkpt>
      <trkpt lat="43.60625" lon="1.57697">
        <ele>174.96</ele>
        <time>2015-11-11T10:47:57Z</time>
      </trkpt>
      <trkpt lat="43.60648" lon="1.577">
        <ele>175.98</ele>
        <time>2015-11-11T10:48:05Z</time>
      </trkpt>
      <trkpt lat="43.60665" lon="1.57709">
        <ele>176.69</ele>
        <time>2015-11-11T10:48:11Z</time>
      </trkpt>
      <trkpt lat="43.60687" lon="1.57719">
        <ele>177.24</ele>
        <time>2015-11-11T10:48:17Z</time>
      </trkpt>
      <trkpt lat="43.60704" lon="1.57729">
        <ele>177.92</ele>
        <time>2015-11-11T10:48:23Z</time>
      </trkpt>
      <trkpt lat="43.60729" lon="1.57728">
        <ele>177.76</ele>
        <time>2015-11-11T10:48:29Z</time>
      </trkpt>
      <trkpt lat="43.60748" lon="1.57724">
        <ele>177.04</ele>
        <time>2015-11-11T10:48:33Z</time>
      </trkpt>
      <trkpt lat="43.60771" lon="1.57721">
        <ele>176.25</ele>
        <time>2015-11-11T10:48:39Z</time>
      </trkpt>
      <trkpt lat="43.60787" lon="1.57701">
        <ele>175.39</ele>
        <time>2015-11-11T10:48:55Z</time>
      </trkpt>
      <trkpt lat="43.60803" lon="1.57677">
        <ele>175.54</ele>
        <time>2015-11-11T10:49:05Z</time>
      </trkpt>
      <trkpt lat="43.60817" lon="1.57657">
        <ele>175.51</ele>
        <time>2015-11-11T10:49:11Z</time>
      </trkpt>
      <trkpt lat="43.60835" lon="1.57635">
        <ele>175.23</ele>
        <time>2015-11-11T10:49:17Z</time>
      </trkpt>
      <trkpt lat="43.60848" lon="1.57612">
        <ele>174.86</ele>
        <time>2015-11-11T10:49:23Z</time>
      </trkpt>
      <trkpt lat="43.60861" lon="1.57592">
        <ele>174.67</ele>
        <time>2015-11-11T10:49:33Z</time>
      </trkpt>
      <trkpt lat="43.60876" lon="1.57577">
        <ele>174.46</ele>
        <time>2015-11-11T10:49:39Z</time>
      </trkpt>
      <trkpt lat="43.60892" lon="1.57564">
        <ele>174</ele>
        <time>2015-11-11T10:49:45Z</time>
      </trkpt>
      <trkpt lat="43.6091" lon="1.57553">
        <ele>174.14</ele>
        <time>2015-11-11T10:49:53Z</time>
      </trkpt>
      <trkpt lat="43.60919" lon="1.57528">
        <ele>175.92</ele>
        <time>2015-11-11T10:50:05Z</time>
      </trkpt>
      <trkpt lat="43.60925" lon="1.57501">
        <ele>179.66</ele>
        <time>2015-11-11T10:50:19Z</time>
      </trkpt>
      <trkpt lat="43.60933" lon="1.57454">
        <ele>182.88</ele>
        <time>2015-11-11T10:50:41Z</time>
      </trkpt>
      <trkpt lat="43.60946" lon="1.5742">
        <ele>185.93</ele>
        <time>2015-11-11T10:50:59Z</time>
      </trkpt>
      <trkpt lat="43.60957" lon="1.57388">
        <ele>189.78</ele>
        <time>2015-11-11T10:51:17Z</time>
      </trkpt>
      <trkpt lat="43.60965" lon="1.57353">
        <ele>194.28</ele>
        <time>2015-11-11T10:51:37Z</time>
      </trkpt>
      <trkpt lat="43.6098" lon="1.57321">
        <ele>199.08</ele>
        <time>2015-11-11T10:51:57Z</time>
      </trkpt>
      <trkpt lat="43.60997" lon="1.57291">
        <ele>202.63</ele>
        <time>2015-11-11T10:52:17Z</time>
      </trkpt>
      <trkpt lat="43.61012" lon="1.57264">
        <ele>206.28</ele>
        <time>2015-11-11T10:52:39Z</time>
      </trkpt>
      <trkpt lat="43.61028" lon="1.57233">
        <ele>209.43</ele>
        <time>2015-11-11T10:52:59Z</time>
      </trkpt>
      <trkpt lat="43.61044" lon="1.57219">
        <ele>212.31</ele>
        <time>2015-11-11T10:53:37Z</time>
      </trkpt>
      <trkpt lat="43.61066" lon="1.57227">
        <ele>215.14</ele>
        <time>2015-11-11T10:53:47Z</time>
      </trkpt>
      <trkpt lat="43.61088" lon="1.57235">
        <ele>216.92</ele>
        <time>2015-11-11T10:53:57Z</time>
      </trkpt>
      <trkpt lat="43.61107" lon="1.57248">
        <ele>217.65</ele>
        <time>2015-11-11T10:54:07Z</time>
      </trkpt>
      <trkpt lat="43.61125" lon="1.5726">
        <ele>220.27</ele>
        <time>2015-11-11T10:54:17Z</time>
      </trkpt>
      <trkpt lat="43.61141" lon="1.57273">
        <ele>221.52</ele>
        <time>2015-11-11T10:54:25Z</time>
      </trkpt>
      <trkpt lat="43.61157" lon="1.57289">
        <ele>222.16</ele>
        <time>2015-11-11T10:54:35Z</time>
      </trkpt>
      <trkpt lat="43.61174" lon="1.57304">
        <ele>222.57</ele>
        <time>2015-11-11T10:54:43Z</time>
      </trkpt>
      <trkpt lat="43.61193" lon="1.57317">
        <ele>222.79</ele>
        <time>2015-11-11T10:54:53Z</time>
      </trkpt>
      <trkpt lat="43.61209" lon="1.57331">
        <ele>222.23</ele>
        <time>2015-11-11T10:55:03Z</time>
      </trkpt>
      <trkpt lat="43.61224" lon="1.57344">
        <ele>222.82</ele>
        <time>2015-11-11T10:55:13Z</time>
      </trkpt>
      <trkpt lat="43.61242" lon="1.57359">
        <ele>223.03</ele>
        <time>2015-11-11T10:55:25Z</time>
      </trkpt>
      <trkpt lat="43.61258" lon="1.57373">
        <ele>223.8</ele>
        <time>2015-11-11T10:55:35Z</time>
      </trkpt>
      <trkpt lat="43.61275" lon="1.57386">
        <ele>225.05</ele>
        <time>2015-11-11T10:55:47Z</time>
      </trkpt>
      <trkpt lat="43.61292" lon="1.57396">
        <ele>225.34</ele>
        <time>2015-11-11T10:55:59Z</time>
      </trkpt>
      <trkpt lat="43.61308" lon="1.57409">
        <ele>225.64</ele>
        <time>2015-11-11T10:56:07Z</time>
      </trkpt>
      <trkpt lat="43.61326" lon="1.57425">
        <ele>226.03</ele>
        <time>2015-11-11T10:56:13Z</time>
      </trkpt>
      <trkpt lat="43.61343" lon="1.57441">
        <ele>225.42</ele>
        <time>2015-11-11T10:56:19Z</time>
      </trkpt>
      <trkpt lat="43.61362" lon="1.57456">
        <ele>223.13</ele>
        <time>2015-11-11T10:56:35Z</time>
      </trkpt>
      <trkpt lat="43.6138" lon="1.57471">
        <ele>221.84</ele>
        <time>2015-11-11T10:56:43Z</time>
      </trkpt>
      <trkpt lat="43.61401" lon="1.5748">
        <ele>220.85</ele>
        <time>2015-11-11T10:56:51Z</time>
      </trkpt>
      <trkpt lat="43.61417" lon="1.57491">
        <ele>219.95</ele>
        <time>2015-11-11T10:57:03Z</time>
      </trkpt>
      <trkpt lat="43.61439" lon="1.57502">
        <ele>219.79</ele>
        <time>2015-11-11T10:57:13Z</time>
      </trkpt>
      <trkpt lat="43.61459" lon="1.57513">
        <ele>219.87</ele>
        <time>2015-11-11T10:57:21Z</time>
      </trkpt>
      <trkpt lat="43.61479" lon="1.57524">
        <ele>220.47</ele>
        <time>2015-11-11T10:57:29Z</time>
      </trkpt>
      <trkpt lat="43.61501" lon="1.57534">
        <ele>221.23</ele>
        <time>2015-11-11T10:57:37Z</time>
      </trkpt>
      <trkpt lat="43.6152" lon="1.57547">
        <ele>221.36</ele>
        <time>2015-11-11T10:57:43Z</time>
      </trkpt>
      <trkpt lat="43.61539" lon="1.5756">
        <ele>221</ele>
        <time>2015-11-11T10:57:51Z</time>
      </trkpt>
      <trkpt lat="43.61558" lon="1.57571">
        <ele>221.21</ele>
        <time>2015-11-11T10:57:59Z</time>
      </trkpt>
      <trkpt lat="43.61578" lon="1.57568">
        <ele>221.56</ele>
        <time>2015-11-11T10:58:07Z</time>
      </trkpt>
      <trkpt lat="43.61587" lon="1.5754">
        <ele>222.89</ele>
        <time>2015-11-11T10:58:15Z</time>
      </trkpt>
      <trkpt lat="43.61594" lon="1.57518">
        <ele>223.84</ele>
        <time>2015-11-11T10:58:21Z</time>
      </trkpt>
      <trkpt lat="43.61602" lon="1.57494">
        <ele>224.66</ele>
        <time>2015-11-11T10:58:27Z</time>
      </trkpt>
      <trkpt lat="43.61611" lon="1.57469">
        <ele>225.27</ele>
        <time>2015-11-11T10:58:33Z</time>
      </trkpt>
      <trkpt lat="43.61619" lon="1.57443">
        <ele>225.54</ele>
        <time>2015-11-11T10:58:39Z</time>
      </trkpt>
      <trkpt lat="43.6163" lon="1.57417">
        <ele>225.43</ele>
        <time>2015-11-11T10:58:47Z</time>
      </trkpt>
      <trkpt lat="43.61641" lon="1.57391">
        <ele>225.91</ele>
        <time>2015-11-11T10:58:55Z</time>
      </trkpt>
      <trkpt lat="43.61654" lon="1.57363">
        <ele>226.37</ele>
        <time>2015-11-11T10:59:09Z</time>
      </trkpt>
      <trkpt lat="43.61666" lon="1.57343">
        <ele>226.83</ele>
        <time>2015-11-11T10:59:19Z</time>
      </trkpt>
      <trkpt lat="43.6168" lon="1.57326">
        <ele>227.64</ele>
        <time>2015-11-11T10:59:27Z</time>
      </trkpt>
      <trkpt lat="43.61697" lon="1.57308">
        <ele>228.46</ele>
        <time>2015-11-11T10:59:37Z</time>
      </trkpt>
      <trkpt lat="43.61712" lon="1.57285">
        <ele>229.36</ele>
        <time>2015-11-11T10:59:49Z</time>
      </trkpt>
      <trkpt lat="43.61732" lon="1.57267">
        <ele>230.35</ele>
        <time>2015-11-11T10:59:57Z</time>
      </trkpt>
      <trkpt lat="43.61754" lon="1.57252">
        <ele>230.74</ele>
        <time>2015-11-11T11:00:03Z</time>
      </trkpt>
      <trkpt lat="43.61777" lon="1.57235">
        <ele>230.95</ele>
        <time>2015-11-11T11:00:09Z</time>
      </trkpt>
      <trkpt lat="43.61795" lon="1.57227">
        <ele>231.26</ele>
        <time>2015-11-11T11:00:13Z</time>
      </trkpt>
      <trkpt lat="43.61819" lon="1.57217">
        <ele>231.36</ele>
        <time>2015-11-11T11:00:19Z</time>
      </trkpt>
      <trkpt lat="43.61837" lon="1.5721">
        <ele>231.19</ele>
        <time>2015-11-11T11:00:23Z</time>
      </trkpt>
      <trkpt lat="43.6186" lon="1.57196">
        <ele>231.08</ele>
        <time>2015-11-11T11:00:29Z</time>
      </trkpt>
      <trkpt lat="43.61883" lon="1.57188">
        <ele>230.91</ele>
        <time>2015-11-11T11:00:35Z</time>
      </trkpt>
      <trkpt lat="43.61904" lon="1.57175">
        <ele>230.99</ele>
        <time>2015-11-11T11:00:41Z</time>
      </trkpt>
      <trkpt lat="43.61922" lon="1.57157">
        <ele>231.13</ele>
        <time>2015-11-11T11:00:47Z</time>
      </trkpt>
      <trkpt lat="43.61939" lon="1.57136">
        <ele>231.29</ele>
        <time>2015-11-11T11:00:53Z</time>
      </trkpt>
      <trkpt lat="43.61962" lon="1.57124">
        <ele>231.25</ele>
        <time>2015-11-11T11:00:59Z</time>
      </trkpt>
      <trkpt lat="43.61983" lon="1.57118">
        <ele>231.39</ele>
        <time>2015-11-11T11:01:05Z</time>
      </trkpt>
      <trkpt lat="43.61998" lon="1.57098">
        <ele>231.47</ele>
        <time>2015-11-11T11:01:19Z</time>
      </trkpt>
      <trkpt lat="43.62011" lon="1.57072">
        <ele>231.65</ele>
        <time>2015-11-11T11:01:27Z</time>
      </trkpt>
      <trkpt lat="43.62018" lon="1.5704">
        <ele>232.61</ele>
        <time>2015-11-11T11:01:35Z</time>
      </trkpt>
      <trkpt lat="43.62024" lon="1.57012">
        <ele>233.62</ele>
        <time>2015-11-11T11:01:41Z</time>
      </trkpt>
      <trkpt lat="43.6203" lon="1.56986">
        <ele>234.32</ele>
        <time>2015-11-11T11:01:47Z</time>
      </trkpt>
      <trkpt lat="43.62039" lon="1.56958">
        <ele>234.92</ele>
        <time>2015-11-11T11:01:53Z</time>
      </trkpt>
      <trkpt lat="43.62045" lon="1.56927">
        <ele>235.17</ele>
        <time>2015-11-11T11:01:59Z</time>
      </trkpt>
      <trkpt lat="43.62051" lon="1.56896">
        <ele>235.61</ele>
        <time>2015-11-11T11:02:05Z</time>
      </trkpt>
      <trkpt lat="43.62056" lon="1.56869">
        <ele>235.68</ele>
        <time>2015-11-11T11:02:11Z</time>
      </trkpt>
      <trkpt lat="43.62062" lon="1.56841">
        <ele>235.29</ele>
        <time>2015-11-11T11:02:17Z</time>
      </trkpt>
      <trkpt lat="43.62069" lon="1.56815">
        <ele>235.7</ele>
        <time>2015-11-11T11:02:23Z</time>
      </trkpt>
      <trkpt lat="43.62074" lon="1.56785">
        <ele>236.25</ele>
        <time>2015-11-11T11:02:29Z</time>
      </trkpt>
      <trkpt lat="43.62081" lon="1.56752">
        <ele>236.77</ele>
        <time>2015-11-11T11:02:35Z</time>
      </trkpt>
      <trkpt lat="43.62089" lon="1.56726">
        <ele>236.77</ele>
        <time>2015-11-11T11:02:39Z</time>
      </trkpt>
      <trkpt lat="43.62097" lon="1.56702">
        <ele>236.67</ele>
        <time>2015-11-11T11:02:43Z</time>
      </trkpt>
      <trkpt lat="43.62102" lon="1.56677">
        <ele>236.57</ele>
        <time>2015-11-11T11:02:47Z</time>
      </trkpt>
      <trkpt lat="43.62108" lon="1.5665">
        <ele>236.84</ele>
        <time>2015-11-11T11:02:51Z</time>
      </trkpt>
      <trkpt lat="43.62114" lon="1.56623">
        <ele>237.56</ele>
        <time>2015-11-11T11:02:55Z</time>
      </trkpt>
      <trkpt lat="43.62118" lon="1.56598">
        <ele>237.56</ele>
        <time>2015-11-11T11:02:59Z</time>
      </trkpt>
      <trkpt lat="43.62102" lon="1.56582">
        <ele>237.32</ele>
        <time>2015-11-11T11:03:05Z</time>
      </trkpt>
      <trkpt lat="43.6208" lon="1.56578">
        <ele>236.98</ele>
        <time>2015-11-11T11:03:11Z</time>
      </trkpt>
      <trkpt lat="43.62056" lon="1.56575">
        <ele>236.94</ele>
        <time>2015-11-11T11:03:17Z</time>
      </trkpt>
      <trkpt lat="43.62032" lon="1.5658">
        <ele>236.33</ele>
        <time>2015-11-11T11:03:23Z</time>
      </trkpt>
      <trkpt lat="43.6201" lon="1.56581">
        <ele>234.26</ele>
        <time>2015-11-11T11:03:29Z</time>
      </trkpt>
      <trkpt lat="43.61986" lon="1.56579">
        <ele>232.32</ele>
        <time>2015-11-11T11:03:35Z</time>
      </trkpt>
      <trkpt lat="43.61967" lon="1.5657">
        <ele>231.29</ele>
        <time>2015-11-11T11:03:43Z</time>
      </trkpt>
      <trkpt lat="43.61982" lon="1.5655">
        <ele>228.73</ele>
        <time>2015-11-11T11:04:03Z</time>
      </trkpt>
      <trkpt lat="43.61994" lon="1.56531">
        <ele>228.13</ele>
        <time>2015-11-11T11:04:21Z</time>
      </trkpt>
      <trkpt lat="43.61994" lon="1.565">
        <ele>228.36</ele>
        <time>2015-11-11T11:04:27Z</time>
      </trkpt>
      <trkpt lat="43.61997" lon="1.56467">
        <ele>228.3</ele>
        <time>2015-11-11T11:04:33Z</time>
      </trkpt>
      <trkpt lat="43.61999" lon="1.5644">
        <ele>228.09</ele>
        <time>2015-11-11T11:04:39Z</time>
      </trkpt>
      <trkpt lat="43.62002" lon="1.56412">
        <ele>228.07</ele>
        <time>2015-11-11T11:04:45Z</time>
      </trkpt>
      <trkpt lat="43.62008" lon="1.56388">
        <ele>228.52</ele>
        <time>2015-11-11T11:04:53Z</time>
      </trkpt>
      <trkpt lat="43.62013" lon="1.56363">
        <ele>229.23</ele>
        <time>2015-11-11T11:05:01Z</time>
      </trkpt>
      <trkpt lat="43.6202" lon="1.56338">
        <ele>230.84</ele>
        <time>2015-11-11T11:05:11Z</time>
      </trkpt>
      <trkpt lat="43.62024" lon="1.56311">
        <ele>231.15</ele>
        <time>2015-11-11T11:05:19Z</time>
      </trkpt>
      <trkpt lat="43.62032" lon="1.56278">
        <ele>231.17</ele>
        <time>2015-11-11T11:05:25Z</time>
      </trkpt>
      <trkpt lat="43.62039" lon="1.56254">
        <ele>231.34</ele>
        <time>2015-11-11T11:05:29Z</time>
      </trkpt>
      <trkpt lat="43.62049" lon="1.5623">
        <ele>231.74</ele>
        <time>2015-11-11T11:05:33Z</time>
      </trkpt>
      <trkpt lat="43.62057" lon="1.56204">
        <ele>231.91</ele>
        <time>2015-11-11T11:05:37Z</time>
      </trkpt>
      <trkpt lat="43.62063" lon="1.56177">
        <ele>232.08</ele>
        <time>2015-11-11T11:05:41Z</time>
      </trkpt>
      <trkpt lat="43.62068" lon="1.56152">
        <ele>232.17</ele>
        <time>2015-11-11T11:05:45Z</time>
      </trkpt>
      <trkpt lat="43.6208" lon="1.56128">
        <ele>232.22</ele>
        <time>2015-11-11T11:05:51Z</time>
      </trkpt>
      <trkpt lat="43.62099" lon="1.5613">
        <ele>231.74</ele>
        <time>2015-11-11T11:05:59Z</time>
      </trkpt>
      <trkpt lat="43.62105" lon="1.56105">
        <ele>231.29</ele>
        <time>2015-11-11T11:06:11Z</time>
      </trkpt>
      <trkpt lat="43.62114" lon="1.56082">
        <ele>231.89</ele>
        <time>2015-11-11T11:06:21Z</time>
      </trkpt>
      <trkpt lat="43.62122" lon="1.56052">
        <ele>232.21</ele>
        <time>2015-11-11T11:06:29Z</time>
      </trkpt>
      <trkpt lat="43.62129" lon="1.56028">
        <ele>232.32</ele>
        <time>2015-11-11T11:06:35Z</time>
      </trkpt>
      <trkpt lat="43.62139" lon="1.56002">
        <ele>232.61</ele>
        <time>2015-11-11T11:06:41Z</time>
      </trkpt>
      <trkpt lat="43.62147" lon="1.55976">
        <ele>232.55</ele>
        <time>2015-11-11T11:06:47Z</time>
      </trkpt>
      <trkpt lat="43.62149" lon="1.55933">
        <ele>230.38</ele>
        <time>2015-11-11T11:07:29Z</time>
      </trkpt>
      <trkpt lat="43.62128" lon="1.5592">
        <ele>228.49</ele>
        <time>2015-11-11T11:07:37Z</time>
      </trkpt>
      <trkpt lat="43.62105" lon="1.55909">
        <ele>228.1</ele>
        <time>2015-11-11T11:07:43Z</time>
      </trkpt>
      <trkpt lat="43.6209" lon="1.55889">
        <ele>227.14</ele>
        <time>2015-11-11T11:07:49Z</time>
      </trkpt>
      <trkpt lat="43.6208" lon="1.55869">
        <ele>226.16</ele>
        <time>2015-11-11T11:07:53Z</time>
      </trkpt>
      <trkpt lat="43.62064" lon="1.55844">
        <ele>223.85</ele>
        <time>2015-11-11T11:07:59Z</time>
      </trkpt>
      <trkpt lat="43.62048" lon="1.55817">
        <ele>221.66</ele>
        <time>2015-11-11T11:08:05Z</time>
      </trkpt>
      <trkpt lat="43.62029" lon="1.5579">
        <ele>219.69</ele>
        <time>2015-11-11T11:08:11Z</time>
      </trkpt>
      <trkpt lat="43.62005" lon="1.55772">
        <ele>217.23</ele>
        <time>2015-11-11T11:08:17Z</time>
      </trkpt>
      <trkpt lat="43.61986" lon="1.55766">
        <ele>214.59</ele>
        <time>2015-11-11T11:08:23Z</time>
      </trkpt>
      <trkpt lat="43.61962" lon="1.55754">
        <ele>211.63</ele>
        <time>2015-11-11T11:08:29Z</time>
      </trkpt>
      <trkpt lat="43.61941" lon="1.55744">
        <ele>208.33</ele>
        <time>2015-11-11T11:08:35Z</time>
      </trkpt>
      <trkpt lat="43.61919" lon="1.55736">
        <ele>205.5</ele>
        <time>2015-11-11T11:08:41Z</time>
      </trkpt>
      <trkpt lat="43.61898" lon="1.55728">
        <ele>203.6</ele>
        <time>2015-11-11T11:08:47Z</time>
      </trkpt>
      <trkpt lat="43.61883" lon="1.55707">
        <ele>199.46</ele>
        <time>2015-11-11T11:09:07Z</time>
      </trkpt>
      <trkpt lat="43.61867" lon="1.55688">
        <ele>197.81</ele>
        <time>2015-11-11T11:09:15Z</time>
      </trkpt>
      <trkpt lat="43.61845" lon="1.55664">
        <ele>196.53</ele>
        <time>2015-11-11T11:09:21Z</time>
      </trkpt>
      <trkpt lat="43.61832" lon="1.55647">
        <ele>195.53</ele>
        <time>2015-11-11T11:09:25Z</time>
      </trkpt>
      <trkpt lat="43.61818" lon="1.55624">
        <ele>193.27</ele>
        <time>2015-11-11T11:09:33Z</time>
      </trkpt>
      <trkpt lat="43.61792" lon="1.55603">
        <ele>188.63</ele>
        <time>2015-11-11T11:09:59Z</time>
      </trkpt>
      <trkpt lat="43.61775" lon="1.5559">
        <ele>185.66</ele>
        <time>2015-11-11T11:10:09Z</time>
      </trkpt>
      <trkpt lat="43.61757" lon="1.55575">
        <ele>184.32</ele>
        <time>2015-11-11T11:10:21Z</time>
      </trkpt>
      <trkpt lat="43.61741" lon="1.55561">
        <ele>184.35</ele>
        <time>2015-11-11T11:10:33Z</time>
      </trkpt>
      <trkpt lat="43.61717" lon="1.5554">
        <ele>184.83</ele>
        <time>2015-11-11T11:10:53Z</time>
      </trkpt>
      <trkpt lat="43.617" lon="1.55525">
        <ele>186.27</ele>
        <time>2015-11-11T11:11:05Z</time>
      </trkpt>
      <trkpt lat="43.61685" lon="1.5551">
        <ele>187.11</ele>
        <time>2015-11-11T11:11:15Z</time>
      </trkpt>
      <trkpt lat="43.61671" lon="1.55491">
        <ele>187.7</ele>
        <time>2015-11-11T11:11:25Z</time>
      </trkpt>
      <trkpt lat="43.61653" lon="1.55473">
        <ele>188.18</ele>
        <time>2015-11-11T11:12:29Z</time>
      </trkpt>
      <trkpt lat="43.61638" lon="1.55453">
        <ele>187.93</ele>
        <time>2015-11-11T11:12:35Z</time>
      </trkpt>
      <trkpt lat="43.61623" lon="1.55434">
        <ele>187.66</ele>
        <time>2015-11-11T11:12:39Z</time>
      </trkpt>
      <trkpt lat="43.61608" lon="1.55418">
        <ele>187.56</ele>
        <time>2015-11-11T11:12:45Z</time>
      </trkpt>
      <trkpt lat="43.61587" lon="1.55409">
        <ele>187.61</ele>
        <time>2015-11-11T11:12:53Z</time>
      </trkpt>
      <trkpt lat="43.61568" lon="1.55402">
        <ele>187.87</ele>
        <time>2015-11-11T11:13:01Z</time>
      </trkpt>
      <trkpt lat="43.61549" lon="1.55393">
        <ele>188.68</ele>
        <time>2015-11-11T11:13:11Z</time>
      </trkpt>
      <trkpt lat="43.61532" lon="1.55384">
        <ele>189.84</ele>
        <time>2015-11-11T11:13:21Z</time>
      </trkpt>
      <trkpt lat="43.61537" lon="1.5536">
        <ele>191.37</ele>
        <time>2015-11-11T11:13:35Z</time>
      </trkpt>
      <trkpt lat="43.61555" lon="1.55344">
        <ele>191.52</ele>
        <time>2015-11-11T11:13:39Z</time>
      </trkpt>
      <trkpt lat="43.61569" lon="1.55322">
        <ele>191.48</ele>
        <time>2015-11-11T11:13:43Z</time>
      </trkpt>
      <trkpt lat="43.6158" lon="1.55293">
        <ele>191.27</ele>
        <time>2015-11-11T11:13:47Z</time>
      </trkpt>
      <trkpt lat="43.61591" lon="1.55262">
        <ele>190.94</ele>
        <time>2015-11-11T11:13:51Z</time>
      </trkpt>
      <trkpt lat="43.61602" lon="1.55231">
        <ele>190.46</ele>
        <time>2015-11-11T11:13:55Z</time>
      </trkpt>
      <trkpt lat="43.61613" lon="1.552">
        <ele>189.76</ele>
        <time>2015-11-11T11:13:59Z</time>
      </trkpt>
      <trkpt lat="43.61623" lon="1.55172">
        <ele>188.94</ele>
        <time>2015-11-11T11:14:03Z</time>
      </trkpt>
      <trkpt lat="43.61635" lon="1.55144">
        <ele>188.36</ele>
        <time>2015-11-11T11:14:07Z</time>
      </trkpt>
      <trkpt lat="43.61644" lon="1.55114">
        <ele>187.84</ele>
        <time>2015-11-11T11:14:11Z</time>
      </trkpt>
      <trkpt lat="43.61656" lon="1.55084">
        <ele>187.51</ele>
        <time>2015-11-11T11:14:15Z</time>
      </trkpt>
      <trkpt lat="43.61667" lon="1.55053">
        <ele>186.8</ele>
        <time>2015-11-11T11:14:19Z</time>
      </trkpt>
      <trkpt lat="43.61676" lon="1.55022">
        <ele>185.3</ele>
        <time>2015-11-11T11:14:23Z</time>
      </trkpt>
      <trkpt lat="43.61686" lon="1.54994">
        <ele>184.07</ele>
        <time>2015-11-11T11:14:27Z</time>
      </trkpt>
      <trkpt lat="43.61698" lon="1.54966">
        <ele>182.77</ele>
        <time>2015-11-11T11:14:31Z</time>
      </trkpt>
      <trkpt lat="43.61708" lon="1.54937">
        <ele>181.47</ele>
        <time>2015-11-11T11:14:35Z</time>
      </trkpt>
      <trkpt lat="43.61719" lon="1.54907">
        <ele>180.52</ele>
        <time>2015-11-11T11:14:39Z</time>
      </trkpt>
      <trkpt lat="43.6173" lon="1.54876">
        <ele>179.5</ele>
        <time>2015-11-11T11:14:43Z</time>
      </trkpt>
      <trkpt lat="43.61742" lon="1.54844">
        <ele>178.33</ele>
        <time>2015-11-11T11:14:47Z</time>
      </trkpt>
      <trkpt lat="43.61754" lon="1.54814">
        <ele>177.03</ele>
        <time>2015-11-11T11:14:51Z</time>
      </trkpt>
      <trkpt lat="43.61759" lon="1.54783">
        <ele>175.48</ele>
        <time>2015-11-11T11:14:55Z</time>
      </trkpt>
      <trkpt lat="43.61758" lon="1.54754">
        <ele>174</ele>
        <time>2015-11-11T11:14:59Z</time>
      </trkpt>
      <trkpt lat="43.61757" lon="1.54724">
        <ele>172.72</ele>
        <time>2015-11-11T11:15:03Z</time>
      </trkpt>
      <trkpt lat="43.61757" lon="1.54699">
        <ele>171.53</ele>
        <time>2015-11-11T11:15:07Z</time>
      </trkpt>
      <trkpt lat="43.61756" lon="1.54664">
        <ele>169.75</ele>
        <time>2015-11-11T11:15:13Z</time>
      </trkpt>
      <trkpt lat="43.61754" lon="1.54634">
        <ele>168.48</ele>
        <time>2015-11-11T11:15:19Z</time>
      </trkpt>
      <trkpt lat="43.61752" lon="1.54601">
        <ele>167.9</ele>
        <time>2015-11-11T11:15:25Z</time>
      </trkpt>
      <trkpt lat="43.61756" lon="1.54566">
        <ele>167.68</ele>
        <time>2015-11-11T11:15:31Z</time>
      </trkpt>
      <trkpt lat="43.61752" lon="1.54541">
        <ele>166.52</ele>
        <time>2015-11-11T11:15:35Z</time>
      </trkpt>
      <trkpt lat="43.61757" lon="1.54507">
        <ele>164.61</ele>
        <time>2015-11-11T11:15:41Z</time>
      </trkpt>
      <trkpt lat="43.61758" lon="1.54481">
        <ele>163.68</ele>
        <time>2015-11-11T11:15:45Z</time>
      </trkpt>
      <trkpt lat="43.61757" lon="1.54454">
        <ele>162.72</ele>
        <time>2015-11-11T11:15:49Z</time>
      </trkpt>
      <trkpt lat="43.61766" lon="1.54422">
        <ele>161.47</ele>
        <time>2015-11-11T11:15:55Z</time>
      </trkpt>
      <trkpt lat="43.61764" lon="1.54389">
        <ele>160.42</ele>
        <time>2015-11-11T11:16:01Z</time>
      </trkpt>
      <trkpt lat="43.61771" lon="1.54356">
        <ele>159.92</ele>
        <time>2015-11-11T11:16:07Z</time>
      </trkpt>
      <trkpt lat="43.61771" lon="1.54331">
        <ele>159.91</ele>
        <time>2015-11-11T11:16:15Z</time>
      </trkpt>
      <trkpt lat="43.61757" lon="1.54309">
        <ele>159.86</ele>
        <time>2015-11-11T11:17:33Z</time>
      </trkpt>
      <trkpt lat="43.61748" lon="1.54286">
        <ele>159.9</ele>
        <time>2015-11-11T11:17:39Z</time>
      </trkpt>
      <trkpt lat="43.61759" lon="1.54262">
        <ele>159.75</ele>
        <time>2015-11-11T11:17:45Z</time>
      </trkpt>
      <trkpt lat="43.61771" lon="1.54242">
        <ele>160.02</ele>
        <time>2015-11-11T11:17:51Z</time>
      </trkpt>
      <trkpt lat="43.61785" lon="1.54219">
        <ele>160.33</ele>
        <time>2015-11-11T11:17:57Z</time>
      </trkpt>
      <trkpt lat="43.61801" lon="1.54195">
        <ele>160.56</ele>
        <time>2015-11-11T11:18:03Z</time>
      </trkpt>
      <trkpt lat="43.61821" lon="1.54171">
        <ele>160.69</ele>
        <time>2015-11-11T11:18:09Z</time>
      </trkpt>
      <trkpt lat="43.61836" lon="1.54156">
        <ele>160</ele>
        <time>2015-11-11T11:18:13Z</time>
      </trkpt>
      <trkpt lat="43.61853" lon="1.54142">
        <ele>159.4</ele>
        <time>2015-11-11T11:18:17Z</time>
      </trkpt>
      <trkpt lat="43.61869" lon="1.5413">
        <ele>159</ele>
        <time>2015-11-11T11:18:21Z</time>
      </trkpt>
      <trkpt lat="43.61892" lon="1.54112">
        <ele>158.42</ele>
        <time>2015-11-11T11:18:27Z</time>
      </trkpt>
      <trkpt lat="43.61916" lon="1.54094">
        <ele>158.04</ele>
        <time>2015-11-11T11:18:33Z</time>
      </trkpt>
      <trkpt lat="43.61939" lon="1.54077">
        <ele>157.66</ele>
        <time>2015-11-11T11:18:39Z</time>
      </trkpt>
      <trkpt lat="43.61955" lon="1.54065">
        <ele>157.31</ele>
        <time>2015-11-11T11:18:43Z</time>
      </trkpt>
      <trkpt lat="43.61972" lon="1.54052">
        <ele>157.05</ele>
        <time>2015-11-11T11:18:47Z</time>
      </trkpt>
      <trkpt lat="43.6199" lon="1.54039">
        <ele>156.64</ele>
        <time>2015-11-11T11:18:51Z</time>
      </trkpt>
      <trkpt lat="43.62009" lon="1.54024">
        <ele>156.31</ele>
        <time>2015-11-11T11:18:55Z</time>
      </trkpt>
      <trkpt lat="43.62027" lon="1.5401">
        <ele>156</ele>
        <time>2015-11-11T11:18:59Z</time>
      </trkpt>
      <trkpt lat="43.62046" lon="1.53997">
        <ele>155.88</ele>
        <time>2015-11-11T11:19:03Z</time>
      </trkpt>
      <trkpt lat="43.62064" lon="1.53984">
        <ele>155.89</ele>
        <time>2015-11-11T11:19:07Z</time>
      </trkpt>
      <trkpt lat="43.62082" lon="1.5397">
        <ele>155.85</ele>
        <time>2015-11-11T11:19:11Z</time>
      </trkpt>
      <trkpt lat="43.621" lon="1.53956">
        <ele>155.71</ele>
        <time>2015-11-11T11:19:15Z</time>
      </trkpt>
      <trkpt lat="43.62117" lon="1.53943">
        <ele>155.53</ele>
        <time>2015-11-11T11:19:19Z</time>
      </trkpt>
      <trkpt lat="43.62133" lon="1.53928">
        <ele>155.31</ele>
        <time>2015-11-11T11:19:23Z</time>
      </trkpt>
      <trkpt lat="43.62149" lon="1.53913">
        <ele>155.25</ele>
        <time>2015-11-11T11:19:27Z</time>
      </trkpt>
      <trkpt lat="43.62164" lon="1.53897">
        <ele>155.24</ele>
        <time>2015-11-11T11:19:31Z</time>
      </trkpt>
      <trkpt lat="43.6218" lon="1.53882">
        <ele>155.33</ele>
        <time>2015-11-11T11:19:35Z</time>
      </trkpt>
      <trkpt lat="43.62196" lon="1.53868">
        <ele>155.63</ele>
        <time>2015-11-11T11:19:39Z</time>
      </trkpt>
      <trkpt lat="43.62214" lon="1.53842">
        <ele>155.97</ele>
        <time>2015-11-11T11:19:45Z</time>
      </trkpt>
      <trkpt lat="43.6223" lon="1.53812">
        <ele>156.33</ele>
        <time>2015-11-11T11:19:51Z</time>
      </trkpt>
      <trkpt lat="43.62242" lon="1.53793">
        <ele>156.58</ele>
        <time>2015-11-11T11:19:55Z</time>
      </trkpt>
      <trkpt lat="43.62254" lon="1.53773">
        <ele>156.85</ele>
        <time>2015-11-11T11:19:59Z</time>
      </trkpt>
      <trkpt lat="43.62268" lon="1.53752">
        <ele>156.69</ele>
        <time>2015-11-11T11:20:03Z</time>
      </trkpt>
      <trkpt lat="43.62281" lon="1.53731">
        <ele>156.7</ele>
        <time>2015-11-11T11:20:07Z</time>
      </trkpt>
      <trkpt lat="43.62294" lon="1.53711">
        <ele>156.57</ele>
        <time>2015-11-11T11:20:11Z</time>
      </trkpt>
      <trkpt lat="43.62306" lon="1.53691">
        <ele>156.74</ele>
        <time>2015-11-11T11:20:15Z</time>
      </trkpt>
      <trkpt lat="43.62318" lon="1.5367">
        <ele>156.74</ele>
        <time>2015-11-11T11:20:19Z</time>
      </trkpt>
      <trkpt lat="43.62331" lon="1.53639">
        <ele>156.56</ele>
        <time>2015-11-11T11:20:25Z</time>
      </trkpt>
      <trkpt lat="43.62339" lon="1.53615">
        <ele>156.39</ele>
        <time>2015-11-11T11:20:29Z</time>
      </trkpt>
      <trkpt lat="43.62344" lon="1.53588">
        <ele>156.52</ele>
        <time>2015-11-11T11:20:33Z</time>
      </trkpt>
      <trkpt lat="43.62343" lon="1.53558">
        <ele>155.83</ele>
        <time>2015-11-11T11:20:37Z</time>
      </trkpt>
      <trkpt lat="43.62334" lon="1.53532">
        <ele>155.36</ele>
        <time>2015-11-11T11:20:41Z</time>
      </trkpt>
      <trkpt lat="43.62325" lon="1.53508">
        <ele>155.36</ele>
        <time>2015-11-11T11:20:45Z</time>
      </trkpt>
      <trkpt lat="43.62319" lon="1.53485">
        <ele>155.47</ele>
        <time>2015-11-11T11:20:49Z</time>
      </trkpt>
      <trkpt lat="43.62314" lon="1.5346">
        <ele>155.59</ele>
        <time>2015-11-11T11:20:53Z</time>
      </trkpt>
      <trkpt lat="43.62308" lon="1.53434">
        <ele>155.6</ele>
        <time>2015-11-11T11:20:57Z</time>
      </trkpt>
      <trkpt lat="43.62302" lon="1.53408">
        <ele>155.7</ele>
        <time>2015-11-11T11:21:01Z</time>
      </trkpt>
      <trkpt lat="43.62296" lon="1.53382">
        <ele>155.72</ele>
        <time>2015-11-11T11:21:05Z</time>
      </trkpt>
      <trkpt lat="43.62287" lon="1.53347">
        <ele>155.83</ele>
        <time>2015-11-11T11:21:11Z</time>
      </trkpt>
      <trkpt lat="43.62277" lon="1.53314">
        <ele>156.23</ele>
        <time>2015-11-11T11:21:17Z</time>
      </trkpt>
      <trkpt lat="43.62269" lon="1.53283">
        <ele>156.83</ele>
        <time>2015-11-11T11:21:23Z</time>
      </trkpt>
      <trkpt lat="43.62264" lon="1.53258">
        <ele>156.81</ele>
        <time>2015-11-11T11:21:31Z</time>
      </trkpt>
      <trkpt lat="43.62254" lon="1.53234">
        <ele>156.82</ele>
        <time>2015-11-11T11:22:17Z</time>
      </trkpt>
      <trkpt lat="43.6224" lon="1.53213">
        <ele>156.55</ele>
        <time>2015-11-11T11:22:29Z</time>
      </trkpt>
      <trkpt lat="43.62228" lon="1.53192">
        <ele>157.63</ele>
        <time>2015-11-11T11:22:41Z</time>
      </trkpt>
      <trkpt lat="43.62216" lon="1.53172">
        <ele>158.52</ele>
        <time>2015-11-11T11:22:53Z</time>
      </trkpt>
      <trkpt lat="43.62188" lon="1.5313">
        <ele>162.03</ele>
        <time>2015-11-11T11:23:23Z</time>
      </trkpt>
      <trkpt lat="43.62172" lon="1.53109">
        <ele>164.78</ele>
        <time>2015-11-11T11:23:39Z</time>
      </trkpt>
      <trkpt lat="43.62154" lon="1.53102">
        <ele>166.2</ele>
        <time>2015-11-11T11:23:51Z</time>
      </trkpt>
      <trkpt lat="43.62122" lon="1.53095">
        <ele>168.08</ele>
        <time>2015-11-11T11:24:15Z</time>
      </trkpt>
      <trkpt lat="43.62099" lon="1.53092">
        <ele>170.53</ele>
        <time>2015-11-11T11:24:31Z</time>
      </trkpt>
      <trkpt lat="43.62069" lon="1.53086">
        <ele>173.93</ele>
        <time>2015-11-11T11:24:55Z</time>
      </trkpt>
      <trkpt lat="43.62043" lon="1.5308">
        <ele>178.13</ele>
        <time>2015-11-11T11:25:19Z</time>
      </trkpt>
      <trkpt lat="43.62015" lon="1.5307">
        <ele>183.13</ele>
        <time>2015-11-11T11:25:41Z</time>
      </trkpt>
      <trkpt lat="43.61993" lon="1.53053">
        <ele>187.08</ele>
        <time>2015-11-11T11:26:01Z</time>
      </trkpt>
      <trkpt lat="43.61976" lon="1.5304">
        <ele>190.48</ele>
        <time>2015-11-11T11:26:23Z</time>
      </trkpt>
      <trkpt lat="43.6196" lon="1.53027">
        <ele>194.78</ele>
        <time>2015-11-11T11:27:01Z</time>
      </trkpt>
      <trkpt lat="43.61943" lon="1.53014">
        <ele>196.92</ele>
        <time>2015-11-11T11:27:15Z</time>
      </trkpt>
      <trkpt lat="43.61925" lon="1.53002">
        <ele>200.11</ele>
        <time>2015-11-11T11:27:33Z</time>
      </trkpt>
      <trkpt lat="43.61909" lon="1.52989">
        <ele>203.49</ele>
        <time>2015-11-11T11:27:49Z</time>
      </trkpt>
      <trkpt lat="43.61909" lon="1.52958">
        <ele>207.38</ele>
        <time>2015-11-11T11:28:15Z</time>
      </trkpt>
      <trkpt lat="43.61916" lon="1.52933">
        <ele>210.01</ele>
        <time>2015-11-11T11:28:27Z</time>
      </trkpt>
      <trkpt lat="43.61926" lon="1.52909">
        <ele>210.56</ele>
        <time>2015-11-11T11:28:59Z</time>
      </trkpt>
      <trkpt lat="43.61933" lon="1.52882">
        <ele>209.81</ele>
        <time>2015-11-11T11:29:05Z</time>
      </trkpt>
      <trkpt lat="43.61942" lon="1.5285">
        <ele>209.61</ele>
        <time>2015-11-11T11:29:11Z</time>
      </trkpt>
      <trkpt lat="43.61949" lon="1.52822">
        <ele>209.33</ele>
        <time>2015-11-11T11:29:17Z</time>
      </trkpt>
      <trkpt lat="43.61957" lon="1.52794">
        <ele>208.88</ele>
        <time>2015-11-11T11:29:23Z</time>
      </trkpt>
      <trkpt lat="43.61963" lon="1.52764">
        <ele>208.93</ele>
        <time>2015-11-11T11:29:29Z</time>
      </trkpt>
      <trkpt lat="43.61972" lon="1.52734">
        <ele>209.24</ele>
        <time>2015-11-11T11:29:35Z</time>
      </trkpt>
      <trkpt lat="43.6198" lon="1.52704">
        <ele>209.51</ele>
        <time>2015-11-11T11:29:41Z</time>
      </trkpt>
      <trkpt lat="43.61988" lon="1.52671">
        <ele>209.42</ele>
        <time>2015-11-11T11:29:47Z</time>
      </trkpt>
      <trkpt lat="43.61995" lon="1.52648">
        <ele>209.3</ele>
        <time>2015-11-11T11:29:51Z</time>
      </trkpt>
      <trkpt lat="43.62002" lon="1.52625">
        <ele>209.18</ele>
        <time>2015-11-11T11:29:55Z</time>
      </trkpt>
      <trkpt lat="43.62011" lon="1.52591">
        <ele>209.15</ele>
        <time>2015-11-11T11:30:01Z</time>
      </trkpt>
      <trkpt lat="43.62017" lon="1.52568">
        <ele>209.06</ele>
        <time>2015-11-11T11:30:05Z</time>
      </trkpt>
      <trkpt lat="43.62023" lon="1.52544">
        <ele>208.94</ele>
        <time>2015-11-11T11:30:09Z</time>
      </trkpt>
      <trkpt lat="43.62031" lon="1.52512">
        <ele>209.03</ele>
        <time>2015-11-11T11:30:15Z</time>
      </trkpt>
      <trkpt lat="43.62034" lon="1.52472">
        <ele>209.88</ele>
        <time>2015-11-11T11:30:39Z</time>
      </trkpt>
      <trkpt lat="43.62017" lon="1.5246">
        <ele>209.89</ele>
        <time>2015-11-11T11:30:49Z</time>
      </trkpt>
      <trkpt lat="43.61998" lon="1.52447">
        <ele>209.94</ele>
        <time>2015-11-11T11:30:57Z</time>
      </trkpt>
      <trkpt lat="43.61977" lon="1.52434">
        <ele>210.15</ele>
        <time>2015-11-11T11:31:05Z</time>
      </trkpt>
      <trkpt lat="43.61957" lon="1.52422">
        <ele>210.22</ele>
        <time>2015-11-11T11:31:11Z</time>
      </trkpt>
      <trkpt lat="43.61931" lon="1.52409">
        <ele>209.82</ele>
        <time>2015-11-11T11:31:17Z</time>
      </trkpt>
      <trkpt lat="43.61908" lon="1.52403">
        <ele>209.33</ele>
        <time>2015-11-11T11:31:21Z</time>
      </trkpt>
      <trkpt lat="43.61878" lon="1.52397">
        <ele>208.23</ele>
        <time>2015-11-11T11:31:25Z</time>
      </trkpt>
      <trkpt lat="43.61848" lon="1.52389">
        <ele>207.46</ele>
        <time>2015-11-11T11:31:29Z</time>
      </trkpt>
      <trkpt lat="43.61822" lon="1.5238">
        <ele>207.01</ele>
        <time>2015-11-11T11:31:33Z</time>
      </trkpt>
      <trkpt lat="43.618" lon="1.52373">
        <ele>207</ele>
        <time>2015-11-11T11:31:37Z</time>
      </trkpt>
      <trkpt lat="43.61783" lon="1.52368">
        <ele>207.15</ele>
        <time>2015-11-11T11:31:41Z</time>
      </trkpt>
      <trkpt lat="43.61758" lon="1.52361">
        <ele>207.79</ele>
        <time>2015-11-11T11:31:47Z</time>
      </trkpt>
      <trkpt lat="43.61733" lon="1.52351">
        <ele>208.79</ele>
        <time>2015-11-11T11:31:53Z</time>
      </trkpt>
      <trkpt lat="43.61711" lon="1.52343">
        <ele>209.65</ele>
        <time>2015-11-11T11:31:59Z</time>
      </trkpt>
      <trkpt lat="43.61688" lon="1.52335">
        <ele>210.8</ele>
        <time>2015-11-11T11:32:05Z</time>
      </trkpt>
      <trkpt lat="43.61666" lon="1.52326">
        <ele>211.69</ele>
        <time>2015-11-11T11:32:11Z</time>
      </trkpt>
      <trkpt lat="43.61646" lon="1.52318">
        <ele>212.57</ele>
        <time>2015-11-11T11:32:17Z</time>
      </trkpt>
      <trkpt lat="43.61628" lon="1.52311">
        <ele>213.52</ele>
        <time>2015-11-11T11:32:23Z</time>
      </trkpt>
      <trkpt lat="43.6162" lon="1.52289">
        <ele>214.89</ele>
        <time>2015-11-11T11:32:35Z</time>
      </trkpt>
      <trkpt lat="43.6163" lon="1.52262">
        <ele>215.78</ele>
        <time>2015-11-11T11:32:45Z</time>
      </trkpt>
      <trkpt lat="43.61638" lon="1.52234">
        <ele>215.84</ele>
        <time>2015-11-11T11:32:53Z</time>
      </trkpt>
      <trkpt lat="43.61648" lon="1.52205">
        <ele>216.26</ele>
        <time>2015-11-11T11:33:01Z</time>
      </trkpt>
      <trkpt lat="43.61657" lon="1.52176">
        <ele>216.5</ele>
        <time>2015-11-11T11:33:09Z</time>
      </trkpt>
      <trkpt lat="43.61666" lon="1.52152">
        <ele>216.5</ele>
        <time>2015-11-11T11:33:15Z</time>
      </trkpt>
      <trkpt lat="43.61665" lon="1.52121">
        <ele>216.76</ele>
        <time>2015-11-11T11:33:23Z</time>
      </trkpt>
      <trkpt lat="43.61645" lon="1.52104">
        <ele>216.77</ele>
        <time>2015-11-11T11:33:29Z</time>
      </trkpt>
      <trkpt lat="43.61627" lon="1.5209">
        <ele>216.42</ele>
        <time>2015-11-11T11:33:33Z</time>
      </trkpt>
      <trkpt lat="43.61607" lon="1.52075">
        <ele>215.88</ele>
        <time>2015-11-11T11:33:37Z</time>
      </trkpt>
      <trkpt lat="43.61588" lon="1.52063">
        <ele>215.32</ele>
        <time>2015-11-11T11:33:41Z</time>
      </trkpt>
      <trkpt lat="43.61569" lon="1.52054">
        <ele>214.85</ele>
        <time>2015-11-11T11:33:45Z</time>
      </trkpt>
      <trkpt lat="43.61546" lon="1.52065">
        <ele>214.57</ele>
        <time>2015-11-11T11:33:51Z</time>
      </trkpt>
      <trkpt lat="43.61528" lon="1.52092">
        <ele>214.41</ele>
        <time>2015-11-11T11:33:57Z</time>
      </trkpt>
      <trkpt lat="43.61508" lon="1.52116">
        <ele>214.67</ele>
        <time>2015-11-11T11:34:03Z</time>
      </trkpt>
      <trkpt lat="43.61488" lon="1.52135">
        <ele>215.09</ele>
        <time>2015-11-11T11:34:09Z</time>
      </trkpt>
      <trkpt lat="43.61462" lon="1.52132">
        <ele>214.68</ele>
        <time>2015-11-11T11:34:15Z</time>
      </trkpt>
      <trkpt lat="43.61451" lon="1.52108">
        <ele>214.14</ele>
        <time>2015-11-11T11:34:19Z</time>
      </trkpt>
      <trkpt lat="43.61451" lon="1.52076">
        <ele>213.34</ele>
        <time>2015-11-11T11:34:23Z</time>
      </trkpt>
      <trkpt lat="43.61465" lon="1.52056">
        <ele>211.7</ele>
        <time>2015-11-11T11:34:31Z</time>
      </trkpt>
      <trkpt lat="43.61479" lon="1.5203">
        <ele>211.41</ele>
        <time>2015-11-11T11:34:41Z</time>
      </trkpt>
      <trkpt lat="43.6149" lon="1.52005">
        <ele>211.76</ele>
        <time>2015-11-11T11:34:47Z</time>
      </trkpt>
      <trkpt lat="43.61495" lon="1.51979">
        <ele>211.86</ele>
        <time>2015-11-11T11:34:51Z</time>
      </trkpt>
      <trkpt lat="43.61503" lon="1.51946">
        <ele>211.74</ele>
        <time>2015-11-11T11:34:55Z</time>
      </trkpt>
      <trkpt lat="43.61508" lon="1.51909">
        <ele>211.46</ele>
        <time>2015-11-11T11:34:59Z</time>
      </trkpt>
      <trkpt lat="43.61513" lon="1.51879">
        <ele>211.34</ele>
        <time>2015-11-11T11:35:03Z</time>
      </trkpt>
      <trkpt lat="43.61516" lon="1.51852">
        <ele>211.03</ele>
        <time>2015-11-11T11:35:07Z</time>
      </trkpt>
      <trkpt lat="43.61521" lon="1.51815">
        <ele>210.65</ele>
        <time>2015-11-11T11:35:13Z</time>
      </trkpt>
      <trkpt lat="43.61523" lon="1.51782">
        <ele>210.19</ele>
        <time>2015-11-11T11:35:17Z</time>
      </trkpt>
      <trkpt lat="43.61523" lon="1.51746">
        <ele>209.82</ele>
        <time>2015-11-11T11:35:21Z</time>
      </trkpt>
      <trkpt lat="43.61517" lon="1.5172">
        <ele>209.36</ele>
        <time>2015-11-11T11:35:25Z</time>
      </trkpt>
      <trkpt lat="43.61516" lon="1.51688">
        <ele>208.66</ele>
        <time>2015-11-11T11:35:29Z</time>
      </trkpt>
      <trkpt lat="43.61509" lon="1.51655">
        <ele>207.89</ele>
        <time>2015-11-11T11:35:35Z</time>
      </trkpt>
      <trkpt lat="43.61505" lon="1.5163">
        <ele>207.04</ele>
        <time>2015-11-11T11:35:43Z</time>
      </trkpt>
      <trkpt lat="43.61498" lon="1.51601">
        <ele>205.83</ele>
        <time>2015-11-11T11:36:09Z</time>
      </trkpt>
      <trkpt lat="43.61483" lon="1.51569">
        <ele>203.66</ele>
        <time>2015-11-11T11:36:15Z</time>
      </trkpt>
      <trkpt lat="43.61457" lon="1.51547">
        <ele>202.79</ele>
        <time>2015-11-11T11:36:19Z</time>
      </trkpt>
      <trkpt lat="43.61434" lon="1.51531">
        <ele>202.15</ele>
        <time>2015-11-11T11:36:23Z</time>
      </trkpt>
      <trkpt lat="43.61415" lon="1.51518">
        <ele>201.61</ele>
        <time>2015-11-11T11:36:27Z</time>
      </trkpt>
      <trkpt lat="43.61399" lon="1.51498">
        <ele>200.75</ele>
        <time>2015-11-11T11:36:31Z</time>
      </trkpt>
      <trkpt lat="43.6139" lon="1.51469">
        <ele>199.91</ele>
        <time>2015-11-11T11:36:35Z</time>
      </trkpt>
      <trkpt lat="43.61388" lon="1.51433">
        <ele>198.4</ele>
        <time>2015-11-11T11:36:39Z</time>
      </trkpt>
      <trkpt lat="43.61385" lon="1.514">
        <ele>197.05</ele>
        <time>2015-11-11T11:36:43Z</time>
      </trkpt>
      <trkpt lat="43.61384" lon="1.51367">
        <ele>196.16</ele>
        <time>2015-11-11T11:36:47Z</time>
      </trkpt>
      <trkpt lat="43.61382" lon="1.51339">
        <ele>195.24</ele>
        <time>2015-11-11T11:36:51Z</time>
      </trkpt>
      <trkpt lat="43.6138" lon="1.5131">
        <ele>194.31</ele>
        <time>2015-11-11T11:36:55Z</time>
      </trkpt>
      <trkpt lat="43.61377" lon="1.51277">
        <ele>193.03</ele>
        <time>2015-11-11T11:36:59Z</time>
      </trkpt>
      <trkpt lat="43.61374" lon="1.51244">
        <ele>191.58</ele>
        <time>2015-11-11T11:37:03Z</time>
      </trkpt>
      <trkpt lat="43.61369" lon="1.51211">
        <ele>190.8</ele>
        <time>2015-11-11T11:37:07Z</time>
      </trkpt>
      <trkpt lat="43.61363" lon="1.51184">
        <ele>190.22</ele>
        <time>2015-11-11T11:37:11Z</time>
      </trkpt>
      <trkpt lat="43.61358" lon="1.51148">
        <ele>189.33</ele>
        <time>2015-11-11T11:37:17Z</time>
      </trkpt>
      <trkpt lat="43.61346" lon="1.51129">
        <ele>187.83</ele>
        <time>2015-11-11T11:37:21Z</time>
      </trkpt>
      <trkpt lat="43.61334" lon="1.51108">
        <ele>184.92</ele>
        <time>2015-11-11T11:37:27Z</time>
      </trkpt>
      <trkpt lat="43.61325" lon="1.51078">
        <ele>183.06</ele>
        <time>2015-11-11T11:37:33Z</time>
      </trkpt>
      <trkpt lat="43.61317" lon="1.51049">
        <ele>182.55</ele>
        <time>2015-11-11T11:37:39Z</time>
      </trkpt>
      <trkpt lat="43.61306" lon="1.51023">
        <ele>181.33</ele>
        <time>2015-11-11T11:37:47Z</time>
      </trkpt>
      <trkpt lat="43.61289" lon="1.51">
        <ele>180.43</ele>
        <time>2015-11-11T11:37:53Z</time>
      </trkpt>
      <trkpt lat="43.61285" lon="1.50967">
        <ele>179.6</ele>
        <time>2015-11-11T11:37:59Z</time>
      </trkpt>
      <trkpt lat="43.61292" lon="1.50941">
        <ele>178.37</ele>
        <time>2015-11-11T11:38:05Z</time>
      </trkpt>
      <trkpt lat="43.61302" lon="1.5092">
        <ele>177.56</ele>
        <time>2015-11-11T11:38:17Z</time>
      </trkpt>
      <trkpt lat="43.61285" lon="1.5089">
        <ele>176.76</ele>
        <time>2015-11-11T11:38:25Z</time>
      </trkpt>
      <trkpt lat="43.61268" lon="1.50874">
        <ele>176.61</ele>
        <time>2015-11-11T11:38:29Z</time>
      </trkpt>
      <trkpt lat="43.6125" lon="1.50856">
        <ele>176.38</ele>
        <time>2015-11-11T11:38:33Z</time>
      </trkpt>
      <trkpt lat="43.61233" lon="1.50833">
        <ele>175.57</ele>
        <time>2015-11-11T11:38:37Z</time>
      </trkpt>
      <trkpt lat="43.61215" lon="1.50811">
        <ele>174.89</ele>
        <time>2015-11-11T11:38:41Z</time>
      </trkpt>
      <trkpt lat="43.61201" lon="1.50782">
        <ele>174.35</ele>
        <time>2015-11-11T11:38:45Z</time>
      </trkpt>
      <trkpt lat="43.61188" lon="1.50758">
        <ele>173.91</ele>
        <time>2015-11-11T11:38:49Z</time>
      </trkpt>
      <trkpt lat="43.61178" lon="1.50731">
        <ele>173.58</ele>
        <time>2015-11-11T11:38:53Z</time>
      </trkpt>
      <trkpt lat="43.61164" lon="1.50708">
        <ele>172.74</ele>
        <time>2015-11-11T11:38:57Z</time>
      </trkpt>
      <trkpt lat="43.61151" lon="1.50682">
        <ele>171.74</ele>
        <time>2015-11-11T11:39:01Z</time>
      </trkpt>
      <trkpt lat="43.61141" lon="1.5066">
        <ele>171.13</ele>
        <time>2015-11-11T11:39:05Z</time>
      </trkpt>
      <trkpt lat="43.6113" lon="1.50638">
        <ele>169.55</ele>
        <time>2015-11-11T11:39:11Z</time>
      </trkpt>
      <trkpt lat="43.61116" lon="1.50612">
        <ele>168.6</ele>
        <time>2015-11-11T11:39:17Z</time>
      </trkpt>
      <trkpt lat="43.61095" lon="1.50635">
        <ele>167.73</ele>
        <time>2015-11-11T11:39:25Z</time>
      </trkpt>
      <trkpt lat="43.61084" lon="1.50666">
        <ele>168.36</ele>
        <time>2015-11-11T11:39:31Z</time>
      </trkpt>
      <trkpt lat="43.61067" lon="1.50691">
        <ele>169.01</ele>
        <time>2015-11-11T11:39:37Z</time>
      </trkpt>
      <trkpt lat="43.61054" lon="1.50711">
        <ele>169.18</ele>
        <time>2015-11-11T11:39:41Z</time>
      </trkpt>
      <trkpt lat="43.61042" lon="1.50731">
        <ele>169.32</ele>
        <time>2015-11-11T11:39:45Z</time>
      </trkpt>
      <trkpt lat="43.61027" lon="1.50762">
        <ele>169.49</ele>
        <time>2015-11-11T11:39:51Z</time>
      </trkpt>
      <trkpt lat="43.61013" lon="1.50787">
        <ele>169.03</ele>
        <time>2015-11-11T11:39:57Z</time>
      </trkpt>
      <trkpt lat="43.61004" lon="1.50822">
        <ele>169.86</ele>
        <time>2015-11-11T11:40:03Z</time>
      </trkpt>
      <trkpt lat="43.6099" lon="1.5085">
        <ele>170.52</ele>
        <time>2015-11-11T11:40:09Z</time>
      </trkpt>
      <trkpt lat="43.60981" lon="1.50875">
        <ele>170.82</ele>
        <time>2015-11-11T11:40:15Z</time>
      </trkpt>
      <trkpt lat="43.6097" lon="1.50902">
        <ele>171.78</ele>
        <time>2015-11-11T11:40:23Z</time>
      </trkpt>
      <trkpt lat="43.60959" lon="1.50923">
        <ele>172.68</ele>
        <time>2015-11-11T11:40:29Z</time>
      </trkpt>
      <trkpt lat="43.60945" lon="1.50945">
        <ele>173.71</ele>
        <time>2015-11-11T11:40:35Z</time>
      </trkpt>
      <trkpt lat="43.60932" lon="1.50965">
        <ele>174.17</ele>
        <time>2015-11-11T11:40:41Z</time>
      </trkpt>
      <trkpt lat="43.6092" lon="1.50991">
        <ele>176.02</ele>
        <time>2015-11-11T11:40:51Z</time>
      </trkpt>
      <trkpt lat="43.60906" lon="1.5101">
        <ele>177.34</ele>
        <time>2015-11-11T11:40:59Z</time>
      </trkpt>
      <trkpt lat="43.60886" lon="1.51007">
        <ele>178.09</ele>
        <time>2015-11-11T11:41:07Z</time>
      </trkpt>
      <trkpt lat="43.60865" lon="1.50994">
        <ele>177.08</ele>
        <time>2015-11-11T11:41:47Z</time>
      </trkpt>
      <trkpt lat="43.60863" lon="1.50966">
        <ele>176.66</ele>
        <time>2015-11-11T11:41:53Z</time>
      </trkpt>
      <trkpt lat="43.60866" lon="1.5094">
        <ele>176.27</ele>
        <time>2015-11-11T11:42:01Z</time>
      </trkpt>
      <trkpt lat="43.60869" lon="1.50914">
        <ele>175.64</ele>
        <time>2015-11-11T11:42:09Z</time>
      </trkpt>
      <trkpt lat="43.60867" lon="1.50887">
        <ele>175.51</ele>
        <time>2015-11-11T11:42:19Z</time>
      </trkpt>
      <trkpt lat="43.60832" lon="1.50861">
        <ele>175.83</ele>
        <time>2015-11-11T11:42:51Z</time>
      </trkpt>
      <trkpt lat="43.60822" lon="1.50838">
        <ele>176.4</ele>
        <time>2015-11-11T11:43:03Z</time>
      </trkpt>
      <trkpt lat="43.60808" lon="1.50795">
        <ele>178.33</ele>
        <time>2015-11-11T11:43:27Z</time>
      </trkpt>
      <trkpt lat="43.60812" lon="1.50767">
        <ele>180.46</ele>
        <time>2015-11-11T11:43:39Z</time>
      </trkpt>
      <trkpt lat="43.60817" lon="1.50742">
        <ele>182.05</ele>
        <time>2015-11-11T11:43:49Z</time>
      </trkpt>
      <trkpt lat="43.60809" lon="1.50764">
        <ele>185.52</ele>
        <time>2015-11-11T11:44:39Z</time>
      </trkpt>
      <trkpt lat="43.60804" lon="1.508">
        <ele>186.83</ele>
        <time>2015-11-11T11:45:07Z</time>
      </trkpt>
      <trkpt lat="43.60812" lon="1.50824">
        <ele>187.67</ele>
        <time>2015-11-11T11:45:15Z</time>
      </trkpt>
      <trkpt lat="43.60822" lon="1.50845">
        <ele>187.35</ele>
        <time>2015-11-11T11:45:23Z</time>
      </trkpt>
      <trkpt lat="43.60833" lon="1.50871">
        <ele>186.16</ele>
        <time>2015-11-11T11:45:31Z</time>
      </trkpt>
      <trkpt lat="43.60848" lon="1.50887">
        <ele>185.5</ele>
        <time>2015-11-11T11:45:37Z</time>
      </trkpt>
      <trkpt lat="43.60865" lon="1.50899">
        <ele>183.7</ele>
        <time>2015-11-11T11:45:45Z</time>
      </trkpt>
      <trkpt lat="43.60876" lon="1.50875">
        <ele>179.71</ele>
        <time>2015-11-11T11:46:23Z</time>
      </trkpt>
      <trkpt lat="43.60881" lon="1.50843">
        <ele>178.9</ele>
        <time>2015-11-11T11:46:29Z</time>
      </trkpt>
      <trkpt lat="43.60888" lon="1.50812">
        <ele>178.62</ele>
        <time>2015-11-11T11:46:35Z</time>
      </trkpt>
      <trkpt lat="43.60893" lon="1.50787">
        <ele>178.38</ele>
        <time>2015-11-11T11:46:39Z</time>
      </trkpt>
      <trkpt lat="43.60901" lon="1.50756">
        <ele>177.64</ele>
        <time>2015-11-11T11:46:45Z</time>
      </trkpt>
      <trkpt lat="43.60909" lon="1.50721">
        <ele>177.28</ele>
        <time>2015-11-11T11:46:51Z</time>
      </trkpt>
      <trkpt lat="43.60917" lon="1.50686">
        <ele>176.83</ele>
        <time>2015-11-11T11:46:57Z</time>
      </trkpt>
      <trkpt lat="43.60926" lon="1.50651">
        <ele>176.43</ele>
        <time>2015-11-11T11:47:03Z</time>
      </trkpt>
      <trkpt lat="43.60932" lon="1.50626">
        <ele>176.13</ele>
        <time>2015-11-11T11:47:07Z</time>
      </trkpt>
      <trkpt lat="43.60936" lon="1.50601">
        <ele>175.66</ele>
        <time>2015-11-11T11:47:11Z</time>
      </trkpt>
      <trkpt lat="43.60943" lon="1.50567">
        <ele>174.79</ele>
        <time>2015-11-11T11:47:17Z</time>
      </trkpt>
      <trkpt lat="43.60949" lon="1.50534">
        <ele>173.94</ele>
        <time>2015-11-11T11:47:23Z</time>
      </trkpt>
      <trkpt lat="43.60955" lon="1.50503">
        <ele>173.61</ele>
        <time>2015-11-11T11:47:29Z</time>
      </trkpt>
      <trkpt lat="43.60963" lon="1.50469">
        <ele>173.83</ele>
        <time>2015-11-11T11:47:35Z</time>
      </trkpt>
      <trkpt lat="43.60969" lon="1.50443">
        <ele>173.83</ele>
        <time>2015-11-11T11:47:39Z</time>
      </trkpt>
      <trkpt lat="43.60975" lon="1.50413">
        <ele>173.48</ele>
        <time>2015-11-11T11:47:43Z</time>
      </trkpt>
      <trkpt lat="43.6098" lon="1.5038">
        <ele>172.82</ele>
        <time>2015-11-11T11:47:47Z</time>
      </trkpt>
      <trkpt lat="43.60983" lon="1.50345">
        <ele>171.9</ele>
        <time>2015-11-11T11:47:51Z</time>
      </trkpt>
      <trkpt lat="43.60984" lon="1.5031">
        <ele>171.13</ele>
        <time>2015-11-11T11:47:55Z</time>
      </trkpt>
      <trkpt lat="43.60973" lon="1.50288">
        <ele>170.63</ele>
        <time>2015-11-11T11:47:59Z</time>
      </trkpt>
      <trkpt lat="43.60955" lon="1.50288">
        <ele>170.43</ele>
        <time>2015-11-11T11:48:03Z</time>
      </trkpt>
      <trkpt lat="43.6093" lon="1.50277">
        <ele>170.52</ele>
        <time>2015-11-11T11:48:09Z</time>
      </trkpt>
      <trkpt lat="43.60907" lon="1.50266">
        <ele>170.93</ele>
        <time>2015-11-11T11:48:15Z</time>
      </trkpt>
      <trkpt lat="43.60885" lon="1.50255">
        <ele>171.95</ele>
        <time>2015-11-11T11:48:21Z</time>
      </trkpt>
      <trkpt lat="43.60863" lon="1.50247">
        <ele>172.82</ele>
        <time>2015-11-11T11:48:27Z</time>
      </trkpt>
      <trkpt lat="43.60841" lon="1.5024">
        <ele>173.54</ele>
        <time>2015-11-11T11:48:33Z</time>
      </trkpt>
      <trkpt lat="43.60818" lon="1.50232">
        <ele>174.12</ele>
        <time>2015-11-11T11:48:39Z</time>
      </trkpt>
      <trkpt lat="43.608" lon="1.50225">
        <ele>174.13</ele>
        <time>2015-11-11T11:48:43Z</time>
      </trkpt>
      <trkpt lat="43.60781" lon="1.50219">
        <ele>174.08</ele>
        <time>2015-11-11T11:48:47Z</time>
      </trkpt>
      <trkpt lat="43.60761" lon="1.50212">
        <ele>173.92</ele>
        <time>2015-11-11T11:48:51Z</time>
      </trkpt>
      <trkpt lat="43.60742" lon="1.50205">
        <ele>173.93</ele>
        <time>2015-11-11T11:48:55Z</time>
      </trkpt>
      <trkpt lat="43.60724" lon="1.50198">
        <ele>174.01</ele>
        <time>2015-11-11T11:48:59Z</time>
      </trkpt>
      <trkpt lat="43.60706" lon="1.50191">
        <ele>174.15</ele>
        <time>2015-11-11T11:49:03Z</time>
      </trkpt>
      <trkpt lat="43.60683" lon="1.50183">
        <ele>174.1</ele>
        <time>2015-11-11T11:49:09Z</time>
      </trkpt>
      <trkpt lat="43.60658" lon="1.50175">
        <ele>173.72</ele>
        <time>2015-11-11T11:49:15Z</time>
      </trkpt>
      <trkpt lat="43.60641" lon="1.50169">
        <ele>173.53</ele>
        <time>2015-11-11T11:49:19Z</time>
      </trkpt>
      <trkpt lat="43.60618" lon="1.50162">
        <ele>172.98</ele>
        <time>2015-11-11T11:49:25Z</time>
      </trkpt>
      <trkpt lat="43.60596" lon="1.50153">
        <ele>172.31</ele>
        <time>2015-11-11T11:49:33Z</time>
      </trkpt>
      <trkpt lat="43.60578" lon="1.50162">
        <ele>172.29</ele>
        <time>2015-11-11T11:49:45Z</time>
      </trkpt>
      <trkpt lat="43.60565" lon="1.50129">
        <ele>171.99</ele>
        <time>2015-11-11T11:49:51Z</time>
      </trkpt>
      <trkpt lat="43.60555" lon="1.50105">
        <ele>171.5</ele>
        <time>2015-11-11T11:49:55Z</time>
      </trkpt>
      <trkpt lat="43.6056" lon="1.50074">
        <ele>171.31</ele>
        <time>2015-11-11T11:50:03Z</time>
      </trkpt>
    </trkseg>
  </trk>
</gpx>